Darstellungsparameter: Aktuell verwendete Einstellungen:
Skalierung der Graphiken ... ?
xyx+y,   Skalierungsfaktor:      Skalierung: Modus: x, Faktor: 1
Darstellungszeitraum ... ?
Vom - - bis: - -   Zeitraum: 16.02.2019 - 15.05.2019
Min/Max/Avg-Anzeige ... ?
Zeige MMA aktuell
Zeige MMA Monat
Zeige MMA alles
Zeige --A aktuell
Zeige --A Monat
Zeige --A alles
Keine MMA-Anzeige
MMA:
Average (ber die Originaldaten)
MMA-Basis: 16.02.2019 - 15.05.2019
Quicknavigation für Darstellung... ?
Tage:      1T, 2T, 3T, 5T -1T -2T -3T -5T +1T +2T +3T +5T
Wochen: 1W, 2W, 3W -1W -2W -3W +1W +2W +3W
Monate: 1M, 3M, 6M -1M -3M -6M +1M +3M +6M
Jahre:    1J, 3J, 5J, 10J -1J -3J -5J -10J +1J +3J +5J +10J
Nutze für die Darstellung ... ?
Originaldaten oder ...
Mittelwerte Minima Maxima auf...
Stundenbasis Tagesbasis Wochenbasis
Monatsbasis Jahresbasis      Datenbasis: Mittelwerte auf Stundenbasis
Darstellen als:
Statistik (Auto) Statistik J:M      Darstellung:
Zur Graphik,    zurück zur Übersicht aller Sensoren.
 
Tabellarische Datenbersicht: ?
 
Sensor: Nr:Datum:Temp:Abs-Feuchte:Windchill:Wind:
Aussen-T/F 1 16-02-2019 00:00:00 0.41667 C 4.63 g/m*3 0.42 C 0 km/h
2 16-02-2019 01:00:00 -0.15 C 4.5 g/m*3 -0.15 C 0 km/h
3 16-02-2019 02:00:00 -0.48333 C 4.42 g/m*3 -0.48 C 0.53333 km/h
4 16-02-2019 03:00:00 -0.75833 C 4.36 g/m*3 -0.76 C 0.13333 km/h
5 16-02-2019 04:00:00 -0.925 C 4.32 g/m*3 -0.93 C 0.13333 km/h
6 16-02-2019 05:00:00 -1.11667 C 4.27 g/m*3 -1.12 C 1.06667 km/h
7 16-02-2019 06:00:00 -1.20833 C 4.25 g/m*3 -1.21 C 0.8 km/h
8 16-02-2019 07:00:00 -1.64167 C 4.11 g/m*3 -1.64 C 0.13333 km/h
9 16-02-2019 08:00:00 -1.78333 C 4.09 g/m*3 -1.78 C 0.13333 km/h
10 16-02-2019 09:00:00 -1.09167 C 4.31 g/m*3 -1.09 C 0 km/h
11 16-02-2019 10:00:00 -0.225 C 4.6 g/m*3 -0.23 C 0 km/h
12 16-02-2019 11:00:00 2.175 C 5.45 g/m*3 2.17 C 0.53333 km/h
13 16-02-2019 12:00:00 4.96667 C 6.57 g/m*3 4.97 C 1.06667 km/h
14 16-02-2019 13:00:00 7.85833 C 7.37 g/m*3 7.86 C 2.26667 km/h
15 16-02-2019 14:00:00 10.66667 C 7.56 g/m*3 10.67 C 0 km/h
16 16-02-2019 15:00:00 11.75833 C 7.33 g/m*3 11.76 C 4 km/h
17 16-02-2019 16:00:00 11.88333 C 7.11 g/m*3 11.88 C 2.4 km/h
18 16-02-2019 17:00:00 10.69167 C 6.87 g/m*3 10.69 C 4 km/h
19 16-02-2019 18:00:00 8.74167 C 6.63 g/m*3 8.02 C 6 km/h
20 16-02-2019 19:00:00 7.29167 C 6.4 g/m*3 7.29 C 2 km/h
21 16-02-2019 20:00:00 5.41667 C 5.88 g/m*3 5.42 C 0 km/h
22 16-02-2019 21:00:00 3.75833 C 5.54 g/m*3 3.76 C 0 km/h
23 16-02-2019 22:00:00 2.8 C 5.35 g/m*3 2.8 C 0 km/h
24 16-02-2019 23:00:00 1.95833 C 5.15 g/m*3 1.96 C 0 km/h
25 17-02-2019 00:00:00 1.55 C 5.07 g/m*3 1.55 C 0 km/h
Sensor: Nr:Datum:Temp:Abs-Feuchte:Windchill:Wind:
Aussen-T/F 26 17-02-2019 01:00:00 0.86667 C 4.85 g/m*3 0.87 C 0 km/h
27 17-02-2019 02:00:00 0.34167 C 4.71 g/m*3 0.34 C 0 km/h
28 17-02-2019 03:00:00 0.09167 C 4.65 g/m*3 0.09 C 0 km/h
29 17-02-2019 04:00:00 -0.36667 C 4.5 g/m*3 -0.37 C 0 km/h
30 17-02-2019 05:00:00 -0.85833 C 4.36 g/m*3 -0.86 C 0 km/h
31 17-02-2019 06:00:00 -0.975 C 4.35 g/m*3 -0.98 C 0.13333 km/h
32 17-02-2019 07:00:00 -1.25 C 4.26 g/m*3 -1.25 C 0 km/h
33 17-02-2019 08:00:00 -1.33333 C 4.24 g/m*3 -1.33 C 0 km/h
34 17-02-2019 09:00:00 -0.81667 C 4.4 g/m*3 -0.82 C 0 km/h
35 17-02-2019 10:00:00 -0.16667 C 4.63 g/m*3 -0.17 C 0 km/h
36 17-02-2019 11:00:00 1.93333 C 5.37 g/m*3 1.93 C 0.13333 km/h
37 17-02-2019 12:00:00 4.73333 C 6.5 g/m*3 4.73 C 0.13333 km/h
38 17-02-2019 13:00:00 7.51667 C 7.74 g/m*3 7.52 C 0.53333 km/h
39 17-02-2019 14:00:00 9.76667 C 7.99 g/m*3 9.77 C 1.33333 km/h
40 17-02-2019 15:00:00 11.19167 C 7.83 g/m*3 11.19 C 3.06667 km/h
41 17-02-2019 16:00:00 11.94167 C 7.56 g/m*3 11.94 C 2.26667 km/h
42 17-02-2019 17:00:00 11 C 7.26 g/m*3 10.59 C 6.13333 km/h
43 17-02-2019 18:00:00 8.59167 C 6.56 g/m*3 8.59 C 4.8 km/h
44 17-02-2019 19:00:00 6.73333 C 6.1 g/m*3 6.73 C 1.86667 km/h
45 17-02-2019 20:00:00 4.69167 C 5.63 g/m*3 4.69 C 0 km/h
46 17-02-2019 21:00:00 3.65 C 5.43 g/m*3 3.65 C 0.13333 km/h
47 17-02-2019 22:00:00 2.375 C 5.11 g/m*3 2.38 C 0 km/h
48 17-02-2019 23:00:00 1.7 C 4.99 g/m*3 1.7 C 0 km/h
49 18-02-2019 00:00:00 1.46667 C 4.91 g/m*3 1.47 C 0 km/h
50 18-02-2019 01:00:00 0.49167 C 4.64 g/m*3 0.49 C 0 km/h
Sensor: Nr:Datum:Temp:Abs-Feuchte:Windchill:Wind:
Aussen-T/F 51 18-02-2019 02:00:00 0.08333 C 4.57 g/m*3 0.08 C 0.13333 km/h
52 18-02-2019 03:00:00 -0.41667 C 4.43 g/m*3 -0.42 C 0 km/h
53 18-02-2019 04:00:00 -0.775 C 4.34 g/m*3 -0.78 C 0 km/h
54 18-02-2019 05:00:00 -1.21667 C 4.23 g/m*3 -1.22 C 0 km/h
55 18-02-2019 06:00:00 -1.475 C 4.15 g/m*3 -1.48 C 0 km/h
56 18-02-2019 07:00:00 -1.65 C 4.11 g/m*3 -1.65 C 0 km/h
57 18-02-2019 08:00:00 -1.63333 C 4.13 g/m*3 -1.63 C 0.13333 km/h
58 18-02-2019 09:00:00 -0.56667 C 4.47 g/m*3 -0.57 C 0.66667 km/h
59 18-02-2019 10:00:00 0.19167 C 4.72 g/m*3 0.19 C 0.8 km/h
60 18-02-2019 11:00:00 2.84167 C 5.69 g/m*3 2.84 C 0 km/h
61 18-02-2019 12:00:00 6.04167 C 6.76 g/m*3 6.04 C 0 km/h
62 18-02-2019 13:00:00 9.59167 C 7.36 g/m*3 9.59 C 0 km/h
63 18-02-2019 14:00:00 11.34167 C 7.36 g/m*3 11.34 C 0 km/h
64 18-02-2019 15:00:00 12.05833 C 7.16 g/m*3 12.06 C 0 km/h
65 18-02-2019 16:00:00 11.84167 C 6.81 g/m*3 11.84 C 0 km/h
66 18-02-2019 17:00:00 10.425 C 6.72 g/m*3 10.43 C 0 km/h
67 18-02-2019 18:00:00 8.41667 C 6.35 g/m*3 8.42 C 0 km/h
68 18-02-2019 19:00:00 7 C 6.2 g/m*3 7 C 0 km/h
69 18-02-2019 20:00:00 5.65833 C 5.77 g/m*3 5.66 C 0.4 km/h
70 18-02-2019 21:00:00 4.1 C 5.5 g/m*3 4.1 C 0 km/h
71 18-02-2019 22:00:00 2.76667 C 5.19 g/m*3 2.77 C 0 km/h
72 18-02-2019 23:00:00 2.13333 C 5.09 g/m*3 2.13 C 0 km/h
73 19-02-2019 00:00:00 1.725 C 5.02 g/m*3 1.73 C 0 km/h
74 19-02-2019 01:00:00 1.83333 C 5.1 g/m*3 1.83 C 0 km/h
75 19-02-2019 02:00:00 1.85 C 5.13 g/m*3 1.85 C 0 km/h
Sensor: Nr:Datum:Temp:Abs-Feuchte:Windchill:Wind:
Aussen-T/F 76 19-02-2019 03:00:00 2.34167 C 5.37 g/m*3 2.34 C 0.93333 km/h
77 19-02-2019 04:00:00 3.7 C 5.86 g/m*3 3.7 C 4.41667 km/h
78 19-02-2019 05:00:00 4.04167 C 5.79 g/m*3 4.04 C 2.93333 km/h
79 19-02-2019 06:00:00 4.99167 C 5.96 g/m*3 4.99 C 4.41667 km/h
80 19-02-2019 07:00:00 5.2 C 6.21 g/m*3 5.2 C 2.93333 km/h
81 19-02-2019 08:00:00 4.89167 C 6.27 g/m*3 4.89 C 1.06667 km/h
82 19-02-2019 09:00:00 5.25 C 6.55 g/m*3 4.28 C 5.225 km/h
83 19-02-2019 10:00:00 6.34167 C 7 g/m*3 4.59 C 8.48333 km/h
84 19-02-2019 11:00:00 7.28333 C 7.31 g/m*3 5.93 C 7.53333 km/h
85 19-02-2019 12:00:00 8.71667 C 7.61 g/m*3 8.07 C 5.75833 km/h
86 19-02-2019 13:00:00 9.94167 C 7.5 g/m*3 8.69 C 9.29167 km/h
87 19-02-2019 14:00:00 10.65 C 7.29 g/m*3 9.26 C 10.9 km/h
88 19-02-2019 15:00:00 10.94167 C 7.23 g/m*3 10.05 C 8.34167 km/h
89 19-02-2019 16:00:00 10.9 C 7.18 g/m*3 10.28 C 6.98333 km/h
90 19-02-2019 17:00:00 9.69167 C 6.87 g/m*3 9.69 C 4.15833 km/h
91 19-02-2019 18:00:00 7.28333 C 6.56 g/m*3 7.28 C 4.54167 km/h
92 19-02-2019 19:00:00 6.225 C 6.41 g/m*3 6.23 C 4.13333 km/h
93 19-02-2019 20:00:00 5.44167 C 6.24 g/m*3 5.44 C 3.33333 km/h
94 19-02-2019 21:00:00 4.85 C 6.03 g/m*3 4.85 C 0.53333 km/h
95 19-02-2019 22:00:00 3.46667 C 5.6 g/m*3 3.47 C 0.66667 km/h
96 19-02-2019 23:00:00 3.05 C 5.53 g/m*3 3.05 C 0.66667 km/h
97 20-02-2019 00:00:00 2.6 C 5.4 g/m*3 2.6 C 0.8 km/h
98 20-02-2019 01:00:00 1.78333 C 5.11 g/m*3 1.78 C 0 km/h
99 20-02-2019 02:00:00 1.19167 C 4.96 g/m*3 1.19 C 0.13333 km/h
100 20-02-2019 03:00:00 1.1 C 4.96 g/m*3 1.1 C 1.2 km/h
Sensor: Nr:Datum:Temp:Abs-Feuchte:Windchill:Wind:
Aussen-T/F 101 20-02-2019 04:00:00 0.875 C 4.89 g/m*3 0.88 C 0.66667 km/h
102 20-02-2019 05:00:00 1 C 4.96 g/m*3 1 C 1.06667 km/h
103 20-02-2019 06:00:00 0.86667 C 4.92 g/m*3 0.87 C 0.4 km/h
104 20-02-2019 07:00:00 0.73333 C 4.89 g/m*3 0.73 C 1.2 km/h
105 20-02-2019 08:00:00 1.30833 C 5.11 g/m*3 1.31 C 2.41667 km/h
106 20-02-2019 09:00:00 3.09167 C 5.78 g/m*3 0.06 C 11.43333 km/h
107 20-02-2019 10:00:00 4.40833 C 6.25 g/m*3 1.7 C 11.16667 km/h
108 20-02-2019 11:00:00 6.075 C 6.72 g/m*3 3.9 C 10.225 km/h
109 20-02-2019 12:00:00 7.49167 C 7.04 g/m*3 6.21 C 7.36667 km/h
110 20-02-2019 13:00:00 9.86667 C 7.29 g/m*3 8.2 C 11.7 km/h
111 20-02-2019 14:00:00 10.85833 C 7.37 g/m*3 9.95 C 8.325 km/h
112 20-02-2019 15:00:00 11.08333 C 7.35 g/m*3 11.08 C 6.15833 km/h
113 20-02-2019 16:00:00 11.375 C 7.3 g/m*3 11.38 C 6.84167 km/h
114 20-02-2019 17:00:00 10.35 C 7.12 g/m*3 10.35 C 3.875 km/h
115 20-02-2019 18:00:00 7.29167 C 6.63 g/m*3 7.29 C 3.86667 km/h
116 20-02-2019 19:00:00 6.16667 C 6.43 g/m*3 6.17 C 2.53333 km/h
117 20-02-2019 20:00:00 4.86667 C 6.04 g/m*3 4.87 C 0.26667 km/h
118 20-02-2019 21:00:00 3.775 C 5.73 g/m*3 3.78 C 0 km/h
119 20-02-2019 22:00:00 2.7 C 5.41 g/m*3 2.7 C 0 km/h
120 20-02-2019 23:00:00 2.10833 C 5.28 g/m*3 2.11 C 0.13333 km/h
121 21-02-2019 00:00:00 1.575 C 5.1 g/m*3 1.58 C 0 km/h
122 21-02-2019 01:00:00 1.58333 C 5.14 g/m*3 1.58 C 0.26667 km/h
123 21-02-2019 02:00:00 1.06667 C 4.96 g/m*3 1.07 C 0 km/h
124 21-02-2019 03:00:00 0.74167 C 4.89 g/m*3 0.74 C 0.26667 km/h
125 21-02-2019 04:00:00 0.91667 C 4.95 g/m*3 0.92 C 1.33333 km/h
Sensor: Nr:Datum:Temp:Abs-Feuchte:Windchill:Wind:
Aussen-T/F 126 21-02-2019 05:00:00 1.06667 C 5.02 g/m*3 1.07 C 1.2 km/h
127 21-02-2019 06:00:00 1.25 C 5.08 g/m*3 1.25 C 0.93333 km/h
128 21-02-2019 07:00:00 1.21667 C 5.08 g/m*3 1.22 C 0.4 km/h
129 21-02-2019 08:00:00 2.10833 C 5.43 g/m*3 2.11 C 0.4 km/h
130 21-02-2019 09:00:00 2.84167 C 5.71 g/m*3 2.84 C 0.66667 km/h
131 21-02-2019 10:00:00 3.91667 C 6.13 g/m*3 3.92 C 1.2 km/h
132 21-02-2019 11:00:00 5.725 C 6.76 g/m*3 5.73 C 0.93333 km/h
133 21-02-2019 12:00:00 8.33333 C 7.59 g/m*3 8.33 C 2.94167 km/h
134 21-02-2019 13:00:00 11.3 C 8.35 g/m*3 11.3 C 6.29167 km/h
135 21-02-2019 14:00:00 12.6 C 8.52 g/m*3 12.6 C 6.30833 km/h
136 21-02-2019 15:00:00 13.325 C 8.59 g/m*3 13.33 C 6.44167 km/h
137 21-02-2019 16:00:00 13.34167 C 8.58 g/m*3 13.34 C 5.49167 km/h
138 21-02-2019 17:00:00 12.48333 C 8.77 g/m*3 12.48 C 2.13333 km/h
139 21-02-2019 18:00:00 10.56667 C 8.39 g/m*3 10.57 C 2.4 km/h
140 21-02-2019 19:00:00 9.74167 C 8.06 g/m*3 9.74 C 3.46667 km/h
141 21-02-2019 20:00:00 9.18333 C 7.98 g/m*3 9.18 C 0.53333 km/h
142 21-02-2019 21:00:00 9.325 C 8.15 g/m*3 9.32 C 0.66667 km/h
143 21-02-2019 22:00:00 9.275 C 8.01 g/m*3 9.28 C 0.13333 km/h
144 21-02-2019 23:00:00 9.21667 C 7.99 g/m*3 9.22 C 1.6 km/h
145 22-02-2019 00:00:00 9.575 C 8.12 g/m*3 9.57 C 2.675 km/h
146 22-02-2019 01:00:00 9.76667 C 8.17 g/m*3 9.77 C 0.4 km/h
147 22-02-2019 02:00:00 9.325 C 8.12 g/m*3 9.32 C 0.53333 km/h
148 22-02-2019 03:00:00 9.55 C 8.41 g/m*3 9.55 C 0.53333 km/h
149 22-02-2019 04:00:00 9.66667 C 8.55 g/m*3 9.67 C 0.53333 km/h
150 22-02-2019 05:00:00 9.34167 C 8.49 g/m*3 9.34 C 0.53333 km/h
Sensor: Nr:Datum:Temp:Abs-Feuchte:Windchill:Wind:
Aussen-T/F 151 22-02-2019 06:00:00 9.34167 C 8.56 g/m*3 9.34 C 2.13333 km/h
152 22-02-2019 07:00:00 9.225 C 8.53 g/m*3 9.23 C 0.53333 km/h
153 22-02-2019 08:00:00 9.16667 C 8.55 g/m*3 9.17 C 0.66667 km/h
154 22-02-2019 09:00:00 9.50833 C 8.74 g/m*3 9.51 C 0.13333 km/h
155 22-02-2019 10:00:00 9.93333 C 8.98 g/m*3 9.93 C 0 km/h
156 22-02-2019 11:00:00 10.64167 C 9.28 g/m*3 10.64 C 1.86667 km/h
157 22-02-2019 12:00:00 11.6 C 9.14 g/m*3 11.6 C 5.1 km/h
158 22-02-2019 13:00:00 12.46667 C 9.01 g/m*3 12.47 C 4.26667 km/h
159 22-02-2019 14:00:00 12.83333 C 8.75 g/m*3 12.83 C 2.8 km/h
160 22-02-2019 15:00:00 13.275 C 8.57 g/m*3 13.28 C 1.33333 km/h
161 22-02-2019 16:00:00 12.84167 C 8.24 g/m*3 12.84 C 1.86667 km/h
162 22-02-2019 17:00:00 11.825 C 8.03 g/m*3 11.83 C 0.26667 km/h
163 22-02-2019 18:00:00 9.075 C 7.36 g/m*3 9.07 C 1.73333 km/h
164 22-02-2019 19:00:00 8.55 C 7.38 g/m*3 8.55 C 4.13333 km/h
165 22-02-2019 20:00:00 8.99167 C 7.52 g/m*3 8.99 C 1.46667 km/h
166 22-02-2019 21:00:00 8.475 C 7.35 g/m*3 8.48 C 2.53333 km/h
167 22-02-2019 22:00:00 6.94167 C 6.86 g/m*3 6.94 C 3.06667 km/h
168 22-02-2019 23:00:00 5.95 C 6.63 g/m*3 5.95 C 2.66667 km/h
169 23-02-2019 00:00:00 5.31667 C 6.41 g/m*3 5.32 C 0.8 km/h
170 23-02-2019 01:00:00 4.55 C 6.15 g/m*3 4.55 C 0 km/h
171 23-02-2019 02:00:00 4.18333 C 6.05 g/m*3 4.18 C 0 km/h
172 23-02-2019 03:00:00 3.81667 C 5.96 g/m*3 3.82 C 0.93333 km/h
173 23-02-2019 04:00:00 4.26667 C 6.15 g/m*3 4.27 C 1.33333 km/h
174 23-02-2019 05:00:00 4.525 C 6.16 g/m*3 4.53 C 4.025 km/h
175 23-02-2019 06:00:00 4.83333 C 6.04 g/m*3 4.83 C 0.93333 km/h
Sensor: Nr:Datum:Temp:Abs-Feuchte:Windchill:Wind:
Aussen-T/F 176 23-02-2019 07:00:00 4.79167 C 5.83 g/m*3 4.79 C 1.6 km/h
177 23-02-2019 08:00:00 4.85 C 5.72 g/m*3 4.85 C 3.74167 km/h
178 23-02-2019 09:00:00 4.775 C 5.58 g/m*3 2.75 C 8.48333 km/h
179 23-02-2019 10:00:00 4.95 C 5.54 g/m*3 3.9 C 5.34167 km/h
180 23-02-2019 11:00:00 6.125 C 5.78 g/m*3 5.05 C 5.89167 km/h
181 23-02-2019 12:00:00 7.625 C 5.84 g/m*3 6.17 C 8.20833 km/h
182 23-02-2019 13:00:00 9.05833 C 5.91 g/m*3 7.61 C 9.41667 km/h
183 23-02-2019 14:00:00 10.01667 C 5.59 g/m*3 9.38 C 6.43333 km/h
184 23-02-2019 15:00:00 10.78333 C 4.42 g/m*3 10.58 C 5.21667 km/h
185 23-02-2019 16:00:00 10.71667 C 4.63 g/m*3 10.72 C 3.2 km/h
186 23-02-2019 17:00:00 7.99167 C 5.22 g/m*3 7.99 C 2.13333 km/h
187 23-02-2019 18:00:00 5.45833 C 4.97 g/m*3 5.46 C 0 km/h
188 23-02-2019 19:00:00 4.36667 C 4.82 g/m*3 4.37 C 0 km/h
189 23-02-2019 20:00:00 3.38333 C 4.64 g/m*3 3.38 C 0 km/h
190 23-02-2019 21:00:00 2.03333 C 4.42 g/m*3 2.03 C 0 km/h
191 23-02-2019 22:00:00 0.98333 C 4.29 g/m*3 0.98 C 0 km/h
192 23-02-2019 23:00:00 0.45833 C 4.18 g/m*3 0.46 C 0 km/h
193 24-02-2019 00:00:00 -0.25833 C 4.07 g/m*3 -0.26 C 0 km/h
194 24-02-2019 01:00:00 -0.66667 C 4.03 g/m*3 -0.67 C 0 km/h
195 24-02-2019 02:00:00 -1.16667 C 3.93 g/m*3 -1.17 C 0 km/h
196 24-02-2019 03:00:00 -1.5 C 3.89 g/m*3 -1.5 C 0 km/h
197 24-02-2019 04:00:00 -1.73333 C 3.87 g/m*3 -1.73 C 0 km/h
198 24-02-2019 05:00:00 -1.875 C 3.83 g/m*3 -1.88 C 0 km/h
199 24-02-2019 06:00:00 -2.06667 C 3.8 g/m*3 -2.07 C 0 km/h
200 24-02-2019 07:00:00 -2.35833 C 3.75 g/m*3 -2.36 C 0 km/h
Sensor: Nr:Datum:Temp:Abs-Feuchte:Windchill:Wind:
Aussen-T/F 201 24-02-2019 08:00:00 -2.10833 C 3.85 g/m*3 -2.11 C 0 km/h
202 24-02-2019 09:00:00 -1.49167 C 4.01 g/m*3 -1.49 C 0 km/h
203 24-02-2019 10:00:00 0.36667 C 4.41 g/m*3 0.37 C 0 km/h
204 24-02-2019 11:00:00 4.09167 C 4.98 g/m*3 4.09 C 0 km/h
205 24-02-2019 12:00:00 7.35 C 5.24 g/m*3 7.35 C 0 km/h
206 24-02-2019 13:00:00 10.45833 C 4.27 g/m*3 10.46 C 4.40833 km/h
207 24-02-2019 14:00:00 11.89167 C 3.86 g/m*3 11.89 C 6.7 km/h
208 24-02-2019 15:00:00 12.41667 C 4.27 g/m*3 12.42 C 2.8 km/h
209 24-02-2019 16:00:00 11.80833 C 4.9 g/m*3 11.81 C 3.2 km/h
210 24-02-2019 17:00:00 10.3 C 5.02 g/m*3 10.3 C 0.4 km/h
211 24-02-2019 18:00:00 8.44167 C 4.82 g/m*3 8.44 C 4 km/h
212 24-02-2019 19:00:00 6.86667 C 4.69 g/m*3 6.87 C 3.73333 km/h
213 24-02-2019 20:00:00 4.93333 C 4.49 g/m*3 4.93 C 0.26667 km/h
214 24-02-2019 21:00:00 3.36667 C 4.36 g/m*3 3.37 C 0 km/h
215 24-02-2019 22:00:00 2.54167 C 4.29 g/m*3 2.54 C 0 km/h
216 24-02-2019 23:00:00 1.81667 C 4.23 g/m*3 1.82 C 0 km/h
217 25-02-2019 00:00:00 1.175 C 4.15 g/m*3 1.18 C 0 km/h
218 25-02-2019 01:00:00 0.925 C 4.18 g/m*3 0.93 C 0 km/h
219 25-02-2019 02:00:00 0.13333 C 4.09 g/m*3 0.13 C 0 km/h
220 25-02-2019 03:00:00 -0.00833 C 4.07 g/m*3 -0.01 C 0 km/h
221 25-02-2019 04:00:00 -0.58333 C 4.01 g/m*3 -0.58 C 0 km/h
222 25-02-2019 05:00:00 -0.70833 C 4.02 g/m*3 -0.71 C 0.66667 km/h
223 25-02-2019 06:00:00 -0.86667 C 4.01 g/m*3 -0.87 C 0.13333 km/h
224 25-02-2019 07:00:00 -1.21667 C 3.93 g/m*3 -1.22 C 0 km/h
225 25-02-2019 08:00:00 -1.2 C 4 g/m*3 -1.2 C 0 km/h
Sensor: Nr:Datum:Temp:Abs-Feuchte:Windchill:Wind:
Aussen-T/F 226 25-02-2019 09:00:00 -0.69167 C 4.1 g/m*3 -0.69 C 0 km/h
227 25-02-2019 10:00:00 0.81667 C 4.46 g/m*3 0.82 C 0 km/h
228 25-02-2019 11:00:00 4.675 C 5.17 g/m*3 4.68 C 1.06667 km/h
229 25-02-2019 12:00:00 8.70833 C 5.81 g/m*3 8.71 C 1.06667 km/h
230 25-02-2019 13:00:00 12.55 C 5.88 g/m*3 12.55 C 0.26667 km/h
231 25-02-2019 14:00:00 14.74167 C 5.89 g/m*3 14.74 C 1.86667 km/h
232 25-02-2019 15:00:00 14.175 C 6.05 g/m*3 14.18 C 1.73333 km/h
233 25-02-2019 16:00:00 14.375 C 6.12 g/m*3 14.38 C 2.13333 km/h
234 25-02-2019 17:00:00 13.64167 C 6.24 g/m*3 13.64 C 5.6 km/h
235 25-02-2019 18:00:00 11.1 C 6.03 g/m*3 11.1 C 5.6 km/h
236 25-02-2019 19:00:00 9.075 C 5.92 g/m*3 9.07 C 0.4 km/h
237 25-02-2019 20:00:00 7.04167 C 5.67 g/m*3 7.04 C 0 km/h
238 25-02-2019 21:00:00 5.575 C 5.41 g/m*3 5.58 C 0 km/h
239 25-02-2019 22:00:00 4.55 C 5.24 g/m*3 4.55 C 0 km/h
240 25-02-2019 23:00:00 3.25 C 5.05 g/m*3 3.25 C 0 km/h
241 26-02-2019 00:00:00 2.425 C 4.92 g/m*3 2.42 C 0 km/h
242 26-02-2019 01:00:00 1.93333 C 4.91 g/m*3 1.93 C 0 km/h
243 26-02-2019 02:00:00 1.39167 C 4.78 g/m*3 1.39 C 0 km/h
244 26-02-2019 03:00:00 0.63333 C 4.61 g/m*3 0.63 C 0 km/h
245 26-02-2019 04:00:00 0.325 C 4.56 g/m*3 0.33 C 0 km/h
246 26-02-2019 05:00:00 0.21667 C 4.58 g/m*3 0.22 C 0.8 km/h
247 26-02-2019 06:00:00 -0.31667 C 4.4 g/m*3 -0.32 C 0.13333 km/h
248 26-02-2019 07:00:00 -0.48333 C 4.39 g/m*3 -0.48 C 0.13333 km/h
249 26-02-2019 08:00:00 -0.10833 C 4.54 g/m*3 -0.11 C 0.53333 km/h
250 26-02-2019 09:00:00 0.80833 C 4.85 g/m*3 0.81 C 0.13333 km/h
Sensor: Nr:Datum:Temp:Abs-Feuchte:Windchill:Wind:
Aussen-T/F 251 26-02-2019 10:00:00 2.60833 C 5.47 g/m*3 2.61 C 0.13333 km/h
252 26-02-2019 11:00:00 5.75 C 6.19 g/m*3 5.75 C 0 km/h
253 26-02-2019 12:00:00 9.50833 C 6.6 g/m*3 9.51 C 0 km/h
254 26-02-2019 13:00:00 13.85833 C 7.8 g/m*3 13.86 C 0 km/h
255 26-02-2019 14:00:00 16.15833 C 7.61 g/m*3 16.16 C 0 km/h
256 26-02-2019 15:00:00 15.49167 C 7.3 g/m*3 15.49 C 0 km/h
257 26-02-2019 16:00:00 15.44167 C 7.31 g/m*3 15.44 C 3.33333 km/h
258 26-02-2019 17:00:00 14.75833 C 7.39 g/m*3 14.76 C 6.13333 km/h
259 26-02-2019 18:00:00 12.56667 C 7.02 g/m*3 12.57 C 4.93333 km/h
260 26-02-2019 19:00:00 10.34167 C 6.85 g/m*3 10.34 C 0.53333 km/h
261 26-02-2019 20:00:00 8.18333 C 6.39 g/m*3 8.18 C 0 km/h
262 26-02-2019 21:00:00 6.8 C 6.19 g/m*3 6.8 C 0 km/h
263 26-02-2019 22:00:00 5.61667 C 5.93 g/m*3 5.62 C 0 km/h
264 26-02-2019 23:00:00 4.56667 C 5.74 g/m*3 4.57 C 0 km/h
265 27-02-2019 00:00:00 3.55833 C 5.51 g/m*3 3.56 C 0 km/h
266 27-02-2019 01:00:00 2.85 C 5.36 g/m*3 2.85 C 0 km/h
267 27-02-2019 02:00:00 2.25 C 5.22 g/m*3 2.25 C 0 km/h
268 27-02-2019 03:00:00 1.45833 C 4.98 g/m*3 1.46 C 0 km/h
269 27-02-2019 04:00:00 0.78333 C 4.8 g/m*3 0.78 C 0 km/h
270 27-02-2019 05:00:00 0.5 C 4.74 g/m*3 0.5 C 0 km/h
271 27-02-2019 06:00:00 0.125 C 4.64 g/m*3 0.13 C 0 km/h
272 27-02-2019 07:00:00 -0.375 C 4.49 g/m*3 -0.38 C 0 km/h
273 27-02-2019 08:00:00 -0.25833 C 4.55 g/m*3 -0.26 C 0 km/h
274 27-02-2019 09:00:00 0.41667 C 4.79 g/m*3 0.42 C 0 km/h
275 27-02-2019 10:00:00 2.4 C 5.52 g/m*3 2.4 C 0 km/h
Sensor: Nr:Datum:Temp:Abs-Feuchte:Windchill:Wind:
Aussen-T/F 276 27-02-2019 11:00:00 5.5 C 6.68 g/m*3 5.5 C 0 km/h
277 27-02-2019 12:00:00 9.75833 C 7.66 g/m*3 9.76 C 0 km/h
278 27-02-2019 13:00:00 14.69167 C 8.26 g/m*3 14.69 C 0 km/h
279 27-02-2019 14:00:00 17.19167 C 7.64 g/m*3 17.19 C 0 km/h
280 27-02-2019 15:00:00 16.10833 C 7.05 g/m*3 16.11 C 0.93333 km/h
281 27-02-2019 16:00:00 16.25 C 7 g/m*3 16.25 C 4.4 km/h
282 27-02-2019 17:00:00 15.71667 C 6.83 g/m*3 15.72 C 6.13333 km/h
283 27-02-2019 18:00:00 13.55833 C 6.44 g/m*3 13.56 C 4.55833 km/h
284 27-02-2019 19:00:00 10.89167 C 6.35 g/m*3 10.89 C 0 km/h
285 27-02-2019 20:00:00 8.7 C 6.09 g/m*3 8.7 C 0 km/h
286 27-02-2019 21:00:00 6.8 C 5.79 g/m*3 6.8 C 0 km/h
287 27-02-2019 22:00:00 5.55 C 5.67 g/m*3 5.55 C 0 km/h
288 27-02-2019 23:00:00 4.83333 C 5.55 g/m*3 4.83 C 0 km/h
289 28-02-2019 00:00:00 5.35 C 5.77 g/m*3 5.35 C 2.4 km/h
290 28-02-2019 01:00:00 4.93333 C 5.54 g/m*3 4.93 C 0.4 km/h
291 28-02-2019 02:00:00 3.675 C 5.4 g/m*3 3.68 C 3.20833 km/h
292 28-02-2019 03:00:00 2.94167 C 5.27 g/m*3 2.94 C 2.66667 km/h
293 28-02-2019 04:00:00 2.275 C 5.11 g/m*3 2.28 C 2.53333 km/h
294 28-02-2019 05:00:00 2.35833 C 5.18 g/m*3 2.36 C 3.35 km/h
295 28-02-2019 06:00:00 3.21667 C 5.45 g/m*3 1.38 C 6.85833 km/h
296 28-02-2019 07:00:00 3.75 C 5.43 g/m*3 2.47 C 5.5 km/h
297 28-02-2019 08:00:00 3.075 C 5.38 g/m*3 3.08 C 3.075 km/h
298 28-02-2019 09:00:00 4.68333 C 5.92 g/m*3 4.68 C 3.34167 km/h
299 28-02-2019 10:00:00 7.65833 C 6.83 g/m*3 6.03 C 9.01667 km/h
300 28-02-2019 11:00:00 11.56667 C 7.5 g/m*3 11.57 C 12.63333 km/h
Sensor: Nr:Datum:Temp:Abs-Feuchte:Windchill:Wind:
Aussen-T/F 301 28-02-2019 12:00:00 13.26667 C 7.75 g/m*3 13.27 C 11.16667 km/h
302 28-02-2019 13:00:00 14.95833 C 8.12 g/m*3 14.96 C 11.56667 km/h
303 28-02-2019 14:00:00 16.61667 C 8.6 g/m*3 16.62 C 12.89167 km/h
304 28-02-2019 15:00:00 16.76667 C 8.7 g/m*3 16.77 C 11.15 km/h
305 28-02-2019 16:00:00 15.20833 C 8.3 g/m*3 15.21 C 17.175 km/h
306 28-02-2019 17:00:00 12.73333 C 7.56 g/m*3 12.73 C 18.10833 km/h
307 28-02-2019 18:00:00 12.13333 C 7.68 g/m*3 12.13 C 9.425 km/h
308 28-02-2019 19:00:00 11.26667 C 7.7 g/m*3 11.27 C 8.86667 km/h
309 28-02-2019 20:00:00 11.09167 C 7.91 g/m*3 11.09 C 11.43333 km/h
310 28-02-2019 21:00:00 10.975 C 8.07 g/m*3 9.52 C 11.83333 km/h
311 28-02-2019 22:00:00 10.84167 C 8.1 g/m*3 9.6 C 10.20833 km/h
312 28-02-2019 23:00:00 10.26667 C 8.27 g/m*3 9.03 C 9.525 km/h
313 01-03-2019 00:00:00 9.075 C 8.14 g/m*3 9.07 C 4.68333 km/h
314 01-03-2019 01:00:00 8.68333 C 8.1 g/m*3 8.68 C 4.675 km/h
315 01-03-2019 02:00:00 8.69167 C 8.07 g/m*3 7.15 C 9.55 km/h
316 01-03-2019 03:00:00 8.8 C 7.96 g/m*3 7.33 C 9.275 km/h
317 01-03-2019 04:00:00 8.75833 C 7.9 g/m*3 8.12 C 5.75 km/h
318 01-03-2019 05:00:00 8.63333 C 7.9 g/m*3 8.63 C 3.60833 km/h
319 01-03-2019 06:00:00 8.20833 C 7.84 g/m*3 8.21 C 3.475 km/h
320 01-03-2019 07:00:00 8.21667 C 7.96 g/m*3 8.22 C 3.60833 km/h
321 01-03-2019 08:00:00 8.53333 C 8.13 g/m*3 8.53 C 2.8 km/h
322 01-03-2019 09:00:00 8.68333 C 8.21 g/m*3 8.68 C 0.8 km/h
323 01-03-2019 10:00:00 8.66667 C 8.28 g/m*3 8.67 C 0.26667 km/h
324 01-03-2019 11:00:00 8.75833 C 8.25 g/m*3 8.76 C 2.66667 km/h
325 01-03-2019 12:00:00 9.01667 C 8.07 g/m*3 7.09 C 12.21667 km/h
Sensor: Nr:Datum:Temp:Abs-Feuchte:Windchill:Wind:
Aussen-T/F 326 01-03-2019 13:00:00 8.49167 C 7.81 g/m*3 6.79 C 10.19167 km/h
327 01-03-2019 14:00:00 8.38333 C 7.66 g/m*3 7 C 8.475 km/h
328 01-03-2019 15:00:00 8.325 C 7.57 g/m*3 7.65 C 5.63333 km/h
329 01-03-2019 16:00:00 8.34167 C 7.65 g/m*3 8.34 C 4.68333 km/h
330 01-03-2019 17:00:00 8.28333 C 7.66 g/m*3 8.28 C 3.21667 km/h
331 01-03-2019 18:00:00 7.61667 C 7.21 g/m*3 5.35 C 12.5 km/h
332 01-03-2019 19:00:00 6.9 C 6.92 g/m*3 5.29 C 8.31667 km/h
333 01-03-2019 20:00:00 6.625 C 6.88 g/m*3 6.63 C 1.73333 km/h
334 01-03-2019 21:00:00 6.45 C 6.78 g/m*3 6.45 C 1.2 km/h
335 01-03-2019 22:00:00 6.375 C 6.71 g/m*3 6.38 C 1.73333 km/h
336 01-03-2019 23:00:00 6.53333 C 6.66 g/m*3 6.53 C 0.93333 km/h
337 02-03-2019 00:00:00 6.19167 C 6.55 g/m*3 6.19 C 4.30833 km/h
338 02-03-2019 01:00:00 5.85 C 6.4 g/m*3 5.85 C 1.6 km/h
339 02-03-2019 02:00:00 5.64167 C 6.43 g/m*3 5.64 C 0.93333 km/h
340 02-03-2019 03:00:00 5.65 C 6.43 g/m*3 5.65 C 1.46667 km/h
341 02-03-2019 04:00:00 5.7 C 6.47 g/m*3 5.7 C 0.26667 km/h
342 02-03-2019 05:00:00 6.10833 C 6.65 g/m*3 6.11 C 4.80833 km/h
343 02-03-2019 06:00:00 6.30833 C 6.74 g/m*3 6.31 C 3.73333 km/h
344 02-03-2019 07:00:00 6.65 C 6.89 g/m*3 6.65 C 4.68333 km/h
345 02-03-2019 08:00:00 7.01667 C 7.01 g/m*3 7.02 C 4.94167 km/h
346 02-03-2019 09:00:00 7.66667 C 7.19 g/m*3 5.96 C 9.41667 km/h
347 02-03-2019 10:00:00 8.05 C 7.28 g/m*3 6.73 C 7.925 km/h
348 02-03-2019 11:00:00 8.99167 C 7.53 g/m*3 7.61 C 9.025 km/h
349 02-03-2019 12:00:00 9.94167 C 7.75 g/m*3 8.71 C 9.16667 km/h
350 02-03-2019 13:00:00 10.63333 C 7.82 g/m*3 9.66 C 8.475 km/h
Sensor: Nr:Datum:Temp:Abs-Feuchte:Windchill:Wind:
Aussen-T/F 351 02-03-2019 14:00:00 11.40833 C 7.76 g/m*3 11.41 C 6.975 km/h
352 02-03-2019 15:00:00 11.925 C 7.67 g/m*3 11.93 C 8.75 km/h
353 02-03-2019 16:00:00 12.35 C 7.67 g/m*3 12.35 C 10.625 km/h
354 02-03-2019 17:00:00 11.35833 C 7.73 g/m*3 11.36 C 14.5 km/h
355 02-03-2019 18:00:00 10.55 C 7.84 g/m*3 9.09 C 11.28333 km/h
356 02-03-2019 19:00:00 9.84167 C 8 g/m*3 8.11 C 12.1 km/h
357 02-03-2019 20:00:00 9.53333 C 7.96 g/m*3 7.84 C 11.41667 km/h
358 02-03-2019 21:00:00 9.83333 C 8.13 g/m*3 7.98 C 12.9 km/h
359 02-03-2019 22:00:00 10.25 C 8.11 g/m*3 8.53 C 12.61667 km/h
360 02-03-2019 23:00:00 9.96667 C 7.8 g/m*3 8.58 C 10.08333 km/h
361 03-03-2019 00:00:00 9.05833 C 7.33 g/m*3 8.49 C 5.63333 km/h
362 03-03-2019 01:00:00 9.175 C 7.6 g/m*3 7.47 C 11.00833 km/h
363 03-03-2019 02:00:00 9.98333 C 7.63 g/m*3 8.19 C 12.74167 km/h
364 03-03-2019 03:00:00 10 C 7.61 g/m*3 8.3 C 12.09167 km/h
365 03-03-2019 04:00:00 10.225 C 7.71 g/m*3 8.5 C 12.63333 km/h
366 03-03-2019 05:00:00 10.20833 C 7.6 g/m*3 8.39 C 13.28333 km/h
367 03-03-2019 06:00:00 10.10833 C 7.65 g/m*3 8.51 C 11.55 km/h
368 03-03-2019 07:00:00 10.13333 C 7.68 g/m*3 8.28 C 13.425 km/h
369 03-03-2019 08:00:00 10.31667 C 7.81 g/m*3 7.58 C 22.11667 km/h
370 03-03-2019 09:00:00 10.875 C 8.06 g/m*3 8.13 C 24.125 km/h
371 03-03-2019 10:00:00 11.15833 C 8.19 g/m*3 11.16 C 26.01667 km/h
372 03-03-2019 11:00:00 11.00833 C 8.21 g/m*3 11.01 C 15.16667 km/h
373 03-03-2019 12:00:00 11.225 C 8.33 g/m*3 11.23 C 16.36667 km/h
374 03-03-2019 13:00:00 11.73333 C 8.44 g/m*3 11.73 C 11.15833 km/h
375 03-03-2019 14:00:00 11.79167 C 8.42 g/m*3 11.79 C 13.15833 km/h
Sensor: Nr:Datum:Temp:Abs-Feuchte:Windchill:Wind:
Aussen-T/F 376 03-03-2019 15:00:00 11.7 C 8.5 g/m*3 11.7 C 14.625 km/h
377 03-03-2019 16:00:00 11.7 C 8.52 g/m*3 11.7 C 14.36667 km/h
378 03-03-2019 17:00:00 11.9 C 8.41 g/m*3 11.9 C 13.43333 km/h
379 03-03-2019 18:00:00 12.18333 C 8.35 g/m*3 12.18 C 14.5 km/h
380 03-03-2019 19:00:00 12.28333 C 8.23 g/m*3 12.28 C 13.83333 km/h
381 03-03-2019 20:00:00 12.33333 C 8.27 g/m*3 12.33 C 14.36667 km/h
382 03-03-2019 21:00:00 12.33333 C 8.39 g/m*3 12.33 C 21.05 km/h
383 03-03-2019 22:00:00 12.525 C 8.43 g/m*3 12.53 C 18.36667 km/h
384 03-03-2019 23:00:00 12.75833 C 8.24 g/m*3 12.76 C 6.43333 km/h
385 04-03-2019 00:00:00 13.10833 C 8.13 g/m*3 13.11 C 8.33333 km/h
386 04-03-2019 01:00:00 13.50833 C 8.02 g/m*3 13.51 C 13.54167 km/h
387 04-03-2019 02:00:00 12.66667 C 8.38 g/m*3 12.67 C 27.74167 km/h
388 04-03-2019 03:00:00 11.79167 C 8.46 g/m*3 11.79 C 18.10833 km/h
389 04-03-2019 04:00:00 11.675 C 8.51 g/m*3 11.68 C 10.75 km/h
390 04-03-2019 05:00:00 11.63333 C 8.34 g/m*3 11.63 C 9.26667 km/h
391 04-03-2019 06:00:00 11.45 C 8.13 g/m*3 11.45 C 12.20833 km/h
392 04-03-2019 07:00:00 12 C 7.87 g/m*3 12 C 16.9 km/h
393 04-03-2019 08:00:00 11.49167 C 7.55 g/m*3 11.49 C 31.91667 km/h
394 04-03-2019 09:00:00 9.39167 C 6.9 g/m*3 6.12 C 25.475 km/h
395 04-03-2019 10:00:00 9.90833 C 7.15 g/m*3 6.92 C 23.85833 km/h
396 04-03-2019 11:00:00 11.23333 C 7.03 g/m*3 11.23 C 27.36667 km/h
397 04-03-2019 12:00:00 10.98333 C 7.29 g/m*3 8.02 C 27.63333 km/h
398 04-03-2019 13:00:00 9.73333 C 7.77 g/m*3 6.6 C 24.925 km/h
399 04-03-2019 14:00:00 9.44167 C 7.56 g/m*3 6.35 C 23.44167 km/h
400 04-03-2019 15:00:00 7.1 C 6.58 g/m*3 4.35 C 14.9 km/h
Sensor: Nr:Datum:Temp:Abs-Feuchte:Windchill:Wind:
Aussen-T/F 401 04-03-2019 16:00:00 7.54167 C 6.39 g/m*3 4.79 C 15.7 km/h
402 04-03-2019 17:00:00 7.4 C 6.26 g/m*3 5.15 C 12.1 km/h
403 04-03-2019 18:00:00 6.96667 C 6.22 g/m*3 4.79 C 11.15 km/h
404 04-03-2019 19:00:00 6.86667 C 6.25 g/m*3 4.1 C 14.63333 km/h
405 04-03-2019 20:00:00 6.95 C 6.29 g/m*3 4.51 C 12.625 km/h
406 04-03-2019 21:00:00 6.61667 C 6.29 g/m*3 4.54 C 10.225 km/h
407 04-03-2019 22:00:00 7.09167 C 6.45 g/m*3 4.2 C 15.96667 km/h
408 04-03-2019 23:00:00 6.7 C 6.36 g/m*3 4.47 C 11.13333 km/h
409 05-03-2019 00:00:00 6.875 C 6.26 g/m*3 4.45 C 12.475 km/h
410 05-03-2019 01:00:00 6.875 C 6.19 g/m*3 4.38 C 12.9 km/h
411 05-03-2019 02:00:00 6.79167 C 6.11 g/m*3 3.57 C 17.96667 km/h
412 05-03-2019 03:00:00 6.74167 C 6.13 g/m*3 3.6 C 17.16667 km/h
413 05-03-2019 04:00:00 6.425 C 6.04 g/m*3 3.58 C 14.49167 km/h
414 05-03-2019 05:00:00 6.35 C 6.01 g/m*3 3.45 C 14.76667 km/h
415 05-03-2019 06:00:00 6.24167 C 5.88 g/m*3 3.46 C 13.83333 km/h
416 05-03-2019 07:00:00 6.475 C 5.93 g/m*3 3.06 C 18.90833 km/h
417 05-03-2019 08:00:00 6.64167 C 6.07 g/m*3 3.23 C 19.16667 km/h
418 05-03-2019 09:00:00 6.50833 C 6.25 g/m*3 3.51 C 15.7 km/h
419 05-03-2019 10:00:00 6.625 C 6.44 g/m*3 4.3 C 11.56667 km/h
420 05-03-2019 11:00:00 6.99167 C 6.53 g/m*3 4.61 C 12.36667 km/h
421 05-03-2019 12:00:00 7.3 C 6.45 g/m*3 4.77 C 13.7 km/h
422 05-03-2019 13:00:00 7.96667 C 6.58 g/m*3 5.81 C 12.23333 km/h
423 05-03-2019 14:00:00 8.65 C 6.68 g/m*3 6.48 C 13.3 km/h
424 05-03-2019 15:00:00 8.95833 C 6.59 g/m*3 7.12 C 11.55833 km/h
425 05-03-2019 16:00:00 9.81667 C 6.76 g/m*3 8.31 C 10.625 km/h
Sensor: Nr:Datum:Temp:Abs-Feuchte:Windchill:Wind:
Aussen-T/F 426 05-03-2019 17:00:00 9.34167 C 6.68 g/m*3 7.93 C 9.54167 km/h
427 05-03-2019 18:00:00 7.13333 C 6.3 g/m*3 6.21 C 5.89167 km/h
428 05-03-2019 19:00:00 6.55 C 6.21 g/m*3 5.54 C 5.88333 km/h
429 05-03-2019 20:00:00 5.46667 C 5.97 g/m*3 5.47 C 1.46667 km/h
430 05-03-2019 21:00:00 4.275 C 5.8 g/m*3 4.28 C 0.66667 km/h
431 05-03-2019 22:00:00 4.70833 C 6.13 g/m*3 4.71 C 0.26667 km/h
432 05-03-2019 23:00:00 5.26667 C 6.36 g/m*3 5.27 C 0 km/h
433 06-03-2019 00:00:00 5.65 C 6.5 g/m*3 5.65 C 0.66667 km/h
434 06-03-2019 01:00:00 6.15 C 6.71 g/m*3 6.15 C 0.4 km/h
435 06-03-2019 02:00:00 7.03333 C 6.98 g/m*3 7.03 C 3.46667 km/h
436 06-03-2019 03:00:00 7 C 6.93 g/m*3 7 C 0.26667 km/h
437 06-03-2019 04:00:00 6.81667 C 6.97 g/m*3 6.82 C 2.675 km/h
438 06-03-2019 05:00:00 7.175 C 6.99 g/m*3 6.1 C 6.43333 km/h
439 06-03-2019 06:00:00 6.40833 C 6.68 g/m*3 6.41 C 2.675 km/h
440 06-03-2019 07:00:00 5.44167 C 6.38 g/m*3 5.44 C 1.2 km/h
441 06-03-2019 08:00:00 6.43333 C 6.8 g/m*3 6.43 C 2.93333 km/h
442 06-03-2019 09:00:00 8.15833 C 7.04 g/m*3 8.16 C 2.66667 km/h
443 06-03-2019 10:00:00 10.00833 C 7.18 g/m*3 10.01 C 4.025 km/h
444 06-03-2019 11:00:00 12.275 C 7.09 g/m*3 12.28 C 7.24167 km/h
445 06-03-2019 12:00:00 13.31667 C 6.85 g/m*3 13.32 C 6.58333 km/h
446 06-03-2019 13:00:00 13.375 C 7.08 g/m*3 13.38 C 5.35 km/h
447 06-03-2019 14:00:00 13.7 C 7.31 g/m*3 13.7 C 2.66667 km/h
448 06-03-2019 15:00:00 14.56667 C 7.34 g/m*3 14.57 C 3.875 km/h
449 06-03-2019 16:00:00 15.19167 C 7.45 g/m*3 15.19 C 4.14167 km/h
450 06-03-2019 17:00:00 13.93333 C 8.2 g/m*3 13.93 C 3.475 km/h
Sensor: Nr:Datum:Temp:Abs-Feuchte:Windchill:Wind:
Aussen-T/F 451 06-03-2019 18:00:00 13.00833 C 8.24 g/m*3 13.01 C 4.26667 km/h
452 06-03-2019 19:00:00 11.65833 C 8.48 g/m*3 11.66 C 1.86667 km/h
453 06-03-2019 20:00:00 10.65 C 8.31 g/m*3 10.65 C 0.4 km/h
454 06-03-2019 21:00:00 10.675 C 8.25 g/m*3 10.68 C 0.4 km/h
455 06-03-2019 22:00:00 10.66667 C 8.25 g/m*3 10.67 C 1.33333 km/h
456 06-03-2019 23:00:00 11.175 C 8.23 g/m*3 11.18 C 3.475 km/h
457 07-03-2019 00:00:00 11.05833 C 8.41 g/m*3 11.06 C 3.33333 km/h
458 07-03-2019 01:00:00 10.93333 C 8.72 g/m*3 10.93 C 2.26667 km/h
459 07-03-2019 02:00:00 10.025 C 8.63 g/m*3 10.03 C 0.53333 km/h
460 07-03-2019 03:00:00 9.58333 C 8.47 g/m*3 9.58 C 1.33333 km/h
461 07-03-2019 04:00:00 10.08333 C 8.37 g/m*3 10.08 C 3.46667 km/h
462 07-03-2019 05:00:00 11.45 C 8.2 g/m*3 11.45 C 9.40833 km/h
463 07-03-2019 06:00:00 12.05833 C 7.91 g/m*3 12.06 C 17.16667 km/h
464 07-03-2019 07:00:00 11.325 C 7.59 g/m*3 11.33 C 24.53333 km/h
465 07-03-2019 08:00:00 10.69167 C 7.45 g/m*3 7.94 C 23.58333 km/h
466 07-03-2019 09:00:00 10.06667 C 7.8 g/m*3 7.2 C 22.90833 km/h
467 07-03-2019 10:00:00 10.225 C 7.83 g/m*3 7.22 C 25.19167 km/h
468 07-03-2019 11:00:00 9.8 C 7.79 g/m*3 6.61 C 25.88333 km/h
469 07-03-2019 12:00:00 10.78333 C 7.37 g/m*3 8.11 C 22.94167 km/h
470 07-03-2019 13:00:00 12 C 7.32 g/m*3 12 C 19.70833 km/h
471 07-03-2019 14:00:00 10.40833 C 7.53 g/m*3 8.26 C 16.36667 km/h
472 07-03-2019 15:00:00 10.825 C 7.33 g/m*3 8.72 C 16.9 km/h
473 07-03-2019 16:00:00 9.88333 C 7.38 g/m*3 7.88 C 14.09167 km/h
474 07-03-2019 17:00:00 10.14167 C 7.11 g/m*3 8.18 C 14.23333 km/h
475 07-03-2019 18:00:00 9.45 C 6.57 g/m*3 7.2 C 15.3 km/h
Sensor: Nr:Datum:Temp:Abs-Feuchte:Windchill:Wind:
Aussen-T/F 476 07-03-2019 19:00:00 8.46667 C 6.77 g/m*3 6.09 C 14.5 km/h
477 07-03-2019 20:00:00 8.64167 C 6.6 g/m*3 5.82 C 18.5 km/h
478 07-03-2019 21:00:00 9.23333 C 6.67 g/m*3 6.58 C 18.36667 km/h
479 07-03-2019 22:00:00 9.2 C 6.67 g/m*3 6.59 C 17.83333 km/h
480 07-03-2019 23:00:00 8.64167 C 6.63 g/m*3 6.51 C 13.03333 km/h
481 08-03-2019 00:00:00 7.65833 C 6.81 g/m*3 5.87 C 9.80833 km/h
482 08-03-2019 01:00:00 7.05833 C 6.68 g/m*3 4.88 C 11.275 km/h
483 08-03-2019 02:00:00 8.15833 C 6.46 g/m*3 5.35 C 17.3 km/h
484 08-03-2019 03:00:00 8.15 C 6.27 g/m*3 5.34 C 17.3 km/h
485 08-03-2019 04:00:00 8.05 C 6.32 g/m*3 5.45 C 15.43333 km/h
486 08-03-2019 05:00:00 7.8 C 6.38 g/m*3 4.91 C 17.3 km/h
487 08-03-2019 06:00:00 7.60833 C 6.44 g/m*3 4.49 C 18.775 km/h
488 08-03-2019 07:00:00 7.7 C 6.52 g/m*3 4.39 C 20.775 km/h
489 08-03-2019 08:00:00 7.85 C 6.69 g/m*3 5.2 C 15.43333 km/h
490 08-03-2019 09:00:00 7.68333 C 6.91 g/m*3 5.2 C 13.96667 km/h
491 08-03-2019 10:00:00 7.75 C 6.92 g/m*3 5.57 C 12.1 km/h
492 08-03-2019 11:00:00 8.65833 C 6.84 g/m*3 6.53 C 13.03333 km/h
493 08-03-2019 12:00:00 9.21667 C 6.44 g/m*3 7.03 C 14.36667 km/h
494 08-03-2019 13:00:00 9.8 C 6.39 g/m*3 7.63 C 15.3 km/h
495 08-03-2019 14:00:00 10.34167 C 6.17 g/m*3 8.32 C 15.16667 km/h
496 08-03-2019 15:00:00 11.25 C 6.3 g/m*3 11.25 C 14.5 km/h
497 08-03-2019 16:00:00 10.26667 C 6.7 g/m*3 8.71 C 11.53333 km/h
498 08-03-2019 17:00:00 9.15833 C 6.91 g/m*3 7.81 C 9.00833 km/h
499 08-03-2019 18:00:00 7.425 C 6.79 g/m*3 6.63 C 5.625 km/h
500 08-03-2019 19:00:00 6.83333 C 6.73 g/m*3 6.83 C 1.06667 km/h
Sensor: Nr:Datum:Temp:Abs-Feuchte:Windchill:Wind:
Aussen-T/F 501 08-03-2019 20:00:00 6.3 C 6.63 g/m*3 6.3 C 0 km/h
502 08-03-2019 21:00:00 6.525 C 6.71 g/m*3 6.53 C 2.54167 km/h
503 08-03-2019 22:00:00 7.025 C 6.63 g/m*3 7.03 C 4.41667 km/h
504 08-03-2019 23:00:00 8.25833 C 6.55 g/m*3 7.31 C 6.56667 km/h
505 09-03-2019 00:00:00 8.56667 C 6.47 g/m*3 6.58 C 11.96667 km/h
506 09-03-2019 01:00:00 9.15833 C 6.47 g/m*3 6.65 C 16.9 km/h
507 09-03-2019 02:00:00 9.375 C 6.54 g/m*3 6.32 C 22.91667 km/h
508 09-03-2019 03:00:00 9.03333 C 6.75 g/m*3 5.29 C 30.29167 km/h
509 09-03-2019 04:00:00 7.95833 C 7 g/m*3 4.14 C 27.08333 km/h
510 09-03-2019 05:00:00 7.775 C 7.12 g/m*3 4.54 C 20.24167 km/h
511 09-03-2019 06:00:00 8.08333 C 7.31 g/m*3 5.71 C 13.83333 km/h
512 09-03-2019 07:00:00 8.63333 C 7.51 g/m*3 6.69 C 11.83333 km/h
513 09-03-2019 08:00:00 9.45 C 7.73 g/m*3 7.42 C 13.55833 km/h
514 09-03-2019 09:00:00 10.15833 C 7.94 g/m*3 7.91 C 16.76667 km/h
515 09-03-2019 10:00:00 10.50833 C 7.9 g/m*3 8.79 C 13.03333 km/h
516 09-03-2019 11:00:00 10.925 C 7.95 g/m*3 9.07 C 14.9 km/h
517 09-03-2019 12:00:00 11.71667 C 8.03 g/m*3 11.72 C 19.98333 km/h
518 09-03-2019 13:00:00 12.525 C 8.21 g/m*3 12.53 C 17.7 km/h
519 09-03-2019 14:00:00 13.48333 C 8.15 g/m*3 13.48 C 25.86667 km/h
520 09-03-2019 15:00:00 13.30833 C 7.96 g/m*3 13.31 C 26.675 km/h
521 09-03-2019 16:00:00 13.39167 C 7.37 g/m*3 13.39 C 29.625 km/h
522 09-03-2019 17:00:00 13.05833 C 6.9 g/m*3 13.06 C 23.46667 km/h
523 09-03-2019 18:00:00 12.01667 C 6.68 g/m*3 12.02 C 23.46667 km/h
524 09-03-2019 19:00:00 10.65833 C 7.27 g/m*3 8.99 C 12.89167 km/h
525 09-03-2019 20:00:00 9.45 C 7.46 g/m*3 9.45 C 3.89167 km/h
Sensor: Nr:Datum:Temp:Abs-Feuchte:Windchill:Wind:
Aussen-T/F 526 09-03-2019 21:00:00 9.66667 C 7.56 g/m*3 8.81 C 7.11667 km/h
527 09-03-2019 22:00:00 9.60833 C 7.33 g/m*3 8.74 C 7.125 km/h
528 09-03-2019 23:00:00 10.34167 C 6.85 g/m*3 8.48 C 13.83333 km/h
529 10-03-2019 00:00:00 10.11667 C 6.59 g/m*3 8.44 C 12.08333 km/h
530 10-03-2019 01:00:00 9.66667 C 6.48 g/m*3 8.91 C 6.70833 km/h
531 10-03-2019 02:00:00 9.40833 C 6.66 g/m*3 8.71 C 6.29167 km/h
532 10-03-2019 03:00:00 9.1 C 6.86 g/m*3 9.1 C 1.06667 km/h
533 10-03-2019 04:00:00 8.325 C 7.18 g/m*3 8.32 C 0 km/h
534 10-03-2019 05:00:00 7.8 C 7.42 g/m*3 7.8 C 0 km/h
535 10-03-2019 06:00:00 7.475 C 7.47 g/m*3 7.48 C 0 km/h
536 10-03-2019 07:00:00 7.675 C 7.68 g/m*3 7.68 C 0 km/h
537 10-03-2019 08:00:00 8.86667 C 8.38 g/m*3 7.69 C 7.925 km/h
538 10-03-2019 09:00:00 10.58333 C 9.28 g/m*3 9.25 C 10.475 km/h
539 10-03-2019 10:00:00 11.95833 C 9.92 g/m*3 11.96 C 9.825 km/h
540 10-03-2019 11:00:00 13.14167 C 9.01 g/m*3 13.14 C 21.175 km/h
541 10-03-2019 12:00:00 14.125 C 8.78 g/m*3 14.13 C 24.65833 km/h
542 10-03-2019 13:00:00 14.4 C 7.98 g/m*3 14.4 C 30.575 km/h
543 10-03-2019 14:00:00 14.40833 C 6.43 g/m*3 14.41 C 39.13333 km/h
544 10-03-2019 15:00:00 13.55833 C 5.9 g/m*3 13.56 C 37 km/h
545 10-03-2019 16:00:00 12.53333 C 5.53 g/m*3 12.53 C 36.475 km/h
546 10-03-2019 17:00:00 10.38333 C 6.06 g/m*3 7.75 C 21.19167 km/h
547 10-03-2019 18:00:00 7.69167 C 6.5 g/m*3 4.44 C 20.25 km/h
548 10-03-2019 19:00:00 6.94167 C 6.07 g/m*3 3.5 C 20.10833 km/h
549 10-03-2019 20:00:00 6.075 C 5.5 g/m*3 1.97 C 24.26667 km/h
550 10-03-2019 21:00:00 5.21667 C 5.46 g/m*3 2.27 C 13.43333 km/h
Sensor: Nr:Datum:Temp:Abs-Feuchte:Windchill:Wind:
Aussen-T/F 551 10-03-2019 22:00:00 5.05833 C 5.45 g/m*3 2.79 C 9.7 km/h
552 10-03-2019 23:00:00 4.85833 C 5.41 g/m*3 2.72 C 8.99167 km/h
553 11-03-2019 00:00:00 4.34167 C 5.27 g/m*3 3.1 C 5.61667 km/h
554 11-03-2019 01:00:00 4.50833 C 5.24 g/m*3 2.11 C 9.80833 km/h
555 11-03-2019 02:00:00 5.10833 C 5.4 g/m*3 1.94 C 14.63333 km/h
556 11-03-2019 03:00:00 3.65833 C 5.3 g/m*3 0.78 C 11.26667 km/h
557 11-03-2019 04:00:00 2.36667 C 5.27 g/m*3 2.37 C 1.86667 km/h
558 11-03-2019 05:00:00 2.20833 C 5.23 g/m*3 -1.96 C 16.63333 km/h
559 11-03-2019 06:00:00 1.74167 C 5.05 g/m*3 -0.9 C 8.71667 km/h
560 11-03-2019 07:00:00 1.525 C 5.07 g/m*3 1.53 C 3.33333 km/h
561 11-03-2019 08:00:00 2.31667 C 5.39 g/m*3 2.32 C 4.28333 km/h
562 11-03-2019 09:00:00 3.34167 C 5.44 g/m*3 -0.07 C 13.7 km/h
563 11-03-2019 10:00:00 3.925 C 5.59 g/m*3 0.76 C 13.03333 km/h
564 11-03-2019 11:00:00 4.875 C 5.55 g/m*3 1.72 C 14.23333 km/h
565 11-03-2019 12:00:00 5.60833 C 5.4 g/m*3 2.36 C 15.96667 km/h
566 11-03-2019 13:00:00 6.575 C 5.41 g/m*3 3.23 C 18.5 km/h
567 11-03-2019 14:00:00 7.04167 C 5.45 g/m*3 3.75 C 19.04167 km/h
568 11-03-2019 15:00:00 7.63333 C 5.39 g/m*3 4.12 C 22.64167 km/h
569 11-03-2019 16:00:00 7.26667 C 5.38 g/m*3 4.04 C 19.03333 km/h
570 11-03-2019 17:00:00 7.175 C 5.5 g/m*3 4.88 C 12.08333 km/h
571 11-03-2019 18:00:00 6.93333 C 5.3 g/m*3 4.6 C 11.96667 km/h
572 11-03-2019 19:00:00 5.83333 C 5.22 g/m*3 2.89 C 14.23333 km/h
573 11-03-2019 20:00:00 5.68333 C 5.22 g/m*3 2.75 C 13.96667 km/h
574 11-03-2019 21:00:00 5.28333 C 5.19 g/m*3 3.06 C 9.69167 km/h
575 11-03-2019 22:00:00 5.34167 C 5.17 g/m*3 3.32 C 8.86667 km/h
Sensor: Nr:Datum:Temp:Abs-Feuchte:Windchill:Wind:
Aussen-T/F 576 11-03-2019 23:00:00 4.75 C 5.08 g/m*3 3.52 C 5.75833 km/h
577 12-03-2019 00:00:00 4.19167 C 5.16 g/m*3 2.61 C 6.55833 km/h
578 12-03-2019 01:00:00 3.225 C 5.08 g/m*3 3.23 C 4.41667 km/h
579 12-03-2019 02:00:00 2.15833 C 4.89 g/m*3 2.16 C 3.875 km/h
580 12-03-2019 03:00:00 1.65833 C 4.82 g/m*3 1.66 C 4.41667 km/h
581 12-03-2019 04:00:00 1.33333 C 4.75 g/m*3 1.33 C 4.40833 km/h
582 12-03-2019 05:00:00 1.625 C 4.88 g/m*3 1.63 C 3.6 km/h
583 12-03-2019 06:00:00 1.76667 C 4.9 g/m*3 1.77 C 2.93333 km/h
584 12-03-2019 07:00:00 1.93333 C 5.02 g/m*3 1.93 C 0 km/h
585 12-03-2019 08:00:00 3.25 C 5.38 g/m*3 3.25 C 1.33333 km/h
586 12-03-2019 09:00:00 5.20833 C 5.68 g/m*3 5.21 C 2.28333 km/h
587 12-03-2019 10:00:00 7.4 C 5.75 g/m*3 5.31 C 11.16667 km/h
588 12-03-2019 11:00:00 8.78333 C 5.53 g/m*3 6.67 C 13.16667 km/h
589 12-03-2019 12:00:00 9.40833 C 5.54 g/m*3 7.58 C 12.09167 km/h
590 12-03-2019 13:00:00 9.74167 C 5.49 g/m*3 8.26 C 10.35 km/h
591 12-03-2019 14:00:00 10.18333 C 5.48 g/m*3 9.15 C 8.34167 km/h
592 12-03-2019 15:00:00 10.56667 C 5.26 g/m*3 9.15 C 11.025 km/h
593 12-03-2019 16:00:00 10.33333 C 4.82 g/m*3 9.47 C 7.65833 km/h
594 12-03-2019 17:00:00 9.34167 C 5 g/m*3 9.34 C 1.6 km/h
595 12-03-2019 18:00:00 8.1 C 5.1 g/m*3 8.1 C 2.275 km/h
596 12-03-2019 19:00:00 8.725 C 4.69 g/m*3 8.73 C 4.01667 km/h
597 12-03-2019 20:00:00 9.425 C 4.21 g/m*3 8.69 C 6.45 km/h
598 12-03-2019 21:00:00 10.74167 C 4.5 g/m*3 9.26 C 11.68333 km/h
599 12-03-2019 22:00:00 11.14167 C 5.45 g/m*3 11.14 C 22.93333 km/h
600 12-03-2019 23:00:00 8.53333 C 6.56 g/m*3 5.7 C 18.36667 km/h
Sensor: Nr:Datum:Temp:Abs-Feuchte:Windchill:Wind:
Aussen-T/F 601 13-03-2019 00:00:00 6.53333 C 6.06 g/m*3 3.69 C 14.63333 km/h
602 13-03-2019 01:00:00 5.74167 C 5.67 g/m*3 2.62 C 15.3 km/h
603 13-03-2019 02:00:00 5.425 C 5.6 g/m*3 3.01 C 10.75833 km/h
604 13-03-2019 03:00:00 5.74167 C 5.51 g/m*3 3.16 C 11.95 km/h
605 13-03-2019 04:00:00 5.53333 C 5.61 g/m*3 3.01 C 11.40833 km/h
606 13-03-2019 05:00:00 5.34167 C 5.77 g/m*3 2.33 C 13.95833 km/h
607 13-03-2019 06:00:00 5.16667 C 5.69 g/m*3 1.53 C 17.96667 km/h
608 13-03-2019 07:00:00 5.46667 C 5.65 g/m*3 1.69 C 19.71667 km/h
609 13-03-2019 08:00:00 6.08333 C 5.85 g/m*3 2.68 C 17.96667 km/h
610 13-03-2019 09:00:00 6.5 C 5.84 g/m*3 2.96 C 19.975 km/h
611 13-03-2019 10:00:00 6.94167 C 5.96 g/m*3 3.09 C 24.125 km/h
612 13-03-2019 11:00:00 7.81667 C 6.14 g/m*3 4.23 C 23.98333 km/h
613 13-03-2019 12:00:00 8.15833 C 6.22 g/m*3 4.85 C 21.975 km/h
614 13-03-2019 13:00:00 7.95833 C 6.31 g/m*3 4.31 C 25.075 km/h
615 13-03-2019 14:00:00 8.05 C 6.48 g/m*3 4.83 C 20.775 km/h
616 13-03-2019 15:00:00 7.79167 C 6.54 g/m*3 4.68 C 19.175 km/h
617 13-03-2019 16:00:00 6.825 C 6.69 g/m*3 4.15 C 13.96667 km/h
618 13-03-2019 17:00:00 6.65833 C 6.66 g/m*3 3.48 C 17.3 km/h
619 13-03-2019 18:00:00 6.55 C 6.6 g/m*3 3.45 C 16.5 km/h
620 13-03-2019 19:00:00 4.95833 C 6.23 g/m*3 2.34 C 11.29167 km/h
621 13-03-2019 20:00:00 4.94167 C 6.24 g/m*3 1.91 C 13.56667 km/h
622 13-03-2019 21:00:00 4.94167 C 6.27 g/m*3 2.24 C 11.7 km/h
623 13-03-2019 22:00:00 5.04167 C 6.34 g/m*3 2.97 C 8.86667 km/h
624 13-03-2019 23:00:00 4.725 C 6.18 g/m*3 2.91 C 7.65 km/h
625 14-03-2019 00:00:00 4.65 C 6.14 g/m*3 1.57 C 13.43333 km/h
Sensor: Nr:Datum:Temp:Abs-Feuchte:Windchill:Wind:
Aussen-T/F 626 14-03-2019 01:00:00 5.13333 C 6.21 g/m*3 2.95 C 9.39167 km/h
627 14-03-2019 02:00:00 4.81667 C 6.17 g/m*3 3.01 C 7.66667 km/h
628 14-03-2019 03:00:00 4.46667 C 6.1 g/m*3 2.97 C 6.43333 km/h
629 14-03-2019 04:00:00 5.05 C 6.36 g/m*3 3.25 C 7.78333 km/h
630 14-03-2019 05:00:00 5.73333 C 6.54 g/m*3 3.75 C 9 km/h
631 14-03-2019 06:00:00 6.13333 C 6.53 g/m*3 4.26 C 8.85833 km/h
632 14-03-2019 07:00:00 6.35 C 6.48 g/m*3 3.55 C 14.1 km/h
633 14-03-2019 08:00:00 6.70833 C 6.51 g/m*3 4.22 C 12.625 km/h
634 14-03-2019 09:00:00 6.41667 C 6.63 g/m*3 3.93 C 12.23333 km/h
635 14-03-2019 10:00:00 6.55 C 6.64 g/m*3 3.62 C 15.3 km/h
636 14-03-2019 11:00:00 6.55833 C 6.71 g/m*3 3.74 C 14.5 km/h
637 14-03-2019 12:00:00 7.15 C 6.94 g/m*3 3.89 C 19.03333 km/h
638 14-03-2019 13:00:00 7.30833 C 7 g/m*3 3.32 C 26.825 km/h
639 14-03-2019 14:00:00 7.33333 C 6.96 g/m*3 3.57 C 24.39167 km/h
640 14-03-2019 15:00:00 7.69167 C 7.31 g/m*3 4.45 C 20.1 km/h
641 14-03-2019 16:00:00 8.875 C 7.54 g/m*3 6.19 C 17.84167 km/h
642 14-03-2019 17:00:00 9.85833 C 7.88 g/m*3 7.53 C 16.76667 km/h
643 14-03-2019 18:00:00 9.875 C 7.7 g/m*3 8.54 C 9.68333 km/h
644 14-03-2019 19:00:00 9.54167 C 7.07 g/m*3 7.4 C 14.61667 km/h
645 14-03-2019 20:00:00 7.96667 C 7.02 g/m*3 6.37 C 9.13333 km/h
646 14-03-2019 21:00:00 8.2 C 6.95 g/m*3 7.35 C 6.16667 km/h
647 14-03-2019 22:00:00 8.38333 C 6.76 g/m*3 6.4 C 11.7 km/h
648 14-03-2019 23:00:00 8.11667 C 6.6 g/m*3 6.08 C 11.69167 km/h
649 15-03-2019 00:00:00 7.11667 C 6.48 g/m*3 5.42 C 8.88333 km/h
650 15-03-2019 01:00:00 6.38333 C 6.39 g/m*3 4.55 C 8.86667 km/h
Sensor: Nr:Datum:Temp:Abs-Feuchte:Windchill:Wind:
Aussen-T/F 651 15-03-2019 02:00:00 6.86667 C 6.57 g/m*3 5.62 C 6.84167 km/h
652 15-03-2019 03:00:00 6.40833 C 6.49 g/m*3 6.41 C 4.81667 km/h
653 15-03-2019 04:00:00 6.04167 C 6.5 g/m*3 6.04 C 4 km/h
654 15-03-2019 05:00:00 7.00833 C 6.79 g/m*3 5.24 C 9.13333 km/h
655 15-03-2019 06:00:00 7.225 C 7.08 g/m*3 7.23 C 4.16667 km/h
656 15-03-2019 07:00:00 7.125 C 7.25 g/m*3 5.43 C 8.85833 km/h
657 15-03-2019 08:00:00 7.49167 C 7.52 g/m*3 6.02 C 8.19167 km/h
658 15-03-2019 09:00:00 8.2 C 7.87 g/m*3 5.67 C 15.16667 km/h
659 15-03-2019 10:00:00 9.375 C 8.49 g/m*3 6.96 C 16.5 km/h
660 15-03-2019 11:00:00 11.05 C 9.2 g/m*3 11.05 C 18.63333 km/h
661 15-03-2019 12:00:00 12.38333 C 9.66 g/m*3 12.38 C 17.03333 km/h
662 15-03-2019 13:00:00 13.11667 C 9.66 g/m*3 13.12 C 18.9 km/h
663 15-03-2019 14:00:00 13.66667 C 9.56 g/m*3 13.67 C 21.43333 km/h
664 15-03-2019 15:00:00 13.51667 C 9.69 g/m*3 13.52 C 17.70833 km/h
665 15-03-2019 16:00:00 13.38333 C 9.52 g/m*3 13.38 C 19.03333 km/h
666 15-03-2019 17:00:00 13.03333 C 9.4 g/m*3 13.03 C 16.23333 km/h
667 15-03-2019 18:00:00 12.70833 C 9.38 g/m*3 12.71 C 20.10833 km/h
668 15-03-2019 19:00:00 12.64167 C 9.38 g/m*3 12.64 C 14.63333 km/h
669 15-03-2019 20:00:00 12.10833 C 9.45 g/m*3 12.11 C 14.23333 km/h
670 15-03-2019 21:00:00 12.25 C 9.38 g/m*3 12.25 C 14.23333 km/h
671 15-03-2019 22:00:00 12.4 C 9.31 g/m*3 12.4 C 12.61667 km/h
672 15-03-2019 23:00:00 11.85833 C 9.28 g/m*3 11.86 C 7.78333 km/h
673 16-03-2019 00:00:00 11.575 C 9.18 g/m*3 11.58 C 13.29167 km/h
674 16-03-2019 01:00:00 9.79167 C 8.51 g/m*3 7.84 C 13.56667 km/h
675 16-03-2019 02:00:00 8.93333 C 8.09 g/m*3 7.29 C 10.35 km/h
Sensor: Nr:Datum:Temp:Abs-Feuchte:Windchill:Wind:
Aussen-T/F 676 16-03-2019 03:00:00 8.41667 C 7.96 g/m*3 8.42 C 1.86667 km/h
677 16-03-2019 04:00:00 8.3 C 8.01 g/m*3 8.3 C 0 km/h
678 16-03-2019 05:00:00 8.3 C 8.01 g/m*3 8.3 C 0 km/h
679 16-03-2019 06:00:00 8.73333 C 8.35 g/m*3 8.73 C 4.7 km/h
680 16-03-2019 07:00:00 9.88333 C 8.87 g/m*3 7.65 C 15.96667 km/h
681 16-03-2019 08:00:00 10.375 C 8.96 g/m*3 8.85 C 11.41667 km/h
682 16-03-2019 09:00:00 10.71667 C 9.02 g/m*3 8.87 C 14.35833 km/h
683 16-03-2019 10:00:00 10.84167 C 8.92 g/m*3 9.04 C 14.23333 km/h
684 16-03-2019 11:00:00 10.825 C 8.84 g/m*3 8.69 C 17.16667 km/h
685 16-03-2019 12:00:00 11.46667 C 8.66 g/m*3 11.47 C 19.18333 km/h
686 16-03-2019 13:00:00 11.75833 C 8.4 g/m*3 11.76 C 17.7 km/h
687 16-03-2019 14:00:00 11.125 C 8.15 g/m*3 11.13 C 19.30833 km/h
688 16-03-2019 15:00:00 10.94167 C 7.84 g/m*3 9.32 C 13.025 km/h
689 16-03-2019 16:00:00 10.99167 C 7.75 g/m*3 9.43 C 12.625 km/h
690 16-03-2019 17:00:00 10.9 C 7.58 g/m*3 9.28 C 12.9 km/h
691 16-03-2019 18:00:00 10.69167 C 7.5 g/m*3 9.12 C 12.225 km/h
692 16-03-2019 19:00:00 10.43333 C 7.34 g/m*3 8.53 C 14.36667 km/h
693 16-03-2019 20:00:00 10.31667 C 7.24 g/m*3 8.57 C 12.88333 km/h
694 16-03-2019 21:00:00 10.10833 C 7.39 g/m*3 8 C 15.43333 km/h
695 16-03-2019 22:00:00 10.09167 C 7.47 g/m*3 7.57 C 19.16667 km/h
696 16-03-2019 23:00:00 10.11667 C 7.48 g/m*3 7.68 C 18.36667 km/h
697 17-03-2019 00:00:00 10.29167 C 7.45 g/m*3 7.92 C 18.23333 km/h
698 17-03-2019 01:00:00 10.425 C 7.43 g/m*3 7.84 C 20.775 km/h
699 17-03-2019 02:00:00 10.20833 C 7.39 g/m*3 8.06 C 15.96667 km/h
700 17-03-2019 03:00:00 10.19167 C 7.32 g/m*3 8.37 C 13.3 km/h
Sensor: Nr:Datum:Temp:Abs-Feuchte:Windchill:Wind:
Aussen-T/F 701 17-03-2019 04:00:00 10.11667 C 7.2 g/m*3 7.99 C 15.56667 km/h
702 17-03-2019 05:00:00 10.28333 C 7.15 g/m*3 7.99 C 17.43333 km/h
703 17-03-2019 06:00:00 10.23333 C 7.08 g/m*3 8.12 C 15.69167 km/h
704 17-03-2019 07:00:00 10.24167 C 7.25 g/m*3 7.88 C 17.975 km/h
705 17-03-2019 08:00:00 10.2 C 7.5 g/m*3 8.11 C 15.43333 km/h
706 17-03-2019 09:00:00 10.26667 C 7.61 g/m*3 7.97 C 17.43333 km/h
707 17-03-2019 10:00:00 9.89167 C 7.71 g/m*3 7.65 C 16.1 km/h
708 17-03-2019 11:00:00 8.075 C 6.98 g/m*3 5.88 C 12.63333 km/h
709 17-03-2019 12:00:00 8.78333 C 6.87 g/m*3 6.59 C 13.7 km/h
710 17-03-2019 13:00:00 9.80833 C 7.03 g/m*3 8.07 C 12.1 km/h
711 17-03-2019 14:00:00 10.71667 C 6.35 g/m*3 8.59 C 16.9 km/h
712 17-03-2019 15:00:00 11.01667 C 6.55 g/m*3 11.02 C 15.03333 km/h
713 17-03-2019 16:00:00 10.05 C 6.09 g/m*3 7.78 C 16.64167 km/h
714 17-03-2019 17:00:00 7.89167 C 5.7 g/m*3 5.48 C 13.81667 km/h
715 17-03-2019 18:00:00 7.01667 C 5.86 g/m*3 4.53 C 13.03333 km/h
716 17-03-2019 19:00:00 5.95833 C 5.83 g/m*3 3.9 C 9.53333 km/h
717 17-03-2019 20:00:00 4.51667 C 5.85 g/m*3 2.52 C 8.19167 km/h
718 17-03-2019 21:00:00 4.025 C 5.76 g/m*3 2.33 C 6.825 km/h
719 17-03-2019 22:00:00 3.875 C 5.66 g/m*3 1.39 C 9.68333 km/h
720 17-03-2019 23:00:00 3.83333 C 5.53 g/m*3 1.71 C 8.20833 km/h
721 18-03-2019 00:00:00 2.95 C 5.33 g/m*3 1.35 C 6.04167 km/h
722 18-03-2019 01:00:00 2.55 C 5.29 g/m*3 0.4 C 7.50833 km/h
723 18-03-2019 02:00:00 3.225 C 5.49 g/m*3 -0.07 C 12.89167 km/h
724 18-03-2019 03:00:00 3.61667 C 5.47 g/m*3 1.77 C 7.1 km/h
725 18-03-2019 04:00:00 3.25 C 5.41 g/m*3 2.02 C 5.2 km/h
Sensor: Nr:Datum:Temp:Abs-Feuchte:Windchill:Wind:
Aussen-T/F 726 18-03-2019 05:00:00 3.10833 C 5.37 g/m*3 0.82 C 8.33333 km/h
727 18-03-2019 06:00:00 3.95833 C 5.48 g/m*3 0.95 C 12.23333 km/h
728 18-03-2019 07:00:00 4.225 C 5.58 g/m*3 1.35 C 11.825 km/h
729 18-03-2019 08:00:00 5.04167 C 5.84 g/m*3 2.19 C 12.63333 km/h
730 18-03-2019 09:00:00 5.06667 C 6.11 g/m*3 2.84 C 9.54167 km/h
731 18-03-2019 10:00:00 6.36667 C 6.37 g/m*3 3.99 C 11.55 km/h
732 18-03-2019 11:00:00 7.74167 C 6.29 g/m*3 5.14 C 14.9 km/h
733 18-03-2019 12:00:00 8.06667 C 5.97 g/m*3 5.44 C 15.7 km/h
734 18-03-2019 13:00:00 6.66667 C 6.43 g/m*3 5.21 C 7.51667 km/h
735 18-03-2019 14:00:00 8.43333 C 6.18 g/m*3 6.72 C 10.21667 km/h
736 18-03-2019 15:00:00 6.71667 C 6.54 g/m*3 6.72 C 4.55 km/h
737 18-03-2019 16:00:00 6.875 C 6.62 g/m*3 6.88 C 3.75 km/h
738 18-03-2019 17:00:00 7.95833 C 6.13 g/m*3 6.97 C 6.56667 km/h
739 18-03-2019 18:00:00 7.49167 C 6.03 g/m*3 7.49 C 2.66667 km/h
740 18-03-2019 19:00:00 5.20833 C 5.88 g/m*3 5.21 C 4.53333 km/h
741 18-03-2019 20:00:00 4.01667 C 5.47 g/m*3 4.02 C 3.86667 km/h
742 18-03-2019 21:00:00 3.09167 C 5.26 g/m*3 3.09 C 1.6 km/h
743 18-03-2019 22:00:00 2.04167 C 5 g/m*3 2.04 C 0.66667 km/h
744 18-03-2019 23:00:00 1.48333 C 4.93 g/m*3 1.48 C 0 km/h
745 19-03-2019 00:00:00 0.93333 C 4.77 g/m*3 0.93 C 0 km/h
746 19-03-2019 01:00:00 0.35833 C 4.62 g/m*3 0.36 C 0 km/h
747 19-03-2019 02:00:00 -0.04167 C 4.53 g/m*3 -0.04 C 0 km/h
748 19-03-2019 03:00:00 -0.3 C 4.46 g/m*3 -0.3 C 0 km/h
749 19-03-2019 04:00:00 -0.70833 C 4.34 g/m*3 -0.71 C 0 km/h
750 19-03-2019 05:00:00 -1.03333 C 4.25 g/m*3 -1.03 C 0 km/h
Sensor: Nr:Datum:Temp:Abs-Feuchte:Windchill:Wind:
Aussen-T/F 751 19-03-2019 06:00:00 -1.2 C 4.22 g/m*3 -1.2 C 0 km/h
752 19-03-2019 07:00:00 -0.375 C 4.49 g/m*3 -0.38 C 0.8 km/h
753 19-03-2019 08:00:00 -0.04167 C 4.59 g/m*3 -0.04 C 0 km/h
754 19-03-2019 09:00:00 0.675 C 4.83 g/m*3 0.68 C 0.13333 km/h
755 19-03-2019 10:00:00 2.36667 C 5.39 g/m*3 2.37 C 0 km/h
756 19-03-2019 11:00:00 5.125 C 5.92 g/m*3 5.13 C 1.60833 km/h
757 19-03-2019 12:00:00 7.29167 C 5.42 g/m*3 7.29 C 3.75 km/h
758 19-03-2019 13:00:00 8.93333 C 5.14 g/m*3 7.8 C 7.78333 km/h
759 19-03-2019 14:00:00 9.975 C 5.3 g/m*3 9.7 C 5.09167 km/h
760 19-03-2019 15:00:00 10.15 C 5.05 g/m*3 9.12 C 8.33333 km/h
761 19-03-2019 16:00:00 11.51667 C 5.01 g/m*3 11.52 C 4.96667 km/h
762 19-03-2019 17:00:00 12.00833 C 4.83 g/m*3 12.01 C 6.85 km/h
763 19-03-2019 18:00:00 9.65 C 5.58 g/m*3 9.65 C 0 km/h
764 19-03-2019 19:00:00 5.6 C 5.46 g/m*3 5.6 C 0 km/h
765 19-03-2019 20:00:00 4.4 C 5.32 g/m*3 4.4 C 0 km/h
766 19-03-2019 21:00:00 3.1 C 5.09 g/m*3 3.1 C 0 km/h
767 19-03-2019 22:00:00 2.025 C 4.84 g/m*3 2.03 C 0 km/h
768 19-03-2019 23:00:00 1.68333 C 4.77 g/m*3 1.68 C 0.13333 km/h
769 20-03-2019 00:00:00 0.8 C 4.56 g/m*3 0.8 C 0 km/h
770 20-03-2019 01:00:00 0.35833 C 4.51 g/m*3 0.36 C 0 km/h
771 20-03-2019 02:00:00 -0.16667 C 4.38 g/m*3 -0.17 C 0 km/h
772 20-03-2019 03:00:00 -0.55 C 4.29 g/m*3 -0.55 C 0 km/h
773 20-03-2019 04:00:00 -0.90833 C 4.22 g/m*3 -0.91 C 0 km/h
774 20-03-2019 05:00:00 -1.10833 C 4.18 g/m*3 -1.11 C 0 km/h
775 20-03-2019 06:00:00 -1.225 C 4.17 g/m*3 -1.23 C 0 km/h
Sensor: Nr:Datum:Temp:Abs-Feuchte:Windchill:Wind:
Aussen-T/F 776 20-03-2019 07:00:00 -1.08333 C 4.22 g/m*3 -1.08 C 0 km/h
777 20-03-2019 08:00:00 -0.675 C 4.37 g/m*3 -0.68 C 0 km/h
778 20-03-2019 09:00:00 0.575 C 4.79 g/m*3 0.57 C 0 km/h
779 20-03-2019 10:00:00 4.26667 C 5.82 g/m*3 4.27 C 0 km/h
780 20-03-2019 11:00:00 8.875 C 6.06 g/m*3 8.88 C 1.73333 km/h
781 20-03-2019 12:00:00 11.63333 C 5.89 g/m*3 11.63 C 5.9 km/h
782 20-03-2019 13:00:00 13.15833 C 5.54 g/m*3 13.16 C 6.70833 km/h
783 20-03-2019 14:00:00 13.75833 C 5.52 g/m*3 13.76 C 6.55833 km/h
784 20-03-2019 15:00:00 13.64167 C 5.61 g/m*3 13.64 C 6.85833 km/h
785 20-03-2019 16:00:00 14.11667 C 5.86 g/m*3 14.12 C 8.075 km/h
786 20-03-2019 17:00:00 14.83333 C 6.28 g/m*3 14.83 C 1.6 km/h
787 20-03-2019 18:00:00 11.88333 C 6.7 g/m*3 11.88 C 0 km/h
788 20-03-2019 19:00:00 8.5 C 6.26 g/m*3 8.5 C 0 km/h
789 20-03-2019 20:00:00 6.85 C 6.08 g/m*3 6.85 C 0 km/h
790 20-03-2019 21:00:00 5.43333 C 5.85 g/m*3 5.43 C 0 km/h
791 20-03-2019 22:00:00 4.725 C 5.7 g/m*3 4.72 C 0 km/h
792 20-03-2019 23:00:00 3.81667 C 5.49 g/m*3 3.82 C 0 km/h
793 21-03-2019 00:00:00 3.31667 C 5.39 g/m*3 3.32 C 0.13333 km/h
794 21-03-2019 01:00:00 2.55 C 5.14 g/m*3 2.55 C 0 km/h
795 21-03-2019 02:00:00 1.81667 C 4.99 g/m*3 1.82 C 0 km/h
796 21-03-2019 03:00:00 1.30833 C 4.87 g/m*3 1.31 C 0 km/h
797 21-03-2019 04:00:00 0.99167 C 4.82 g/m*3 0.99 C 0 km/h
798 21-03-2019 05:00:00 0.61667 C 4.72 g/m*3 0.62 C 0 km/h
799 21-03-2019 06:00:00 0.33333 C 4.66 g/m*3 0.33 C 0 km/h
800 21-03-2019 07:00:00 0.6 C 4.76 g/m*3 0.6 C 0 km/h
Sensor: Nr:Datum:Temp:Abs-Feuchte:Windchill:Wind:
Aussen-T/F 801 21-03-2019 08:00:00 1.24167 C 5.01 g/m*3 1.24 C 0 km/h
802 21-03-2019 09:00:00 2.50833 C 5.46 g/m*3 2.51 C 0 km/h
803 21-03-2019 10:00:00 5.54167 C 6.37 g/m*3 5.54 C 0.13333 km/h
804 21-03-2019 11:00:00 9.275 C 6.78 g/m*3 9.28 C 0.26667 km/h
805 21-03-2019 12:00:00 12.99167 C 6.11 g/m*3 12.99 C 7.525 km/h
806 21-03-2019 13:00:00 15.43333 C 5.73 g/m*3 15.43 C 4.95833 km/h
807 21-03-2019 14:00:00 16.23333 C 5.45 g/m*3 16.23 C 5.89167 km/h
808 21-03-2019 15:00:00 16.43333 C 5.45 g/m*3 16.43 C 5.625 km/h
809 21-03-2019 16:00:00 17.625 C 5.67 g/m*3 17.63 C 7.775 km/h
810 21-03-2019 17:00:00 18.01667 C 5.84 g/m*3 18.02 C 6.575 km/h
811 21-03-2019 18:00:00 14.68333 C 6.62 g/m*3 14.68 C 5.2 km/h
812 21-03-2019 19:00:00 10.96667 C 6.42 g/m*3 10.97 C 3.33333 km/h
813 21-03-2019 20:00:00 9.20833 C 6.41 g/m*3 9.21 C 0.66667 km/h
814 21-03-2019 21:00:00 7.65 C 6.05 g/m*3 7.65 C 0 km/h
815 21-03-2019 22:00:00 6.15833 C 5.77 g/m*3 6.16 C 0 km/h
816 21-03-2019 23:00:00 5.26667 C 5.67 g/m*3 5.27 C 0 km/h
817 22-03-2019 00:00:00 4.425 C 5.54 g/m*3 4.43 C 0 km/h
818 22-03-2019 01:00:00 3.69167 C 5.43 g/m*3 3.69 C 0 km/h
819 22-03-2019 02:00:00 3.03333 C 5.27 g/m*3 3.03 C 0 km/h
820 22-03-2019 03:00:00 2.20833 C 5.08 g/m*3 2.21 C 0 km/h
821 22-03-2019 04:00:00 1.74167 C 5.02 g/m*3 1.74 C 0 km/h
822 22-03-2019 05:00:00 1.53333 C 5 g/m*3 1.53 C 0 km/h
823 22-03-2019 06:00:00 1.06667 C 4.86 g/m*3 1.07 C 0 km/h
824 22-03-2019 07:00:00 1.24167 C 4.96 g/m*3 1.24 C 0 km/h
825 22-03-2019 08:00:00 1.95833 C 5.26 g/m*3 1.96 C 0 km/h
Sensor: Nr:Datum:Temp:Abs-Feuchte:Windchill:Wind:
Aussen-T/F 826 22-03-2019 09:00:00 3.70833 C 5.94 g/m*3 3.71 C 0 km/h
827 22-03-2019 10:00:00 7.06667 C 7.02 g/m*3 7.07 C 0 km/h
828 22-03-2019 11:00:00 11.70833 C 7.63 g/m*3 11.71 C 0 km/h
829 22-03-2019 12:00:00 15.65 C 7.08 g/m*3 15.65 C 3.225 km/h
830 22-03-2019 13:00:00 18.11667 C 6.47 g/m*3 18.12 C 10.20833 km/h
831 22-03-2019 14:00:00 19.29167 C 5.97 g/m*3 19.29 C 7.38333 km/h
832 22-03-2019 15:00:00 19.26667 C 6.4 g/m*3 19.27 C 9.55 km/h
833 22-03-2019 16:00:00 19.83333 C 6.46 g/m*3 19.83 C 5.75833 km/h
834 22-03-2019 17:00:00 20.95833 C 6.47 g/m*3 20.96 C 6.16667 km/h
835 22-03-2019 18:00:00 16.7 C 7.19 g/m*3 16.7 C 4.53333 km/h
836 22-03-2019 19:00:00 12.225 C 6.86 g/m*3 12.23 C 5.46667 km/h
837 22-03-2019 20:00:00 10.825 C 6.74 g/m*3 10.83 C 4.66667 km/h
838 22-03-2019 21:00:00 9.1 C 6.45 g/m*3 9.1 C 0.4 km/h
839 22-03-2019 22:00:00 7.775 C 6.35 g/m*3 7.78 C 1.06667 km/h
840 22-03-2019 23:00:00 6.66667 C 6.08 g/m*3 6.67 C 0 km/h
841 23-03-2019 00:00:00 5.5 C 5.83 g/m*3 5.5 C 0 km/h
842 23-03-2019 01:00:00 4.74167 C 5.71 g/m*3 4.74 C 0 km/h
843 23-03-2019 02:00:00 4.05 C 5.62 g/m*3 4.05 C 0 km/h
844 23-03-2019 03:00:00 3.69167 C 5.54 g/m*3 3.69 C 0 km/h
845 23-03-2019 04:00:00 3.425 C 5.51 g/m*3 3.43 C 0 km/h
846 23-03-2019 05:00:00 3.28333 C 5.44 g/m*3 3.28 C 0 km/h
847 23-03-2019 06:00:00 2.525 C 5.25 g/m*3 2.53 C 0 km/h
848 23-03-2019 07:00:00 4.06667 C 6.02 g/m*3 4.07 C 3.08333 km/h
849 23-03-2019 08:00:00 6.20833 C 6.99 g/m*3 6.21 C 3.075 km/h
850 23-03-2019 09:00:00 6.63333 C 7.14 g/m*3 6.63 C 0 km/h
Sensor: Nr:Datum:Temp:Abs-Feuchte:Windchill:Wind:
Aussen-T/F 851 23-03-2019 10:00:00 7.18333 C 7.35 g/m*3 6.31 C 5.75 km/h
852 23-03-2019 11:00:00 7.53333 C 7.43 g/m*3 6.67 C 5.89167 km/h
853 23-03-2019 12:00:00 8.125 C 7.5 g/m*3 7.23 C 6.3 km/h
854 23-03-2019 13:00:00 8.775 C 7.5 g/m*3 7.74 C 7.25833 km/h
855 23-03-2019 14:00:00 9.45 C 7.39 g/m*3 8.03 C 9.7 km/h
856 23-03-2019 15:00:00 10.08333 C 7.32 g/m*3 8.9 C 9.025 km/h
857 23-03-2019 16:00:00 10.425 C 7.21 g/m*3 9.29 C 9.15833 km/h
858 23-03-2019 17:00:00 10.425 C 7.16 g/m*3 9.64 C 7.375 km/h
859 23-03-2019 18:00:00 9.175 C 6.9 g/m*3 9.18 C 2.4 km/h
860 23-03-2019 19:00:00 6.80833 C 6.51 g/m*3 6.81 C 3.2 km/h
861 23-03-2019 20:00:00 5.38333 C 6.19 g/m*3 5.38 C 0.13333 km/h
862 23-03-2019 21:00:00 4.33333 C 5.93 g/m*3 4.33 C 0 km/h
863 23-03-2019 22:00:00 3.55833 C 5.74 g/m*3 3.56 C 0 km/h
864 23-03-2019 23:00:00 3.075 C 5.62 g/m*3 3.08 C 0 km/h
865 24-03-2019 00:00:00 2.4 C 5.39 g/m*3 2.4 C 0 km/h
866 24-03-2019 01:00:00 1.9 C 5.23 g/m*3 1.9 C 0 km/h
867 24-03-2019 02:00:00 1.425 C 5.08 g/m*3 1.43 C 0 km/h
868 24-03-2019 03:00:00 0.96667 C 4.92 g/m*3 0.97 C 0 km/h
869 24-03-2019 04:00:00 0.89167 C 4.94 g/m*3 0.89 C 0 km/h
870 24-03-2019 05:00:00 1.725 C 5.24 g/m*3 1.73 C 0.4 km/h
871 24-03-2019 07:00:00 2.78182 C 5.62 g/m*3 2.78 C 0.29091 km/h
872 24-03-2019 08:00:00 3.66667 C 6.02 g/m*3 3.67 C 0.13333 km/h
873 24-03-2019 09:00:00 4.85 C 6.44 g/m*3 4.85 C 2.53333 km/h
874 24-03-2019 10:00:00 6.875 C 7.1 g/m*3 6.88 C 3.46667 km/h
875 24-03-2019 11:00:00 9.54167 C 7.8 g/m*3 9.54 C 4.81667 km/h
Sensor: Nr:Datum:Temp:Abs-Feuchte:Windchill:Wind:
Aussen-T/F 876 24-03-2019 12:00:00 11.74167 C 8.07 g/m*3 11.74 C 9.53333 km/h
877 24-03-2019 13:00:00 10.88333 C 8.07 g/m*3 9.16 C 13.7 km/h
878 24-03-2019 14:00:00 10.64167 C 8.08 g/m*3 9.95 C 7.10833 km/h
879 24-03-2019 15:00:00 11.09167 C 7.88 g/m*3 11.09 C 8.74167 km/h
880 24-03-2019 16:00:00 12.03333 C 7.65 g/m*3 12.03 C 9.80833 km/h
881 24-03-2019 17:00:00 12.28333 C 7.05 g/m*3 12.28 C 10.625 km/h
882 24-03-2019 18:00:00 11.30833 C 6.37 g/m*3 11.31 C 8.6 km/h
883 24-03-2019 19:00:00 9.075 C 5.77 g/m*3 8.47 C 5.775 km/h
884 24-03-2019 20:00:00 7.18333 C 5.55 g/m*3 7.18 C 4.4 km/h
885 24-03-2019 21:00:00 5.59167 C 5.39 g/m*3 5.59 C 0.93333 km/h
886 24-03-2019 22:00:00 4.23333 C 5.21 g/m*3 4.23 C 0.8 km/h
887 24-03-2019 23:00:00 3.56667 C 5.11 g/m*3 3.57 C 2.53333 km/h
888 25-03-2019 00:00:00 3.35 C 5.02 g/m*3 3.35 C 2.93333 km/h
889 25-03-2019 01:00:00 1.875 C 4.76 g/m*3 1.88 C 0.53333 km/h
890 25-03-2019 02:00:00 1.89167 C 4.9 g/m*3 0.46 C 5.225 km/h
891 25-03-2019 03:00:00 2.29167 C 4.99 g/m*3 0.45 C 6.43333 km/h
892 25-03-2019 04:00:00 2.85833 C 5.07 g/m*3 0.76 C 7.50833 km/h
893 25-03-2019 05:00:00 3.675 C 5.13 g/m*3 0.61 C 12.23333 km/h
894 25-03-2019 06:00:00 3.74167 C 5.19 g/m*3 1.46 C 8.75 km/h
895 25-03-2019 07:00:00 4.38333 C 5.53 g/m*3 2.15 C 9.01667 km/h
896 25-03-2019 08:00:00 4.56667 C 6.01 g/m*3 2.83 C 7.25 km/h
897 25-03-2019 09:00:00 6.15 C 6.25 g/m*3 3.41 C 13.43333 km/h
898 25-03-2019 10:00:00 7.41667 C 5.92 g/m*3 4.58 C 16.1 km/h
899 25-03-2019 11:00:00 7.375 C 6.01 g/m*3 4.62 C 15.43333 km/h
900 25-03-2019 12:00:00 7.725 C 6.31 g/m*3 4.41 C 20.90833 km/h
Sensor: Nr:Datum:Temp:Abs-Feuchte:Windchill:Wind:
Aussen-T/F 901 25-03-2019 13:00:00 7.55 C 6.48 g/m*3 4.34 C 19.45 km/h
902 25-03-2019 14:00:00 7.65833 C 6.21 g/m*3 4.6 C 18.38333 km/h
903 25-03-2019 15:00:00 7.18333 C 6.57 g/m*3 4.89 C 12.08333 km/h
904 25-03-2019 16:00:00 7.29167 C 6.64 g/m*3 5.02 C 12.08333 km/h
905 25-03-2019 17:00:00 5.71667 C 6.41 g/m*3 3.83 C 8.58333 km/h
906 25-03-2019 18:00:00 5.3 C 6.46 g/m*3 5.3 C 3.20833 km/h
907 25-03-2019 19:00:00 5.04167 C 6.39 g/m*3 5.04 C 2.53333 km/h
908 25-03-2019 20:00:00 5.1 C 6.48 g/m*3 5.1 C 2.26667 km/h
909 25-03-2019 21:00:00 5.24167 C 6.56 g/m*3 5.24 C 4.29167 km/h
910 25-03-2019 22:00:00 5.15833 C 6.39 g/m*3 5.16 C 4.675 km/h
911 25-03-2019 23:00:00 4.65 C 6.2 g/m*3 4.65 C 1.06667 km/h
912 26-03-2019 00:00:00 4.49167 C 6.21 g/m*3 4.49 C 2 km/h
913 26-03-2019 01:00:00 4.525 C 6.19 g/m*3 4.53 C 0.53333 km/h
914 26-03-2019 02:00:00 4.375 C 6.19 g/m*3 4.38 C 0.13333 km/h
915 26-03-2019 03:00:00 4.64167 C 6.3 g/m*3 4.64 C 0.66667 km/h
916 26-03-2019 04:00:00 4.91667 C 6.42 g/m*3 4.92 C 1.33333 km/h
917 26-03-2019 05:00:00 5.00833 C 6.37 g/m*3 5.01 C 2.93333 km/h
918 26-03-2019 06:00:00 4.99167 C 6.23 g/m*3 4.99 C 2.94167 km/h
919 26-03-2019 07:00:00 5.06667 C 6.15 g/m*3 5.07 C 2.13333 km/h
920 26-03-2019 08:00:00 5.55 C 6 g/m*3 5.55 C 4.95 km/h
921 26-03-2019 09:00:00 6.225 C 5.91 g/m*3 4.69 C 7.53333 km/h
922 26-03-2019 10:00:00 6.98333 C 5.91 g/m*3 4.78 C 11.29167 km/h
923 26-03-2019 11:00:00 7.26667 C 5.66 g/m*3 5.69 C 8.46667 km/h
924 26-03-2019 12:00:00 8.46667 C 5.93 g/m*3 6.59 C 11.16667 km/h
925 26-03-2019 13:00:00 8.85 C 5.76 g/m*3 7.15 C 10.625 km/h
Sensor: Nr:Datum:Temp:Abs-Feuchte:Windchill:Wind:
Aussen-T/F 926 26-03-2019 14:00:00 8.875 C 5.68 g/m*3 6.88 C 12.49167 km/h
927 26-03-2019 15:00:00 9.03333 C 5.88 g/m*3 7.8 C 8.34167 km/h
928 26-03-2019 16:00:00 9.49167 C 5.89 g/m*3 7.62 C 12.5 km/h
929 26-03-2019 17:00:00 8.43333 C 6.05 g/m*3 7.16 C 8.05 km/h
930 26-03-2019 18:00:00 8.11667 C 6.16 g/m*3 7.38 C 5.75833 km/h
931 26-03-2019 19:00:00 7.59167 C 6.33 g/m*3 7.59 C 0.8 km/h
932 26-03-2019 20:00:00 7.075 C 6.4 g/m*3 7.08 C 0.4 km/h
933 26-03-2019 21:00:00 6.81667 C 6.44 g/m*3 6.82 C 0.13333 km/h
934 26-03-2019 22:00:00 6.51667 C 6.48 g/m*3 6.52 C 0 km/h
935 26-03-2019 23:00:00 6.24167 C 6.42 g/m*3 6.24 C 0.26667 km/h
936 27-03-2019 00:00:00 6.10833 C 6.4 g/m*3 6.11 C 0.8 km/h
937 27-03-2019 01:00:00 5.575 C 6.29 g/m*3 5.58 C 0 km/h
938 27-03-2019 02:00:00 5.25 C 6.25 g/m*3 5.25 C 0 km/h
939 27-03-2019 03:00:00 4.9 C 6.12 g/m*3 4.9 C 0 km/h
940 27-03-2019 04:00:00 4.05833 C 5.81 g/m*3 4.06 C 0.13333 km/h
941 27-03-2019 05:00:00 2.91667 C 5.43 g/m*3 2.92 C 0.53333 km/h
942 27-03-2019 06:00:00 2.1 C 5.23 g/m*3 2.1 C 0 km/h
943 27-03-2019 07:00:00 2.6 C 5.47 g/m*3 2.6 C 0.26667 km/h
944 27-03-2019 08:00:00 3.88333 C 5.97 g/m*3 3.88 C 0.53333 km/h
945 27-03-2019 09:00:00 5.8 C 6.58 g/m*3 5.8 C 1.6 km/h
946 27-03-2019 10:00:00 8.16667 C 7 g/m*3 8.17 C 2.93333 km/h
947 27-03-2019 11:00:00 9.13333 C 6.8 g/m*3 8.58 C 5.625 km/h
948 27-03-2019 12:00:00 10.05 C 6.55 g/m*3 9.49 C 6.16667 km/h
949 27-03-2019 13:00:00 10.8 C 6.28 g/m*3 9.64 C 9.68333 km/h
950 27-03-2019 14:00:00 11.05 C 6.13 g/m*3 11.05 C 6.44167 km/h
Sensor: Nr:Datum:Temp:Abs-Feuchte:Windchill:Wind:
Aussen-T/F 951 27-03-2019 15:00:00 11.10833 C 6.07 g/m*3 11.11 C 7.51667 km/h
952 27-03-2019 16:00:00 11.23333 C 6.02 g/m*3 11.23 C 6.3 km/h
953 27-03-2019 17:00:00 10.975 C 5.99 g/m*3 10.77 C 5.33333 km/h
954 27-03-2019 18:00:00 9.83333 C 6.38 g/m*3 9.83 C 0.8 km/h
955 27-03-2019 19:00:00 7.64167 C 6.24 g/m*3 7.64 C 3.46667 km/h
956 27-03-2019 20:00:00 6.49167 C 6.12 g/m*3 6.49 C 3.86667 km/h
957 27-03-2019 21:00:00 5.69167 C 6.04 g/m*3 5.69 C 1.33333 km/h
958 27-03-2019 22:00:00 4.725 C 5.79 g/m*3 4.72 C 0.4 km/h
959 27-03-2019 23:00:00 3.475 C 5.52 g/m*3 3.48 C 0 km/h
960 28-03-2019 00:00:00 2.925 C 5.43 g/m*3 2.93 C 0.53333 km/h
961 28-03-2019 01:00:00 2.475 C 5.3 g/m*3 2.48 C 0 km/h
962 28-03-2019 02:00:00 1.975 C 5.16 g/m*3 1.98 C 0 km/h
963 28-03-2019 03:00:00 1.60833 C 5.07 g/m*3 1.61 C 0 km/h
964 28-03-2019 04:00:00 1.375 C 5.01 g/m*3 1.38 C 0.13333 km/h
965 28-03-2019 05:00:00 1.13333 C 4.95 g/m*3 1.13 C 0 km/h
966 28-03-2019 06:00:00 1.59167 C 5.13 g/m*3 1.59 C 0 km/h
967 28-03-2019 07:00:00 2.11667 C 5.32 g/m*3 2.12 C 0.26667 km/h
968 28-03-2019 08:00:00 2.79167 C 5.55 g/m*3 2.79 C 1.33333 km/h
969 28-03-2019 09:00:00 4.425 C 6.07 g/m*3 4.43 C 2.66667 km/h
970 28-03-2019 10:00:00 7.30833 C 6.69 g/m*3 7.31 C 0.4 km/h
971 28-03-2019 11:00:00 10.325 C 7.27 g/m*3 10.33 C 3.475 km/h
972 28-03-2019 12:00:00 12.53333 C 7.36 g/m*3 12.53 C 8.33333 km/h
973 28-03-2019 13:00:00 13.21667 C 7.57 g/m*3 13.22 C 8.33333 km/h
974 28-03-2019 14:00:00 13.5 C 7.52 g/m*3 13.5 C 10.75833 km/h
975 28-03-2019 15:00:00 13.4 C 7.4 g/m*3 13.4 C 8.60833 km/h
Sensor: Nr:Datum:Temp:Abs-Feuchte:Windchill:Wind:
Aussen-T/F 976 28-03-2019 16:00:00 13.45833 C 7.32 g/m*3 13.46 C 9.01667 km/h
977 28-03-2019 17:00:00 13.19167 C 7.32 g/m*3 13.19 C 6.70833 km/h
978 28-03-2019 18:00:00 12.16667 C 7.58 g/m*3 12.17 C 2.53333 km/h
979 28-03-2019 19:00:00 10.36667 C 7.52 g/m*3 10.37 C 0.93333 km/h
980 28-03-2019 20:00:00 10.23333 C 7.49 g/m*3 10.23 C 0.53333 km/h
981 28-03-2019 21:00:00 9.50833 C 7.27 g/m*3 9.51 C 0 km/h
982 28-03-2019 22:00:00 7.88333 C 6.88 g/m*3 7.88 C 0.53333 km/h
983 28-03-2019 23:00:00 6.3 C 6.5 g/m*3 6.3 C 0 km/h
984 29-03-2019 00:00:00 5.28333 C 6.27 g/m*3 5.28 C 0 km/h
985 29-03-2019 01:00:00 4.35 C 6 g/m*3 4.35 C 0 km/h
986 29-03-2019 02:00:00 3.85833 C 5.89 g/m*3 3.86 C 0 km/h
987 29-03-2019 03:00:00 3.05833 C 5.61 g/m*3 3.06 C 0 km/h
988 29-03-2019 04:00:00 2.89167 C 5.61 g/m*3 2.89 C 0 km/h
989 29-03-2019 05:00:00 2.18333 C 5.34 g/m*3 2.18 C 0 km/h
990 29-03-2019 06:00:00 2.075 C 5.31 g/m*3 2.08 C 0 km/h
991 29-03-2019 07:00:00 2.175 C 5.39 g/m*3 2.17 C 0 km/h
992 29-03-2019 08:00:00 2.93333 C 5.69 g/m*3 2.93 C 0 km/h
993 29-03-2019 09:00:00 4.94167 C 6.56 g/m*3 4.94 C 0 km/h
994 29-03-2019 10:00:00 8.09167 C 7.98 g/m*3 8.09 C 0.53333 km/h
995 29-03-2019 11:00:00 12.48333 C 8.54 g/m*3 12.48 C 9.79167 km/h
996 29-03-2019 12:00:00 14.475 C 8.29 g/m*3 14.48 C 8.46667 km/h
997 29-03-2019 13:00:00 15.93333 C 8.14 g/m*3 15.93 C 10.225 km/h
998 29-03-2019 14:00:00 16.83333 C 7.91 g/m*3 16.83 C 10.89167 km/h
999 29-03-2019 15:00:00 17.475 C 7.8 g/m*3 17.48 C 9.68333 km/h
1000 29-03-2019 16:00:00 18.41667 C 7.82 g/m*3 18.42 C 8.71667 km/h
Sensor: Nr:Datum:Temp:Abs-Feuchte:Windchill:Wind:
Aussen-T/F 1001 29-03-2019 17:00:00 18.94167 C 7.7 g/m*3 18.94 C 4.53333 km/h
1002 29-03-2019 18:00:00 16.95833 C 7.77 g/m*3 16.96 C 2.675 km/h
1003 29-03-2019 19:00:00 11.55 C 7.26 g/m*3 11.55 C 5.46667 km/h
1004 29-03-2019 20:00:00 9.86667 C 7.1 g/m*3 9.87 C 1.6 km/h
1005 29-03-2019 21:00:00 8.10833 C 6.77 g/m*3 8.11 C 0 km/h
1006 29-03-2019 22:00:00 6.7 C 6.42 g/m*3 6.7 C 0 km/h
1007 29-03-2019 23:00:00 5.575 C 6.15 g/m*3 5.58 C 0 km/h
1008 30-03-2019 00:00:00 4.59167 C 5.94 g/m*3 4.59 C 0 km/h
1009 30-03-2019 01:00:00 4 C 5.82 g/m*3 4 C 0 km/h
1010 30-03-2019 02:00:00 3.45 C 5.66 g/m*3 3.45 C 0 km/h
1011 30-03-2019 03:00:00 2.8 C 5.49 g/m*3 2.8 C 0 km/h
1012 30-03-2019 04:00:00 2.48333 C 5.4 g/m*3 2.48 C 0 km/h
1013 30-03-2019 05:00:00 1.875 C 5.19 g/m*3 1.88 C 0 km/h
1014 30-03-2019 06:00:00 1.73333 C 5.18 g/m*3 1.73 C 0 km/h
1015 30-03-2019 07:00:00 2.11667 C 5.36 g/m*3 2.12 C 0.13333 km/h
1016 30-03-2019 08:00:00 3.35833 C 5.85 g/m*3 3.36 C 0.26667 km/h
1017 30-03-2019 09:00:00 5.45 C 6.77 g/m*3 5.45 C 0 km/h
1018 30-03-2019 10:00:00 8.84167 C 7.93 g/m*3 8.84 C 0 km/h
1019 30-03-2019 11:00:00 13.74167 C 8.36 g/m*3 13.74 C 5.225 km/h
1020 30-03-2019 12:00:00 17.6 C 7.5 g/m*3 17.6 C 14.76667 km/h
1021 30-03-2019 13:00:00 19.30833 C 6.85 g/m*3 19.31 C 14.76667 km/h
1022 30-03-2019 14:00:00 19.93333 C 6.57 g/m*3 19.93 C 16.63333 km/h
1023 30-03-2019 15:00:00 20.41667 C 6.55 g/m*3 20.42 C 13.96667 km/h
1024 30-03-2019 16:00:00 20.54167 C 6.94 g/m*3 20.54 C 8.85 km/h
1025 30-03-2019 17:00:00 19.46667 C 7.22 g/m*3 19.47 C 4.29167 km/h
Sensor: Nr:Datum:Temp:Abs-Feuchte:Windchill:Wind:
Aussen-T/F 1026 30-03-2019 18:00:00 17.30833 C 7.89 g/m*3 17.31 C 1.86667 km/h
1027 30-03-2019 19:00:00 14.88333 C 7.55 g/m*3 14.88 C 0.8 km/h
1028 30-03-2019 20:00:00 13.79167 C 7.66 g/m*3 13.79 C 2.66667 km/h
1029 30-03-2019 21:00:00 12.4 C 7.6 g/m*3 12.4 C 0.93333 km/h
1030 30-03-2019 22:00:00 11.125 C 7.57 g/m*3 11.13 C 0 km/h
1031 30-03-2019 23:00:00 10.80833 C 7.47 g/m*3 10.81 C 0 km/h
1032 31-03-2019 00:00:00 9.55833 C 7.04 g/m*3 9.56 C 0.4 km/h
1033 31-03-2019 01:00:00 8.38333 C 6.93 g/m*3 8.38 C 0 km/h
1034 31-03-2019 02:00:00 7.30833 C 6.64 g/m*3 7.31 C 0.4 km/h
1035 31-03-2019 04:00:00 6.45 C 6.42 g/m*3 6.45 C 0.13333 km/h
1036 31-03-2019 05:00:00 5.15 C 6.1 g/m*3 5.15 C 0.13333 km/h
1037 31-03-2019 06:00:00 4.95 C 6.13 g/m*3 4.95 C 0.4 km/h
1038 31-03-2019 07:00:00 4.78333 C 6.08 g/m*3 4.78 C 0.4 km/h
1039 31-03-2019 08:00:00 4.70833 C 6.13 g/m*3 4.71 C 0 km/h
1040 31-03-2019 09:00:00 5.50833 C 6.53 g/m*3 5.51 C 0 km/h
1041 31-03-2019 10:00:00 8 C 7.54 g/m*3 8 C 0 km/h
1042 31-03-2019 11:00:00 11.51667 C 8.13 g/m*3 11.52 C 0.26667 km/h
1043 31-03-2019 12:00:00 14.56667 C 8.23 g/m*3 14.57 C 3.2 km/h
1044 31-03-2019 13:00:00 16.74167 C 7.93 g/m*3 16.74 C 5.76667 km/h
1045 31-03-2019 14:00:00 18.34167 C 7.9 g/m*3 18.34 C 7.91667 km/h
1046 31-03-2019 15:00:00 18.825 C 7.77 g/m*3 18.83 C 9.81667 km/h
1047 31-03-2019 16:00:00 15.925 C 9.88 g/m*3 15.93 C 6.96667 km/h
1048 31-03-2019 17:00:00 14.2 C 10.95 g/m*3 14.2 C 1.86667 km/h
1049 31-03-2019 18:00:00 15.28333 C 9.93 g/m*3 15.28 C 4.95 km/h
1050 31-03-2019 19:00:00 12.74167 C 9 g/m*3 12.74 C 2.93333 km/h
Sensor: Nr:Datum:Temp:Abs-Feuchte:Windchill:Wind:
Aussen-T/F 1051 31-03-2019 20:00:00 10.11667 C 8.24 g/m*3 10.12 C 4.4 km/h
1052 31-03-2019 21:00:00 8.95 C 7.72 g/m*3 8.95 C 2.13333 km/h
1053 31-03-2019 22:00:00 8.04167 C 7.27 g/m*3 8.04 C 2 km/h
1054 31-03-2019 23:00:00 7.21667 C 6.92 g/m*3 7.22 C 0.8 km/h
1055 01-04-2019 00:00:00 6.36667 C 6.62 g/m*3 6.37 C 0 km/h
1056 01-04-2019 01:00:00 5.74167 C 6.37 g/m*3 5.74 C 0.26667 km/h
1057 01-04-2019 02:00:00 5.25 C 6.22 g/m*3 5.25 C 1.86667 km/h
1058 01-04-2019 03:00:00 4.69167 C 6.04 g/m*3 4.69 C 2.8 km/h
1059 01-04-2019 04:00:00 4.31667 C 5.9 g/m*3 4.32 C 1.73333 km/h
1060 01-04-2019 05:00:00 3.975 C 5.78 g/m*3 3.98 C 0.8 km/h
1061 01-04-2019 06:00:00 3.56667 C 5.67 g/m*3 3.57 C 0.4 km/h
1062 01-04-2019 07:00:00 3.15 C 5.54 g/m*3 3.15 C 0.8 km/h
1063 01-04-2019 08:00:00 3.16667 C 5.61 g/m*3 3.17 C 0 km/h
1064 01-04-2019 09:00:00 4.29167 C 6.01 g/m*3 4.29 C 0.66667 km/h
1065 01-04-2019 10:00:00 6.65 C 6.32 g/m*3 5.52 C 6.31667 km/h
1066 01-04-2019 11:00:00 9.53333 C 6.5 g/m*3 8.18 C 9.40833 km/h
1067 01-04-2019 12:00:00 11.28333 C 6.7 g/m*3 11.28 C 10.08333 km/h
1068 01-04-2019 13:00:00 13.00833 C 6.96 g/m*3 13.01 C 9.15833 km/h
1069 01-04-2019 14:00:00 14.91667 C 7.26 g/m*3 14.92 C 10.63333 km/h
1070 01-04-2019 15:00:00 16.39167 C 7.5 g/m*3 16.39 C 8.73333 km/h
1071 01-04-2019 16:00:00 17.5 C 7.53 g/m*3 17.5 C 6.15833 km/h
1072 01-04-2019 17:00:00 18.275 C 7.44 g/m*3 18.27 C 8.46667 km/h
1073 01-04-2019 18:00:00 17.875 C 7.22 g/m*3 17.88 C 7.65833 km/h
1074 01-04-2019 19:00:00 16 C 7.62 g/m*3 16 C 4.01667 km/h
1075 01-04-2019 20:00:00 11.775 C 7.41 g/m*3 11.78 C 5.2 km/h
Sensor: Nr:Datum:Temp:Abs-Feuchte:Windchill:Wind:
Aussen-T/F 1076 01-04-2019 21:00:00 10.15833 C 7.18 g/m*3 10.16 C 4.66667 km/h
1077 01-04-2019 22:00:00 9.35 C 6.95 g/m*3 9.35 C 2.26667 km/h
1078 01-04-2019 23:00:00 8.79167 C 6.73 g/m*3 8.79 C 1.86667 km/h
1079 02-04-2019 00:00:00 7.93333 C 6.63 g/m*3 7.93 C 0 km/h
1080 02-04-2019 01:00:00 7.04167 C 6.46 g/m*3 7.04 C 0 km/h
1081 02-04-2019 02:00:00 6.3 C 6.27 g/m*3 6.3 C 0 km/h
1082 02-04-2019 03:00:00 5.09167 C 5.98 g/m*3 5.09 C 0 km/h
1083 02-04-2019 04:00:00 4.39167 C 5.88 g/m*3 4.39 C 0 km/h
1084 02-04-2019 05:00:00 3.96667 C 5.78 g/m*3 3.97 C 0 km/h
1085 02-04-2019 06:00:00 3.88333 C 5.81 g/m*3 3.88 C 0 km/h
1086 02-04-2019 07:00:00 4.00833 C 5.91 g/m*3 4.01 C 0 km/h
1087 02-04-2019 08:00:00 4.98333 C 6.31 g/m*3 4.98 C 0 km/h
1088 02-04-2019 09:00:00 6.53333 C 6.71 g/m*3 6.53 C 0 km/h
1089 02-04-2019 10:00:00 8.71667 C 7.1 g/m*3 8.72 C 0 km/h
1090 02-04-2019 11:00:00 11.95 C 7.96 g/m*3 11.95 C 2.8 km/h
1091 02-04-2019 12:00:00 15.01667 C 8.57 g/m*3 15.02 C 4.01667 km/h
1092 02-04-2019 13:00:00 16.80833 C 8.7 g/m*3 16.81 C 6.175 km/h
1093 02-04-2019 14:00:00 17.975 C 8.91 g/m*3 17.98 C 9.55833 km/h
1094 02-04-2019 15:00:00 16.725 C 9.1 g/m*3 16.73 C 12.625 km/h
1095 02-04-2019 16:00:00 17.46667 C 8.58 g/m*3 17.47 C 16.36667 km/h
1096 02-04-2019 17:00:00 16.00833 C 8.99 g/m*3 16.01 C 9.15 km/h
1097 02-04-2019 18:00:00 16.08333 C 8.71 g/m*3 16.08 C 6.71667 km/h
1098 02-04-2019 19:00:00 15.35833 C 8.65 g/m*3 15.36 C 4.00833 km/h
1099 02-04-2019 20:00:00 14.03333 C 8.59 g/m*3 14.03 C 7.11667 km/h
1100 02-04-2019 21:00:00 13.50833 C 8.12 g/m*3 13.51 C 8.325 km/h
Sensor: Nr:Datum:Temp:Abs-Feuchte:Windchill:Wind:
Aussen-T/F 1101 02-04-2019 22:00:00 12.66667 C 7.79 g/m*3 12.67 C 6.84167 km/h
1102 02-04-2019 23:00:00 11.4 C 7.6 g/m*3 11.4 C 0.66667 km/h
1103 03-04-2019 00:00:00 10.50833 C 7.64 g/m*3 10.51 C 0.66667 km/h
1104 03-04-2019 01:00:00 10.275 C 7.62 g/m*3 10.28 C 0 km/h
1105 03-04-2019 02:00:00 9.90833 C 7.61 g/m*3 9.91 C 0 km/h
1106 03-04-2019 03:00:00 8.91667 C 7.43 g/m*3 8.92 C 0 km/h
1107 03-04-2019 04:00:00 8.875 C 7.54 g/m*3 8.88 C 0 km/h
1108 03-04-2019 05:00:00 8.6 C 7.44 g/m*3 8.6 C 0 km/h
1109 03-04-2019 06:00:00 8.075 C 7.3 g/m*3 8.07 C 0.53333 km/h
1110 03-04-2019 07:00:00 8.64167 C 7.32 g/m*3 8.64 C 0.53333 km/h
1111 03-04-2019 08:00:00 8.86667 C 7.52 g/m*3 8.87 C 3.35833 km/h
1112 03-04-2019 09:00:00 7.66667 C 7.32 g/m*3 5.96 C 9.4 km/h
1113 03-04-2019 10:00:00 7.025 C 7.11 g/m*3 7.03 C 2.80833 km/h
1114 03-04-2019 11:00:00 7.44167 C 7.33 g/m*3 7.44 C 1.2 km/h
1115 03-04-2019 12:00:00 8.33333 C 7.51 g/m*3 8.33 C 3.60833 km/h
1116 03-04-2019 13:00:00 9.475 C 7.56 g/m*3 9.48 C 3.6 km/h
1117 03-04-2019 14:00:00 9.43333 C 7.37 g/m*3 9.43 C 4.54167 km/h
1118 03-04-2019 15:00:00 10.05 C 7.52 g/m*3 9.35 C 6.7 km/h
1119 03-04-2019 16:00:00 10.2 C 7.47 g/m*3 10.2 C 4.675 km/h
1120 03-04-2019 17:00:00 9.45833 C 7.47 g/m*3 9.46 C 2.93333 km/h
1121 03-04-2019 18:00:00 7.93333 C 7.42 g/m*3 7.93 C 1.6 km/h
1122 03-04-2019 19:00:00 7.025 C 7.2 g/m*3 7.03 C 0.26667 km/h
1123 03-04-2019 20:00:00 6.45 C 7 g/m*3 6.45 C 0 km/h
1124 03-04-2019 21:00:00 6.23333 C 6.98 g/m*3 6.23 C 0 km/h
1125 03-04-2019 22:00:00 5.875 C 6.84 g/m*3 5.88 C 0.13333 km/h
Sensor: Nr:Datum:Temp:Abs-Feuchte:Windchill:Wind:
Aussen-T/F 1126 03-04-2019 23:00:00 5.63333 C 6.73 g/m*3 5.63 C 0.13333 km/h
1127 04-04-2019 00:00:00 5.65 C 6.77 g/m*3 5.65 C 0.4 km/h
1128 04-04-2019 01:00:00 5.325 C 6.64 g/m*3 5.33 C 1.06667 km/h
1129 04-04-2019 02:00:00 5.41667 C 6.71 g/m*3 5.42 C 2.13333 km/h
1130 04-04-2019 03:00:00 5.6 C 6.79 g/m*3 5.6 C 0 km/h
1131 04-04-2019 04:00:00 5.54167 C 6.76 g/m*3 5.54 C 0 km/h
1132 04-04-2019 05:00:00 5.60833 C 6.79 g/m*3 5.61 C 0 km/h
1133 04-04-2019 06:00:00 5.475 C 6.73 g/m*3 5.48 C 0 km/h
1134 04-04-2019 07:00:00 5.34167 C 6.67 g/m*3 5.34 C 0 km/h
1135 04-04-2019 08:00:00 5.61667 C 6.79 g/m*3 5.62 C 0 km/h
1136 04-04-2019 09:00:00 5.93333 C 6.97 g/m*3 5.93 C 0.66667 km/h
1137 04-04-2019 10:00:00 6.075 C 7 g/m*3 6.08 C 1.46667 km/h
1138 04-04-2019 11:00:00 6.65833 C 7.07 g/m*3 6.66 C 2.26667 km/h
1139 04-04-2019 12:00:00 6.95 C 6.91 g/m*3 6.17 C 5.375 km/h
1140 04-04-2019 13:00:00 6.69167 C 6.96 g/m*3 6.69 C 2.80833 km/h
1141 04-04-2019 14:00:00 6.4 C 6.84 g/m*3 6.4 C 4.14167 km/h
1142 04-04-2019 15:00:00 6.85833 C 6.99 g/m*3 6.86 C 0.4 km/h
1143 04-04-2019 16:00:00 7.08333 C 7.09 g/m*3 7.08 C 1.73333 km/h
1144 04-04-2019 17:00:00 7.43333 C 7.03 g/m*3 7.43 C 4.55 km/h
1145 04-04-2019 18:00:00 7.56667 C 6.85 g/m*3 7.57 C 3.475 km/h
1146 04-04-2019 19:00:00 7.25833 C 6.86 g/m*3 7.26 C 1.33333 km/h
1147 04-04-2019 20:00:00 5.95833 C 6.64 g/m*3 5.96 C 1.46667 km/h
1148 04-04-2019 21:00:00 5.29167 C 6.48 g/m*3 5.29 C 1.33333 km/h
1149 04-04-2019 22:00:00 5.08333 C 6.45 g/m*3 5.08 C 0.53333 km/h
1150 04-04-2019 23:00:00 4.575 C 6.24 g/m*3 4.58 C 0 km/h
Sensor: Nr:Datum:Temp:Abs-Feuchte:Windchill:Wind:
Aussen-T/F 1151 05-04-2019 00:00:00 4.10833 C 6.08 g/m*3 4.11 C 0 km/h
1152 05-04-2019 01:00:00 3.525 C 5.87 g/m*3 3.53 C 0 km/h
1153 05-04-2019 02:00:00 3.775 C 6.01 g/m*3 3.78 C 0 km/h
1154 05-04-2019 03:00:00 3.85833 C 6.05 g/m*3 3.86 C 0 km/h
1155 05-04-2019 04:00:00 4.06667 C 6.13 g/m*3 4.07 C 0 km/h
1156 05-04-2019 05:00:00 3.93333 C 6.08 g/m*3 3.93 C 0 km/h
1157 05-04-2019 06:00:00 3.9 C 6.06 g/m*3 3.9 C 0 km/h
1158 05-04-2019 07:00:00 4.13333 C 6.2 g/m*3 4.13 C 0 km/h
1159 05-04-2019 08:00:00 4.64167 C 6.44 g/m*3 4.64 C 0 km/h
1160 05-04-2019 09:00:00 5.3 C 6.72 g/m*3 5.3 C 3.06667 km/h
1161 05-04-2019 10:00:00 5.89167 C 6.89 g/m*3 5.89 C 1.2 km/h
1162 05-04-2019 11:00:00 7.16667 C 7.06 g/m*3 6.34 C 5.60833 km/h
1163 05-04-2019 12:00:00 8.025 C 7.1 g/m*3 6.87 C 7.23333 km/h
1164 05-04-2019 13:00:00 8.19167 C 7.07 g/m*3 8.19 C 4.54167 km/h
1165 05-04-2019 14:00:00 8.41667 C 7.1 g/m*3 8.42 C 3.46667 km/h
1166 05-04-2019 15:00:00 8.55 C 7.21 g/m*3 8.55 C 4.40833 km/h
1167 05-04-2019 16:00:00 8.58333 C 7.32 g/m*3 8.08 C 5.20833 km/h
1168 05-04-2019 17:00:00 8.41667 C 7.4 g/m*3 8.42 C 4.14167 km/h
1169 05-04-2019 18:00:00 8.3 C 7.49 g/m*3 8.3 C 2.94167 km/h
1170 05-04-2019 19:00:00 8.19167 C 7.55 g/m*3 8.19 C 0 km/h
1171 05-04-2019 20:00:00 7.925 C 7.55 g/m*3 7.93 C 0 km/h
1172 05-04-2019 21:00:00 7.69167 C 7.54 g/m*3 7.69 C 0 km/h
1173 05-04-2019 22:00:00 7.61667 C 7.58 g/m*3 7.62 C 0 km/h
1174 05-04-2019 23:00:00 7.6 C 7.61 g/m*3 7.6 C 0 km/h
1175 06-04-2019 00:00:00 7.45833 C 7.58 g/m*3 7.46 C 0 km/h
Sensor: Nr:Datum:Temp:Abs-Feuchte:Windchill:Wind:
Aussen-T/F 1176 06-04-2019 01:00:00 7.40833 C 7.63 g/m*3 7.41 C 0 km/h
1177 06-04-2019 02:00:00 7.225 C 7.54 g/m*3 7.23 C 0 km/h
1178 06-04-2019 03:00:00 6.14167 C 6.97 g/m*3 6.14 C 2.93333 km/h
1179 06-04-2019 04:00:00 5.15833 C 6.57 g/m*3 5.16 C 0.13333 km/h
1180 06-04-2019 05:00:00 5.01667 C 6.53 g/m*3 5.02 C 0 km/h
1181 06-04-2019 06:00:00 4.675 C 6.4 g/m*3 4.68 C 0 km/h
1182 06-04-2019 07:00:00 5.13333 C 6.63 g/m*3 5.13 C 0 km/h
1183 06-04-2019 08:00:00 5.71667 C 6.91 g/m*3 5.72 C 0.4 km/h
1184 06-04-2019 09:00:00 6.025 C 7.05 g/m*3 6.03 C 0.53333 km/h
1185 06-04-2019 10:00:00 7.325 C 7.69 g/m*3 7.33 C 0 km/h
1186 06-04-2019 11:00:00 9.825 C 8.4 g/m*3 9.09 C 6.70833 km/h
1187 06-04-2019 12:00:00 12.51667 C 8.42 g/m*3 12.52 C 5.89167 km/h
1188 06-04-2019 13:00:00 14.375 C 8.5 g/m*3 14.38 C 8.325 km/h
1189 06-04-2019 14:00:00 16.04167 C 8.47 g/m*3 16.04 C 8.85 km/h
1190 06-04-2019 15:00:00 15.96667 C 8.24 g/m*3 15.97 C 9.40833 km/h
1191 06-04-2019 16:00:00 15.81667 C 8.31 g/m*3 15.82 C 7.925 km/h
1192 06-04-2019 17:00:00 16.30833 C 8.41 g/m*3 16.31 C 8.05833 km/h
1193 06-04-2019 18:00:00 17.31667 C 8.61 g/m*3 17.32 C 6.175 km/h
1194 06-04-2019 19:00:00 16.46667 C 9.06 g/m*3 16.47 C 0.53333 km/h
1195 06-04-2019 20:00:00 12.50833 C 8.76 g/m*3 12.51 C 0 km/h
1196 06-04-2019 21:00:00 11.1 C 8.53 g/m*3 11.1 C 0 km/h
1197 06-04-2019 22:00:00 10.05 C 8.28 g/m*3 10.05 C 0 km/h
1198 06-04-2019 23:00:00 9.3 C 8.04 g/m*3 9.3 C 0 km/h
1199 07-04-2019 00:00:00 8.40833 C 7.77 g/m*3 8.41 C 0 km/h
1200 07-04-2019 01:00:00 7.75833 C 7.54 g/m*3 7.76 C 0 km/h
Sensor: Nr:Datum:Temp:Abs-Feuchte:Windchill:Wind:
Aussen-T/F 1201 07-04-2019 02:00:00 7.175 C 7.34 g/m*3 7.18 C 0 km/h
1202 07-04-2019 03:00:00 6.775 C 7.23 g/m*3 6.78 C 0 km/h
1203 07-04-2019 04:00:00 6.09167 C 6.91 g/m*3 6.09 C 0 km/h
1204 07-04-2019 05:00:00 5.68333 C 6.75 g/m*3 5.68 C 0 km/h
1205 07-04-2019 06:00:00 5.43333 C 6.71 g/m*3 5.43 C 0 km/h
1206 07-04-2019 07:00:00 4.68333 C 6.37 g/m*3 4.68 C 0 km/h
1207 07-04-2019 08:00:00 5.23333 C 6.64 g/m*3 5.23 C 0 km/h
1208 07-04-2019 09:00:00 6.14167 C 7.11 g/m*3 6.14 C 0.4 km/h
1209 07-04-2019 10:00:00 8.25 C 8.16 g/m*3 8.25 C 0.4 km/h
1210 07-04-2019 11:00:00 12.725 C 8.8 g/m*3 12.73 C 10.08333 km/h
1211 07-04-2019 12:00:00 15.79167 C 7.95 g/m*3 15.79 C 12.75833 km/h
1212 07-04-2019 13:00:00 17.00833 C 7.47 g/m*3 17.01 C 11.15833 km/h
1213 07-04-2019 14:00:00 18.25833 C 7.16 g/m*3 18.26 C 16.9 km/h
1214 07-04-2019 15:00:00 19.13333 C 6.83 g/m*3 19.13 C 12.225 km/h
1215 07-04-2019 16:00:00 20 C 6.81 g/m*3 20 C 11.68333 km/h
1216 07-04-2019 17:00:00 20.88333 C 7.02 g/m*3 20.88 C 8.31667 km/h
1217 07-04-2019 18:00:00 19.09167 C 7.91 g/m*3 19.09 C 5.775 km/h
1218 07-04-2019 19:00:00 16.95 C 8.97 g/m*3 16.95 C 0.13333 km/h
1219 07-04-2019 20:00:00 15.14167 C 8.86 g/m*3 15.14 C 2.8 km/h
1220 07-04-2019 21:00:00 14.49167 C 8.9 g/m*3 14.49 C 0.8 km/h
1221 07-04-2019 22:00:00 13.95 C 8.9 g/m*3 13.95 C 0 km/h
1222 07-04-2019 23:00:00 13.44167 C 9.12 g/m*3 13.44 C 0 km/h
1223 08-04-2019 00:00:00 12.95 C 9.18 g/m*3 12.95 C 0.13333 km/h
1224 08-04-2019 01:00:00 12.53333 C 9.12 g/m*3 12.53 C 0.13333 km/h
1225 08-04-2019 02:00:00 11.975 C 8.98 g/m*3 11.98 C 0.26667 km/h
Sensor: Nr:Datum:Temp:Abs-Feuchte:Windchill:Wind:
Aussen-T/F 1226 08-04-2019 03:00:00 11.60833 C 8.9 g/m*3 11.61 C 0.8 km/h
1227 08-04-2019 04:00:00 11.23333 C 8.83 g/m*3 11.23 C 0.13333 km/h
1228 08-04-2019 05:00:00 11.06667 C 8.85 g/m*3 11.07 C 0.13333 km/h
1229 08-04-2019 06:00:00 10.66667 C 8.69 g/m*3 10.67 C 0.13333 km/h
1230 08-04-2019 07:00:00 10.025 C 8.5 g/m*3 10.03 C 0 km/h
1231 08-04-2019 08:00:00 10.425 C 8.87 g/m*3 10.43 C 0 km/h
1232 08-04-2019 09:00:00 11.5 C 9.16 g/m*3 11.5 C 1.46667 km/h
1233 08-04-2019 10:00:00 12.45833 C 9.29 g/m*3 12.46 C 1.6 km/h
1234 08-04-2019 11:00:00 13.16667 C 9.47 g/m*3 13.17 C 1.46667 km/h
1235 08-04-2019 12:00:00 13.15 C 9.54 g/m*3 13.15 C 1.2 km/h
1236 08-04-2019 13:00:00 13.48333 C 9.73 g/m*3 13.48 C 1.06667 km/h
1237 08-04-2019 14:00:00 15.05 C 9.93 g/m*3 15.05 C 3.73333 km/h
1238 08-04-2019 15:00:00 16.80833 C 9.88 g/m*3 16.81 C 6.55833 km/h
1239 08-04-2019 16:00:00 17.05833 C 9.84 g/m*3 17.06 C 2.93333 km/h
1240 08-04-2019 17:00:00 15.05 C 10.8 g/m*3 15.05 C 0.53333 km/h
1241 08-04-2019 18:00:00 14.35833 C 10.75 g/m*3 14.36 C 0.93333 km/h
1242 08-04-2019 19:00:00 13.84167 C 10.29 g/m*3 13.84 C 1.6 km/h
1243 08-04-2019 20:00:00 12.875 C 10.06 g/m*3 12.88 C 0.4 km/h
1244 08-04-2019 21:00:00 11.425 C 9.52 g/m*3 11.43 C 3.86667 km/h
1245 08-04-2019 22:00:00 11.1 C 9.53 g/m*3 11.1 C 1.06667 km/h
1246 08-04-2019 23:00:00 10.93333 C 9.45 g/m*3 10.93 C 0.53333 km/h
1247 09-04-2019 00:00:00 10.20833 C 9.04 g/m*3 10.21 C 0.93333 km/h
1248 09-04-2019 01:00:00 10.16667 C 9.08 g/m*3 10.17 C 0.26667 km/h
1249 09-04-2019 02:00:00 10.44167 C 9.28 g/m*3 10.44 C 0 km/h
1250 09-04-2019 03:00:00 10.15833 C 9.11 g/m*3 10.16 C 0 km/h
Sensor: Nr:Datum:Temp:Abs-Feuchte:Windchill:Wind:
Aussen-T/F 1251 09-04-2019 04:00:00 9.73333 C 8.87 g/m*3 9.73 C 0 km/h
1252 09-04-2019 05:00:00 9.025 C 8.48 g/m*3 9.03 C 0 km/h
1253 09-04-2019 06:00:00 8.94167 C 8.47 g/m*3 8.94 C 0 km/h
1254 09-04-2019 07:00:00 9.30833 C 8.72 g/m*3 9.31 C 0 km/h
1255 09-04-2019 08:00:00 9.875 C 9.04 g/m*3 9.88 C 0 km/h
1256 09-04-2019 09:00:00 10.50833 C 9.41 g/m*3 10.51 C 0.53333 km/h
1257 09-04-2019 10:00:00 11.09167 C 9.65 g/m*3 11.09 C 1.2 km/h
1258 09-04-2019 11:00:00 11.90833 C 10.03 g/m*3 11.91 C 2.13333 km/h
1259 09-04-2019 12:00:00 12.83333 C 10.38 g/m*3 12.83 C 1.2 km/h
1260 09-04-2019 13:00:00 14.475 C 10.69 g/m*3 14.48 C 3.2 km/h
1261 09-04-2019 14:00:00 16.075 C 10.8 g/m*3 16.08 C 6.83333 km/h
1262 09-04-2019 15:00:00 16.325 C 10.83 g/m*3 16.33 C 5.49167 km/h
1263 09-04-2019 16:00:00 16.08333 C 10.79 g/m*3 16.08 C 5.475 km/h
1264 09-04-2019 17:00:00 15.85 C 10.69 g/m*3 15.85 C 0.66667 km/h
1265 09-04-2019 18:00:00 15.4 C 10.9 g/m*3 15.4 C 0.13333 km/h
1266 09-04-2019 19:00:00 14.58333 C 10.17 g/m*3 14.58 C 2.80833 km/h
1267 09-04-2019 20:00:00 13.625 C 9.69 g/m*3 13.63 C 0.93333 km/h
1268 09-04-2019 21:00:00 12.48333 C 9.24 g/m*3 12.48 C 0.4 km/h
1269 09-04-2019 22:00:00 12.36667 C 8.16 g/m*3 12.37 C 4.53333 km/h
1270 09-04-2019 23:00:00 12.16667 C 7.6 g/m*3 12.17 C 7.38333 km/h
1271 10-04-2019 00:00:00 10.925 C 7.85 g/m*3 10.93 C 2.94167 km/h
1272 10-04-2019 01:00:00 10.36667 C 7.52 g/m*3 10.37 C 4.28333 km/h
1273 10-04-2019 02:00:00 9.91667 C 7.56 g/m*3 9.92 C 1.6 km/h
1274 10-04-2019 03:00:00 9.775 C 7.29 g/m*3 9.78 C 3.35 km/h
1275 10-04-2019 04:00:00 8.79167 C 7.06 g/m*3 8.79 C 0.53333 km/h
Sensor: Nr:Datum:Temp:Abs-Feuchte:Windchill:Wind:
Aussen-T/F 1276 10-04-2019 05:00:00 7.34167 C 6.71 g/m*3 7.34 C 0.53333 km/h
1277 10-04-2019 06:00:00 6.50833 C 6.47 g/m*3 6.51 C 0.66667 km/h
1278 10-04-2019 07:00:00 6.6 C 6.37 g/m*3 6.6 C 0.26667 km/h
1279 10-04-2019 08:00:00 7.675 C 6.24 g/m*3 6.99 C 5.36667 km/h
1280 10-04-2019 09:00:00 8.50833 C 6.14 g/m*3 6.74 C 10.625 km/h
1281 10-04-2019 10:00:00 9.575 C 6.31 g/m*3 7.82 C 11.83333 km/h
1282 10-04-2019 11:00:00 11.18333 C 6.41 g/m*3 11.18 C 12.9 km/h
1283 10-04-2019 12:00:00 12.16667 C 6.12 g/m*3 12.17 C 11.01667 km/h
1284 10-04-2019 13:00:00 13.425 C 6.32 g/m*3 13.43 C 9.94167 km/h
1285 10-04-2019 14:00:00 14.24167 C 6.08 g/m*3 14.24 C 12.76667 km/h
1286 10-04-2019 15:00:00 15.1 C 6.04 g/m*3 15.1 C 13.43333 km/h
1287 10-04-2019 16:00:00 16.075 C 6.01 g/m*3 16.08 C 13.825 km/h
1288 10-04-2019 17:00:00 16.6 C 5.79 g/m*3 16.6 C 12.35833 km/h
1289 10-04-2019 18:00:00 15.94167 C 5.17 g/m*3 15.94 C 14.5 km/h
1290 10-04-2019 19:00:00 14.4 C 5.28 g/m*3 14.4 C 14.9 km/h
1291 10-04-2019 20:00:00 11.34167 C 5.8 g/m*3 11.34 C 3.20833 km/h
1292 10-04-2019 21:00:00 8.9 C 5.88 g/m*3 8.9 C 2.13333 km/h
1293 10-04-2019 22:00:00 7.38333 C 5.81 g/m*3 7.38 C 0.4 km/h
1294 10-04-2019 23:00:00 6.46667 C 5.71 g/m*3 6.47 C 0.66667 km/h
1295 11-04-2019 00:00:00 5.75 C 5.52 g/m*3 5.75 C 1.34167 km/h
1296 11-04-2019 01:00:00 5.03333 C 5.31 g/m*3 5.03 C 0.53333 km/h
1297 11-04-2019 02:00:00 4.4 C 5.15 g/m*3 4.4 C 1.2 km/h
1298 11-04-2019 03:00:00 3.85833 C 4.98 g/m*3 3.86 C 0 km/h
1299 11-04-2019 04:00:00 2.9 C 4.76 g/m*3 2.9 C 0 km/h
1300 11-04-2019 05:00:00 2.30833 C 4.64 g/m*3 2.31 C 0.26667 km/h
Sensor: Nr:Datum:Temp:Abs-Feuchte:Windchill:Wind:
Aussen-T/F 1301 11-04-2019 06:00:00 1.71667 C 4.54 g/m*3 1.72 C 0 km/h
1302 11-04-2019 07:00:00 1.21667 C 4.49 g/m*3 1.22 C 0 km/h
1303 11-04-2019 08:00:00 1.8 C 4.69 g/m*3 1.8 C 0 km/h
1304 11-04-2019 09:00:00 3.9 C 4.89 g/m*3 3.9 C 4.69167 km/h
1305 11-04-2019 10:00:00 6.76667 C 4.43 g/m*3 3.92 C 15.03333 km/h
1306 11-04-2019 11:00:00 8.1 C 4.14 g/m*3 5.23 C 17.70833 km/h
1307 11-04-2019 12:00:00 8.91667 C 4.03 g/m*3 6.41 C 16.36667 km/h
1308 11-04-2019 13:00:00 9.875 C 4.05 g/m*3 7.86 C 14.23333 km/h
1309 11-04-2019 14:00:00 11.01667 C 4.09 g/m*3 11.02 C 16.5 km/h
1310 11-04-2019 15:00:00 12 C 4.13 g/m*3 12 C 17.175 km/h
1311 11-04-2019 16:00:00 12.76667 C 4.04 g/m*3 12.77 C 16.36667 km/h
1312 11-04-2019 17:00:00 13.31667 C 4.02 g/m*3 13.32 C 14.76667 km/h
1313 11-04-2019 18:00:00 13.025 C 3.99 g/m*3 13.03 C 11.41667 km/h
1314 11-04-2019 19:00:00 11.95833 C 4.06 g/m*3 11.96 C 7.65833 km/h
1315 11-04-2019 20:00:00 8.95 C 4.36 g/m*3 8.95 C 2.4 km/h
1316 11-04-2019 21:00:00 6.225 C 4.52 g/m*3 6.23 C 2.26667 km/h
1317 11-04-2019 22:00:00 5.35 C 4.45 g/m*3 5.35 C 2.80833 km/h
1318 11-04-2019 23:00:00 5.48333 C 4.26 g/m*3 5.48 C 3.75 km/h
1319 12-04-2019 00:00:00 4.46667 C 4.12 g/m*3 3.34 C 5.35 km/h
1320 12-04-2019 01:00:00 3.54167 C 4.03 g/m*3 3.54 C 3.34167 km/h
1321 12-04-2019 02:00:00 2.15833 C 4.03 g/m*3 2.16 C 2.53333 km/h
1322 12-04-2019 03:00:00 1.60833 C 3.98 g/m*3 1.61 C 3.06667 km/h
1323 12-04-2019 04:00:00 2.15833 C 4.23 g/m*3 2.16 C 0.66667 km/h
1324 12-04-2019 05:00:00 2.70833 C 4.27 g/m*3 2.71 C 0 km/h
1325 12-04-2019 06:00:00 2.98333 C 4.21 g/m*3 2.98 C 0 km/h
Sensor: Nr:Datum:Temp:Abs-Feuchte:Windchill:Wind:
Aussen-T/F 1326 12-04-2019 07:00:00 3.475 C 4.1 g/m*3 3.48 C 3.075 km/h
1327 12-04-2019 08:00:00 4.63333 C 3.85 g/m*3 1.97 C 11.16667 km/h
1328 12-04-2019 09:00:00 5.03333 C 3.82 g/m*3 2.3 C 11.95833 km/h
1329 12-04-2019 10:00:00 5.49167 C 3.74 g/m*3 1.91 C 18.23333 km/h
1330 12-04-2019 11:00:00 5.98333 C 3.76 g/m*3 2.37 C 19.43333 km/h
1331 12-04-2019 12:00:00 6.78333 C 3.82 g/m*3 4.08 C 14.09167 km/h
1332 12-04-2019 13:00:00 7.15833 C 3.74 g/m*3 4.9 C 11.825 km/h
1333 12-04-2019 14:00:00 7.26667 C 3.69 g/m*3 4.83 C 13.03333 km/h
1334 12-04-2019 15:00:00 7.56667 C 3.73 g/m*3 5.26 C 12.63333 km/h
1335 12-04-2019 16:00:00 7.3 C 3.74 g/m*3 5.16 C 11.3 km/h
1336 12-04-2019 17:00:00 7.1 C 3.64 g/m*3 5.46 C 8.61667 km/h
1337 12-04-2019 18:00:00 6.83333 C 3.76 g/m*3 4.53 C 11.7 km/h
1338 12-04-2019 19:00:00 6.525 C 3.91 g/m*3 4.41 C 10.35833 km/h
1339 12-04-2019 20:00:00 6.06667 C 4 g/m*3 4.3 C 8.34167 km/h
1340 12-04-2019 21:00:00 5.55 C 4.25 g/m*3 4.34 C 6.04167 km/h
1341 12-04-2019 22:00:00 4.39167 C 4.34 g/m*3 4.39 C 0.26667 km/h
1342 12-04-2019 23:00:00 3.58333 C 4.25 g/m*3 3.58 C 0.13333 km/h
1343 13-04-2019 00:00:00 2.95 C 4.3 g/m*3 2.95 C 0.66667 km/h
1344 13-04-2019 01:00:00 2.875 C 4.31 g/m*3 2.88 C 2.13333 km/h
1345 13-04-2019 02:00:00 2.61667 C 4.39 g/m*3 2.62 C 1.6 km/h
1346 13-04-2019 03:00:00 2.30833 C 4.42 g/m*3 2.31 C 0.26667 km/h
1347 13-04-2019 04:00:00 2.6 C 4.48 g/m*3 2.6 C 2.275 km/h
1348 13-04-2019 05:00:00 2.54167 C 4.5 g/m*3 2.54 C 0.4 km/h
1349 13-04-2019 06:00:00 2.28333 C 4.56 g/m*3 2.28 C 0.93333 km/h
1350 13-04-2019 07:00:00 2.5 C 4.6 g/m*3 2.5 C 2 km/h
Sensor: Nr:Datum:Temp:Abs-Feuchte:Windchill:Wind:
Aussen-T/F 1351 13-04-2019 08:00:00 3.125 C 4.63 g/m*3 1.24 C 6.975 km/h
1352 13-04-2019 09:00:00 3.60833 C 4.54 g/m*3 1.68 C 7.375 km/h
1353 13-04-2019 10:00:00 4.75833 C 4.42 g/m*3 2.83 C 8.075 km/h
1354 13-04-2019 11:00:00 5.36667 C 4.25 g/m*3 3.66 C 7.65 km/h
1355 13-04-2019 12:00:00 5.96667 C 4.15 g/m*3 3.58 C 11.15 km/h
1356 13-04-2019 13:00:00 5.75833 C 4.51 g/m*3 3.55 C 10.075 km/h
1357 13-04-2019 14:00:00 4.69167 C 5.15 g/m*3 2.3 C 9.93333 km/h
1358 13-04-2019 15:00:00 5.61667 C 5.3 g/m*3 3.85 C 8.05 km/h
1359 13-04-2019 16:00:00 6.21667 C 5.06 g/m*3 3.51 C 13.29167 km/h
1360 13-04-2019 17:00:00 4.55 C 5.59 g/m*3 3.33 C 5.63333 km/h
1361 13-04-2019 18:00:00 6.29167 C 5.7 g/m*3 6.29 C 4.28333 km/h
1362 13-04-2019 19:00:00 5.59167 C 5.48 g/m*3 5.59 C 1.73333 km/h
1363 13-04-2019 20:00:00 4.63333 C 5.35 g/m*3 4.63 C 2.54167 km/h
1364 13-04-2019 21:00:00 3.075 C 5 g/m*3 3.08 C 0 km/h
1365 13-04-2019 22:00:00 1.56667 C 4.72 g/m*3 1.57 C 0 km/h
1366 13-04-2019 23:00:00 1.04167 C 4.68 g/m*3 1.04 C 0 km/h
1367 14-04-2019 00:00:00 0.475 C 4.56 g/m*3 0.48 C 0 km/h
1368 14-04-2019 01:00:00 0.45 C 4.63 g/m*3 0.45 C 0 km/h
1369 14-04-2019 02:00:00 1.23333 C 4.92 g/m*3 1.23 C 0.13333 km/h
1370 14-04-2019 03:00:00 1.575 C 5.02 g/m*3 1.58 C 0.53333 km/h
1371 14-04-2019 04:00:00 1.63333 C 5.04 g/m*3 1.63 C 0.26667 km/h
1372 14-04-2019 05:00:00 1.56667 C 5.05 g/m*3 1.57 C 0.66667 km/h
1373 14-04-2019 06:00:00 1.25833 C 4.97 g/m*3 1.26 C 0 km/h
1374 14-04-2019 07:00:00 1.225 C 5.01 g/m*3 1.23 C 0 km/h
1375 14-04-2019 08:00:00 1.5 C 5.11 g/m*3 1.5 C 0 km/h
Sensor: Nr:Datum:Temp:Abs-Feuchte:Windchill:Wind:
Aussen-T/F 1376 14-04-2019 09:00:00 2.66667 C 5.57 g/m*3 2.67 C 0.13333 km/h
1377 14-04-2019 10:00:00 4.15 C 6.06 g/m*3 4.15 C 4.69167 km/h
1378 14-04-2019 11:00:00 6.00833 C 6.14 g/m*3 4.71 C 6.575 km/h
1379 14-04-2019 12:00:00 7.71667 C 5.62 g/m*3 5.62 C 11.55833 km/h
1380 14-04-2019 13:00:00 8.99167 C 5.14 g/m*3 7.21 C 11.275 km/h
1381 14-04-2019 14:00:00 10.43333 C 5.05 g/m*3 8.63 C 13.56667 km/h
1382 14-04-2019 15:00:00 11.46667 C 4.99 g/m*3 11.47 C 12.89167 km/h
1383 14-04-2019 16:00:00 12.08333 C 4.9 g/m*3 12.08 C 12.63333 km/h
1384 14-04-2019 17:00:00 12.50833 C 4.81 g/m*3 12.51 C 13.69167 km/h
1385 14-04-2019 18:00:00 12.06667 C 4.87 g/m*3 12.07 C 12.625 km/h
1386 14-04-2019 19:00:00 10.99167 C 5.18 g/m*3 9.87 C 9.66667 km/h
1387 14-04-2019 20:00:00 8.25 C 5.41 g/m*3 8.25 C 2.40833 km/h
1388 14-04-2019 21:00:00 5.925 C 5.5 g/m*3 5.93 C 2.14167 km/h
1389 14-04-2019 22:00:00 4.61667 C 5.42 g/m*3 4.62 C 1.86667 km/h
1390 14-04-2019 23:00:00 4.06667 C 5.39 g/m*3 4.07 C 1.6 km/h
1391 15-04-2019 00:00:00 4.11667 C 5.51 g/m*3 4.12 C 0.93333 km/h
1392 15-04-2019 01:00:00 5.075 C 5.83 g/m*3 5.08 C 0.53333 km/h
1393 15-04-2019 02:00:00 5.64167 C 5.91 g/m*3 5.64 C 0.26667 km/h
1394 15-04-2019 03:00:00 4.81667 C 5.71 g/m*3 4.82 C 0.66667 km/h
1395 15-04-2019 04:00:00 4.78333 C 5.81 g/m*3 4.78 C 0 km/h
1396 15-04-2019 05:00:00 4.26667 C 5.68 g/m*3 4.27 C 0.4 km/h
1397 15-04-2019 06:00:00 4.48333 C 5.87 g/m*3 4.48 C 0 km/h
1398 15-04-2019 07:00:00 5.1 C 6.13 g/m*3 5.1 C 0 km/h
1399 15-04-2019 08:00:00 5.98333 C 6.38 g/m*3 5.98 C 2.14167 km/h
1400 15-04-2019 09:00:00 7.175 C 6.61 g/m*3 5.98 C 6.84167 km/h
Sensor: Nr:Datum:Temp:Abs-Feuchte:Windchill:Wind:
Aussen-T/F 1401 15-04-2019 10:00:00 8.34167 C 6.78 g/m*3 6.68 C 9.83333 km/h
1402 15-04-2019 11:00:00 10.15833 C 7.1 g/m*3 9.48 C 6.70833 km/h
1403 15-04-2019 12:00:00 12.475 C 7.23 g/m*3 12.48 C 13.025 km/h
1404 15-04-2019 13:00:00 14.29167 C 7.15 g/m*3 14.29 C 15.16667 km/h
1405 15-04-2019 14:00:00 16.025 C 7.25 g/m*3 16.02 C 14.23333 km/h
1406 15-04-2019 15:00:00 17.53333 C 6.95 g/m*3 17.53 C 16.63333 km/h
1407 15-04-2019 16:00:00 18.31667 C 7 g/m*3 18.32 C 14.75833 km/h
1408 15-04-2019 17:00:00 18.95833 C 6.68 g/m*3 18.96 C 11.7 km/h
1409 15-04-2019 18:00:00 19.13333 C 6.32 g/m*3 19.13 C 11.95833 km/h
1410 15-04-2019 19:00:00 18.19167 C 6.42 g/m*3 18.19 C 5.89167 km/h
1411 15-04-2019 20:00:00 14.2 C 6.99 g/m*3 14.2 C 3.6 km/h
1412 15-04-2019 21:00:00 11.575 C 6.81 g/m*3 11.58 C 3.6 km/h
1413 15-04-2019 22:00:00 10.24167 C 6.5 g/m*3 10.24 C 0.53333 km/h
1414 15-04-2019 23:00:00 9.24167 C 6.19 g/m*3 9.24 C 3.6 km/h
1415 16-04-2019 00:00:00 8.16667 C 5.98 g/m*3 8.17 C 4.66667 km/h
1416 16-04-2019 01:00:00 7.25833 C 5.82 g/m*3 7.26 C 2.93333 km/h
1417 16-04-2019 02:00:00 6.48333 C 5.69 g/m*3 6.48 C 2.53333 km/h
1418 16-04-2019 03:00:00 6.06667 C 5.55 g/m*3 6.07 C 2 km/h
1419 16-04-2019 04:00:00 5.83333 C 5.4 g/m*3 5.83 C 2.66667 km/h
1420 16-04-2019 05:00:00 5.50833 C 5.35 g/m*3 5.51 C 2.93333 km/h
1421 16-04-2019 06:00:00 4.99167 C 5.27 g/m*3 4.99 C 1.46667 km/h
1422 16-04-2019 07:00:00 3.91667 C 5.23 g/m*3 3.92 C 0 km/h
1423 16-04-2019 08:00:00 4.51667 C 5.48 g/m*3 4.52 C 0.4 km/h
1424 16-04-2019 09:00:00 6.2 C 5.94 g/m*3 6.2 C 0.66667 km/h
1425 16-04-2019 10:00:00 10.39167 C 6.13 g/m*3 10.39 C 3.875 km/h
Sensor: Nr:Datum:Temp:Abs-Feuchte:Windchill:Wind:
Aussen-T/F 1426 16-04-2019 11:00:00 13.69167 C 6.06 g/m*3 13.69 C 6.85833 km/h
1427 16-04-2019 12:00:00 15.59167 C 6.26 g/m*3 15.59 C 9.28333 km/h
1428 16-04-2019 13:00:00 17.025 C 6.68 g/m*3 17.02 C 9.41667 km/h
1429 16-04-2019 14:00:00 18.3 C 7.24 g/m*3 18.3 C 9.14167 km/h
1430 16-04-2019 15:00:00 19.025 C 7.4 g/m*3 19.02 C 8.45833 km/h
1431 16-04-2019 16:00:00 18.85833 C 7.5 g/m*3 18.86 C 7.24167 km/h
1432 16-04-2019 17:00:00 18.09167 C 8.11 g/m*3 18.09 C 16.36667 km/h
1433 16-04-2019 18:00:00 15.5 C 8.21 g/m*3 15.5 C 12.1 km/h
1434 16-04-2019 19:00:00 14.63333 C 8.39 g/m*3 14.63 C 2.55 km/h
1435 16-04-2019 20:00:00 13.25833 C 8.37 g/m*3 13.26 C 0.13333 km/h
1436 16-04-2019 21:00:00 12.29167 C 8.25 g/m*3 12.29 C 0.8 km/h
1437 16-04-2019 22:00:00 11.825 C 8.35 g/m*3 11.83 C 0.66667 km/h
1438 16-04-2019 23:00:00 11.475 C 8.29 g/m*3 11.48 C 0 km/h
1439 17-04-2019 00:00:00 11.01667 C 8.31 g/m*3 11.02 C 0 km/h
1440 17-04-2019 01:00:00 10.725 C 8.68 g/m*3 10.73 C 1.86667 km/h
1441 17-04-2019 02:00:00 10.25833 C 8.74 g/m*3 10.26 C 0.26667 km/h
1442 17-04-2019 03:00:00 9.91667 C 8.72 g/m*3 9.92 C 0 km/h
1443 17-04-2019 04:00:00 9.73333 C 8.71 g/m*3 9.73 C 0 km/h
1444 17-04-2019 05:00:00 9.60833 C 8.71 g/m*3 9.61 C 0 km/h
1445 17-04-2019 06:00:00 9.66667 C 8.77 g/m*3 9.67 C 0 km/h
1446 17-04-2019 07:00:00 10 C 9.02 g/m*3 10 C 0.4 km/h
1447 17-04-2019 08:00:00 10.64167 C 9.39 g/m*3 10.64 C 2.275 km/h
1448 17-04-2019 09:00:00 11.36667 C 9.81 g/m*3 11.37 C 3.2 km/h
1449 17-04-2019 10:00:00 12.30833 C 10.16 g/m*3 12.31 C 2.675 km/h
1450 17-04-2019 11:00:00 13.04167 C 10.32 g/m*3 13.04 C 4.80833 km/h
Sensor: Nr:Datum:Temp:Abs-Feuchte:Windchill:Wind:
Aussen-T/F 1451 17-04-2019 12:00:00 13.675 C 10.3 g/m*3 13.68 C 5.23333 km/h
1452 17-04-2019 13:00:00 14.88333 C 10.47 g/m*3 14.88 C 6.98333 km/h
1453 17-04-2019 14:00:00 16.18333 C 10.25 g/m*3 16.18 C 7.24167 km/h
1454 17-04-2019 15:00:00 17.19167 C 10.21 g/m*3 17.19 C 7.9 km/h
1455 17-04-2019 16:00:00 18.00833 C 9.67 g/m*3 18.01 C 13.01667 km/h
1456 17-04-2019 17:00:00 18.225 C 9.74 g/m*3 18.23 C 7.91667 km/h
1457 17-04-2019 18:00:00 18.16667 C 9.51 g/m*3 18.17 C 5.24167 km/h
1458 17-04-2019 19:00:00 16.38333 C 10.26 g/m*3 16.38 C 0 km/h
1459 17-04-2019 20:00:00 13.575 C 9.15 g/m*3 13.58 C 2.13333 km/h
1460 17-04-2019 21:00:00 11.65 C 8.36 g/m*3 11.65 C 3.2 km/h
1461 17-04-2019 22:00:00 10.36667 C 8 g/m*3 10.37 C 0 km/h
1462 17-04-2019 23:00:00 9.375 C 7.68 g/m*3 9.38 C 0 km/h
1463 18-04-2019 00:00:00 8.70833 C 7.58 g/m*3 8.71 C 0 km/h
1464 18-04-2019 01:00:00 8.75833 C 7.65 g/m*3 8.76 C 0 km/h
1465 18-04-2019 02:00:00 8.55 C 7.51 g/m*3 8.55 C 0 km/h
1466 18-04-2019 03:00:00 8.01667 C 7.15 g/m*3 8.02 C 0 km/h
1467 18-04-2019 04:00:00 7.16667 C 6.89 g/m*3 7.17 C 0 km/h
1468 18-04-2019 05:00:00 6.875 C 6.9 g/m*3 6.88 C 0 km/h
1469 18-04-2019 06:00:00 6.76667 C 6.9 g/m*3 6.77 C 0 km/h
1470 18-04-2019 07:00:00 7.44167 C 7.08 g/m*3 7.44 C 0 km/h
1471 18-04-2019 08:00:00 8.475 C 7.49 g/m*3 8.48 C 0 km/h
1472 18-04-2019 09:00:00 9.88333 C 7.78 g/m*3 9.88 C 2 km/h
1473 18-04-2019 10:00:00 12.95 C 8.06 g/m*3 12.95 C 7.38333 km/h
1474 18-04-2019 11:00:00 16.38333 C 7.92 g/m*3 16.38 C 10.60833 km/h
1475 18-04-2019 12:00:00 17.65833 C 7.83 g/m*3 17.66 C 12.20833 km/h
Sensor: Nr:Datum:Temp:Abs-Feuchte:Windchill:Wind:
Aussen-T/F 1476 18-04-2019 13:00:00 18.76667 C 7.61 g/m*3 18.77 C 12.76667 km/h
1477 18-04-2019 14:00:00 19.91667 C 7.29 g/m*3 19.92 C 15.03333 km/h
1478 18-04-2019 15:00:00 21.35 C 7.23 g/m*3 21.35 C 14.63333 km/h
1479 18-04-2019 16:00:00 22.525 C 6.83 g/m*3 22.53 C 13.7 km/h
1480 18-04-2019 17:00:00 23.375 C 6.88 g/m*3 23.38 C 12.35833 km/h
1481 18-04-2019 18:00:00 23.40833 C 6.89 g/m*3 23.41 C 10.48333 km/h
1482 18-04-2019 19:00:00 22.28333 C 7.18 g/m*3 22.28 C 6.04167 km/h
1483 18-04-2019 20:00:00 18.05833 C 8.09 g/m*3 18.06 C 4 km/h
1484 18-04-2019 21:00:00 15.33333 C 7.77 g/m*3 15.33 C 4.8 km/h
1485 18-04-2019 22:00:00 14.23333 C 7.54 g/m*3 14.23 C 4.8 km/h
1486 18-04-2019 23:00:00 13.08333 C 7.44 g/m*3 13.08 C 2.4 km/h
1487 19-04-2019 00:00:00 11.55833 C 7.45 g/m*3 11.56 C 0 km/h
1488 19-04-2019 01:00:00 10.70833 C 7.37 g/m*3 10.71 C 0.26667 km/h
1489 19-04-2019 02:00:00 11.01667 C 7.17 g/m*3 11.02 C 3.33333 km/h
1490 19-04-2019 03:00:00 10.29167 C 7.05 g/m*3 10.29 C 1.86667 km/h
1491 19-04-2019 04:00:00 9.61667 C 6.99 g/m*3 9.62 C 0.13333 km/h
1492 19-04-2019 05:00:00 8.24167 C 6.84 g/m*3 8.24 C 0 km/h
1493 19-04-2019 06:00:00 7.04167 C 6.51 g/m*3 7.04 C 0 km/h
1494 19-04-2019 07:00:00 6.65 C 6.58 g/m*3 6.65 C 0 km/h
1495 19-04-2019 08:00:00 6.85 C 6.8 g/m*3 6.85 C 0 km/h
1496 19-04-2019 09:00:00 8.975 C 7.61 g/m*3 8.98 C 0.66667 km/h
1497 19-04-2019 10:00:00 13.525 C 7.82 g/m*3 13.53 C 7.66667 km/h
1498 19-04-2019 11:00:00 17.95833 C 7.47 g/m*3 17.96 C 14.1 km/h
1499 19-04-2019 12:00:00 19.9 C 7.13 g/m*3 19.9 C 13.7 km/h
1500 19-04-2019 13:00:00 21.36667 C 6.41 g/m*3 21.37 C 12.35 km/h
Sensor: Nr:Datum:Temp:Abs-Feuchte:Windchill:Wind:
Aussen-T/F 1501 19-04-2019 14:00:00 22.44167 C 6.24 g/m*3 22.44 C 15.43333 km/h
1502 19-04-2019 15:00:00 23.675 C 5.75 g/m*3 23.68 C 14.63333 km/h
1503 19-04-2019 16:00:00 24.89167 C 5.51 g/m*3 24.89 C 13.825 km/h
1504 19-04-2019 17:00:00 25.28333 C 5.26 g/m*3 25.28 C 12.76667 km/h
1505 19-04-2019 18:00:00 25.50833 C 5.29 g/m*3 25.51 C 9.83333 km/h
1506 19-04-2019 19:00:00 24.25 C 5.77 g/m*3 24.25 C 4.95833 km/h
1507 19-04-2019 20:00:00 19.21667 C 6.74 g/m*3 19.22 C 4.66667 km/h
1508 19-04-2019 21:00:00 15.875 C 6.68 g/m*3 15.88 C 2.93333 km/h
1509 19-04-2019 22:00:00 13.33333 C 6.74 g/m*3 13.33 C 0.8 km/h
1510 19-04-2019 23:00:00 11.73333 C 6.73 g/m*3 11.73 C 1.2 km/h
1511 20-04-2019 00:00:00 10.40833 C 6.81 g/m*3 10.41 C 0.4 km/h
1512 20-04-2019 01:00:00 9.45833 C 6.91 g/m*3 9.46 C 0 km/h
1513 20-04-2019 02:00:00 8.55833 C 6.93 g/m*3 8.56 C 0 km/h
1514 20-04-2019 03:00:00 7.64167 C 6.79 g/m*3 7.64 C 0 km/h
1515 20-04-2019 04:00:00 6.85 C 6.68 g/m*3 6.85 C 0 km/h
1516 20-04-2019 05:00:00 6.23333 C 6.58 g/m*3 6.23 C 0 km/h
1517 20-04-2019 06:00:00 5.775 C 6.48 g/m*3 5.78 C 0 km/h
1518 20-04-2019 07:00:00 5.85833 C 6.61 g/m*3 5.86 C 0.13333 km/h
1519 20-04-2019 08:00:00 6.48333 C 6.92 g/m*3 6.48 C 0 km/h
1520 20-04-2019 09:00:00 8.16667 C 7.71 g/m*3 8.17 C 0 km/h
1521 20-04-2019 10:00:00 11.68333 C 8.74 g/m*3 11.68 C 1.33333 km/h
1522 20-04-2019 11:00:00 16.725 C 9.1 g/m*3 16.73 C 3.46667 km/h
1523 20-04-2019 12:00:00 20.225 C 8.22 g/m*3 20.23 C 6.7 km/h
1524 20-04-2019 13:00:00 22.05 C 7.07 g/m*3 22.05 C 10.61667 km/h
1525 20-04-2019 14:00:00 23.275 C 6.04 g/m*3 23.28 C 11.95 km/h
Sensor: Nr:Datum:Temp:Abs-Feuchte:Windchill:Wind:
Aussen-T/F 1526 20-04-2019 15:00:00 24.25833 C 6.13 g/m*3 24.26 C 11.96667 km/h
1527 20-04-2019 16:00:00 25.21667 C 6.21 g/m*3 25.22 C 12.36667 km/h
1528 20-04-2019 17:00:00 25.30833 C 5.89 g/m*3 25.31 C 14.1 km/h
1529 20-04-2019 18:00:00 25.39167 C 5.55 g/m*3 25.39 C 10.89167 km/h
1530 20-04-2019 19:00:00 24.575 C 6.03 g/m*3 24.58 C 5.5 km/h
1531 20-04-2019 20:00:00 19.875 C 7.41 g/m*3 19.88 C 3.6 km/h
1532 20-04-2019 21:00:00 16.175 C 7.52 g/m*3 16.18 C 0.66667 km/h
1533 20-04-2019 22:00:00 13.81667 C 7.54 g/m*3 13.82 C 0 km/h
1534 20-04-2019 23:00:00 12.90833 C 7.4 g/m*3 12.91 C 0 km/h
1535 21-04-2019 00:00:00 12.84167 C 7.27 g/m*3 12.84 C 0 km/h
1536 21-04-2019 01:00:00 12.48333 C 7.18 g/m*3 12.48 C 0 km/h
1537 21-04-2019 02:00:00 11.36667 C 7.19 g/m*3 11.37 C 0 km/h
1538 21-04-2019 03:00:00 10.81667 C 7.23 g/m*3 10.82 C 0 km/h
1539 21-04-2019 04:00:00 9.23333 C 7.01 g/m*3 9.23 C 0 km/h
1540 21-04-2019 05:00:00 7.375 C 6.74 g/m*3 7.38 C 0 km/h
1541 21-04-2019 06:00:00 6.45 C 6.56 g/m*3 6.45 C 0 km/h
1542 21-04-2019 07:00:00 6.68333 C 6.77 g/m*3 6.68 C 0 km/h
1543 21-04-2019 08:00:00 7.16667 C 7.04 g/m*3 7.17 C 0 km/h
1544 21-04-2019 09:00:00 8.675 C 7.73 g/m*3 8.68 C 0 km/h
1545 21-04-2019 10:00:00 11.98333 C 8.67 g/m*3 11.98 C 0 km/h
1546 21-04-2019 11:00:00 16.48333 C 8.88 g/m*3 16.48 C 1.2 km/h
1547 21-04-2019 12:00:00 19.65833 C 7.65 g/m*3 19.66 C 5.08333 km/h
1548 21-04-2019 13:00:00 21.525 C 6.63 g/m*3 21.53 C 7.65833 km/h
1549 21-04-2019 14:00:00 22.98333 C 6.16 g/m*3 22.98 C 8.2 km/h
1550 21-04-2019 15:00:00 24.46667 C 6.78 g/m*3 24.47 C 9.81667 km/h
Sensor: Nr:Datum:Temp:Abs-Feuchte:Windchill:Wind:
Aussen-T/F 1551 21-04-2019 16:00:00 25.73333 C 6.32 g/m*3 25.73 C 11.41667 km/h
1552 21-04-2019 17:00:00 25.94167 C 5.95 g/m*3 25.94 C 11.825 km/h
1553 21-04-2019 18:00:00 26.13333 C 5.97 g/m*3 26.13 C 7.50833 km/h
1554 21-04-2019 19:00:00 24.58333 C 6.37 g/m*3 24.58 C 4.95 km/h
1555 21-04-2019 20:00:00 19.69167 C 6.89 g/m*3 19.69 C 3.6 km/h
1556 21-04-2019 21:00:00 16.725 C 7.21 g/m*3 16.73 C 2.26667 km/h
1557 21-04-2019 22:00:00 13.85833 C 7.54 g/m*3 13.86 C 0 km/h
1558 21-04-2019 23:00:00 12.21667 C 7.25 g/m*3 12.22 C 0 km/h
1559 22-04-2019 00:00:00 10.54167 C 7.03 g/m*3 10.54 C 0 km/h
1560 22-04-2019 01:00:00 9.24167 C 6.98 g/m*3 9.24 C 0 km/h
1561 22-04-2019 02:00:00 8.2 C 6.91 g/m*3 8.2 C 0.13333 km/h
1562 22-04-2019 03:00:00 7.56667 C 6.83 g/m*3 7.57 C 0.13333 km/h
1563 22-04-2019 04:00:00 6.64167 C 6.65 g/m*3 6.64 C 0 km/h
1564 22-04-2019 05:00:00 5.89167 C 6.51 g/m*3 5.89 C 0 km/h
1565 22-04-2019 06:00:00 5.475 C 6.43 g/m*3 5.48 C 0 km/h
1566 22-04-2019 07:00:00 5.74167 C 6.63 g/m*3 5.74 C 0 km/h
1567 22-04-2019 08:00:00 6.54167 C 6.99 g/m*3 6.54 C 0 km/h
1568 22-04-2019 09:00:00 8.40833 C 7.81 g/m*3 8.41 C 0.8 km/h
1569 22-04-2019 10:00:00 12.55 C 8.39 g/m*3 12.55 C 3.075 km/h
1570 22-04-2019 11:00:00 17.96667 C 7.52 g/m*3 17.97 C 11.825 km/h
1571 22-04-2019 12:00:00 20.89167 C 6.96 g/m*3 20.89 C 12.76667 km/h
1572 22-04-2019 13:00:00 22.65 C 5.99 g/m*3 22.65 C 14.36667 km/h
1573 22-04-2019 14:00:00 23.45 C 6.13 g/m*3 23.45 C 15.3 km/h
1574 22-04-2019 15:00:00 24.375 C 6.32 g/m*3 24.38 C 15.03333 km/h
1575 22-04-2019 16:00:00 25.49167 C 6.11 g/m*3 25.49 C 15.83333 km/h
Sensor: Nr:Datum:Temp:Abs-Feuchte:Windchill:Wind:
Aussen-T/F 1576 22-04-2019 17:00:00 25.70833 C 5.93 g/m*3 25.71 C 12.9 km/h
1577 22-04-2019 18:00:00 24.4 C 6.25 g/m*3 24.4 C 4.55833 km/h
1578 22-04-2019 19:00:00 21.4 C 7.8 g/m*3 21.4 C 2 km/h
1579 22-04-2019 20:00:00 19.55 C 7.24 g/m*3 19.55 C 5.50833 km/h
1580 22-04-2019 21:00:00 16.975 C 7.06 g/m*3 16.98 C 3.46667 km/h
1581 22-04-2019 22:00:00 15.15 C 6.63 g/m*3 15.15 C 3.74167 km/h
1582 22-04-2019 23:00:00 15.04167 C 6.34 g/m*3 15.04 C 5.36667 km/h
1583 23-04-2019 00:00:00 13.175 C 6.4 g/m*3 13.18 C 2.13333 km/h
1584 23-04-2019 01:00:00 11.55 C 6.45 g/m*3 11.55 C 0.53333 km/h
1585 23-04-2019 02:00:00 10.31667 C 6.42 g/m*3 10.32 C 0.66667 km/h
1586 23-04-2019 03:00:00 9.7 C 6.31 g/m*3 9.7 C 0 km/h
1587 23-04-2019 04:00:00 9.15833 C 6.39 g/m*3 9.16 C 0 km/h
1588 23-04-2019 05:00:00 8.83333 C 6.38 g/m*3 8.83 C 0 km/h
1589 23-04-2019 06:00:00 8.31667 C 6.41 g/m*3 8.32 C 0 km/h
1590 23-04-2019 07:00:00 8.99167 C 6.81 g/m*3 8.99 C 0 km/h
1591 23-04-2019 08:00:00 10.325 C 7.31 g/m*3 10.33 C 0 km/h
1592 23-04-2019 09:00:00 12.53333 C 7.04 g/m*3 12.53 C 7.94167 km/h
1593 23-04-2019 10:00:00 14.025 C 7.28 g/m*3 14.03 C 9.95833 km/h
1594 23-04-2019 11:00:00 15.475 C 7.58 g/m*3 15.48 C 12.76667 km/h
1595 23-04-2019 12:00:00 17.04167 C 8.01 g/m*3 17.04 C 11.56667 km/h
1596 23-04-2019 13:00:00 18.89167 C 8.29 g/m*3 18.89 C 14.36667 km/h
1597 23-04-2019 14:00:00 20.44167 C 8.5 g/m*3 20.44 C 13.16667 km/h
1598 23-04-2019 15:00:00 21.76667 C 8.55 g/m*3 21.77 C 14.76667 km/h
1599 23-04-2019 16:00:00 23.1 C 8.79 g/m*3 23.1 C 10.875 km/h
1600 23-04-2019 17:00:00 23.4 C 8.97 g/m*3 23.4 C 8.475 km/h
Sensor: Nr:Datum:Temp:Abs-Feuchte:Windchill:Wind:
Aussen-T/F 1601 23-04-2019 18:00:00 21.775 C 8.86 g/m*3 21.78 C 7.91667 km/h
1602 23-04-2019 19:00:00 20.31667 C 9.21 g/m*3 20.32 C 2.93333 km/h
1603 23-04-2019 20:00:00 17.975 C 9.41 g/m*3 17.98 C 0.53333 km/h
1604 23-04-2019 21:00:00 16.08333 C 9.45 g/m*3 16.08 C 0.13333 km/h
1605 23-04-2019 22:00:00 15.54167 C 9.44 g/m*3 15.54 C 0 km/h
1606 23-04-2019 23:00:00 15.08333 C 9.3 g/m*3 15.08 C 0 km/h
1607 24-04-2019 00:00:00 14.425 C 9.31 g/m*3 14.43 C 0 km/h
1608 24-04-2019 01:00:00 12.65833 C 8.71 g/m*3 12.66 C 0 km/h
1609 24-04-2019 02:00:00 11.325 C 8.48 g/m*3 11.33 C 0 km/h
1610 24-04-2019 03:00:00 10.39167 C 8.33 g/m*3 10.39 C 0 km/h
1611 24-04-2019 04:00:00 9.89167 C 8.28 g/m*3 9.89 C 0 km/h
1612 24-04-2019 05:00:00 9.35 C 8.12 g/m*3 9.35 C 0 km/h
1613 24-04-2019 06:00:00 9.1 C 8.13 g/m*3 9.1 C 0.26667 km/h
1614 24-04-2019 07:00:00 9.66667 C 8.51 g/m*3 9.67 C 0 km/h
1615 24-04-2019 08:00:00 11.55833 C 9.01 g/m*3 11.56 C 0 km/h
1616 24-04-2019 09:00:00 13.39167 C 9.57 g/m*3 13.39 C 0 km/h
1617 24-04-2019 10:00:00 16.14167 C 10.2 g/m*3 16.14 C 0 km/h
1618 24-04-2019 11:00:00 18.73333 C 10.71 g/m*3 18.73 C 1.74167 km/h
1619 24-04-2019 12:00:00 21.425 C 9.5 g/m*3 21.43 C 9.14167 km/h
1620 24-04-2019 13:00:00 22.38333 C 9.03 g/m*3 22.38 C 9.14167 km/h
1621 24-04-2019 14:00:00 23.45 C 9.01 g/m*3 23.45 C 6.05 km/h
1622 24-04-2019 15:00:00 24.80833 C 8.88 g/m*3 24.81 C 6.56667 km/h
1623 24-04-2019 16:00:00 25.20833 C 9.14 g/m*3 25.21 C 6.15833 km/h
1624 24-04-2019 17:00:00 25.675 C 9.78 g/m*3 25.68 C 6.16667 km/h
1625 24-04-2019 18:00:00 19.91667 C 9.77 g/m*3 19.92 C 24.66667 km/h
Sensor: Nr:Datum:Temp:Abs-Feuchte:Windchill:Wind:
Aussen-T/F 1626 24-04-2019 19:00:00 13.875 C 9.24 g/m*3 13.88 C 28.94167 km/h
1627 24-04-2019 20:00:00 11.34167 C 8.8 g/m*3 11.34 C 16.225 km/h
1628 24-04-2019 21:00:00 9.85 C 8.55 g/m*3 9.85 C 1.86667 km/h
1629 24-04-2019 22:00:00 9.16667 C 8.33 g/m*3 9.17 C 0 km/h
1630 24-04-2019 23:00:00 9.00833 C 8.37 g/m*3 9.01 C 0 km/h
1631 25-04-2019 00:00:00 8.85833 C 8.3 g/m*3 8.86 C 0.4 km/h
1632 25-04-2019 01:00:00 8.125 C 7.92 g/m*3 8.13 C 0.66667 km/h
1633 25-04-2019 02:00:00 7.45 C 7.6 g/m*3 7.45 C 0 km/h
1634 25-04-2019 03:00:00 7.2 C 7.54 g/m*3 7.2 C 0 km/h
1635 25-04-2019 04:00:00 7.05833 C 7.47 g/m*3 7.06 C 0 km/h
1636 25-04-2019 05:00:00 7.10833 C 7.49 g/m*3 7.11 C 0 km/h
1637 25-04-2019 06:00:00 7.05833 C 7.53 g/m*3 7.06 C 0.4 km/h
1638 25-04-2019 07:00:00 7.85833 C 7.95 g/m*3 7.86 C 0.53333 km/h
1639 25-04-2019 08:00:00 9.16667 C 8.64 g/m*3 9.17 C 3.06667 km/h
1640 25-04-2019 09:00:00 10.63333 C 9.49 g/m*3 10.63 C 0.13333 km/h
1641 25-04-2019 10:00:00 11.54167 C 9.93 g/m*3 11.54 C 1.75 km/h
1642 25-04-2019 11:00:00 14.14167 C 9.69 g/m*3 14.14 C 8.06667 km/h
1643 25-04-2019 12:00:00 16.96667 C 9.24 g/m*3 16.97 C 8.60833 km/h
1644 25-04-2019 13:00:00 18.6 C 9.35 g/m*3 18.6 C 8.61667 km/h
1645 25-04-2019 14:00:00 20.25833 C 9.3 g/m*3 20.26 C 7.39167 km/h
1646 25-04-2019 15:00:00 21.525 C 9.32 g/m*3 21.53 C 8.19167 km/h
1647 25-04-2019 16:00:00 22.125 C 10.75 g/m*3 22.13 C 3.21667 km/h
1648 25-04-2019 17:00:00 21.35 C 11.08 g/m*3 21.35 C 6.725 km/h
1649 25-04-2019 18:00:00 20.55833 C 9.8 g/m*3 20.56 C 13.95833 km/h
1650 25-04-2019 19:00:00 16.88333 C 8.82 g/m*3 16.88 C 17.45 km/h
Sensor: Nr:Datum:Temp:Abs-Feuchte:Windchill:Wind:
Aussen-T/F 1651 25-04-2019 20:00:00 15.125 C 8.62 g/m*3 15.13 C 12.61667 km/h
1652 25-04-2019 21:00:00 13.85 C 8.64 g/m*3 13.85 C 7.125 km/h
1653 25-04-2019 22:00:00 13.04167 C 8.49 g/m*3 13.04 C 2.4 km/h
1654 25-04-2019 23:00:00 12.425 C 8.57 g/m*3 12.43 C 0 km/h
1655 26-04-2019 00:00:00 11.39167 C 8.43 g/m*3 11.39 C 0 km/h
1656 26-04-2019 01:00:00 10.93333 C 8.5 g/m*3 10.93 C 0 km/h
1657 26-04-2019 02:00:00 11.00833 C 8.44 g/m*3 11.01 C 0 km/h
1658 26-04-2019 03:00:00 10.98333 C 8.31 g/m*3 10.98 C 0 km/h
1659 26-04-2019 04:00:00 10.8 C 8.27 g/m*3 10.8 C 2.80833 km/h
1660 26-04-2019 05:00:00 10.4 C 8.38 g/m*3 10.4 C 2.80833 km/h
1661 26-04-2019 06:00:00 9.625 C 8.44 g/m*3 9.63 C 0.93333 km/h
1662 26-04-2019 07:00:00 9.5 C 8.55 g/m*3 9.5 C 0.93333 km/h
1663 26-04-2019 08:00:00 9.50833 C 8.62 g/m*3 9.51 C 0.8 km/h
1664 26-04-2019 09:00:00 9.99167 C 8.92 g/m*3 9.99 C 3.08333 km/h
1665 26-04-2019 10:00:00 10.275 C 9.08 g/m*3 10.28 C 3.48333 km/h
1666 26-04-2019 11:00:00 10.88333 C 9.29 g/m*3 10.88 C 4.55833 km/h
1667 26-04-2019 12:00:00 11.95833 C 9.42 g/m*3 11.96 C 8.73333 km/h
1668 26-04-2019 13:00:00 13.00833 C 9.36 g/m*3 13.01 C 9.68333 km/h
1669 26-04-2019 14:00:00 13.53333 C 9.16 g/m*3 13.53 C 10.9 km/h
1670 26-04-2019 15:00:00 13.525 C 8.98 g/m*3 13.53 C 9 km/h
1671 26-04-2019 16:00:00 15.06667 C 9.1 g/m*3 15.07 C 8.74167 km/h
1672 26-04-2019 17:00:00 15.74167 C 8.85 g/m*3 15.74 C 6.025 km/h
1673 26-04-2019 18:00:00 16.925 C 8.93 g/m*3 16.93 C 3.60833 km/h
1674 26-04-2019 19:00:00 15.84167 C 9.71 g/m*3 15.84 C 0 km/h
1675 26-04-2019 20:00:00 12.575 C 8.92 g/m*3 12.58 C 7.89167 km/h
Sensor: Nr:Datum:Temp:Abs-Feuchte:Windchill:Wind:
Aussen-T/F 1676 26-04-2019 21:00:00 10.89167 C 8.66 g/m*3 10.89 C 2.13333 km/h
1677 26-04-2019 22:00:00 10.45833 C 8.59 g/m*3 10.46 C 0 km/h
1678 26-04-2019 23:00:00 10.00833 C 8.49 g/m*3 10.01 C 0 km/h
1679 27-04-2019 00:00:00 9.20833 C 8.21 g/m*3 9.21 C 0 km/h
1680 27-04-2019 01:00:00 9.14167 C 8.27 g/m*3 9.14 C 0 km/h
1681 27-04-2019 02:00:00 8.575 C 7.99 g/m*3 8.57 C 0.26667 km/h
1682 27-04-2019 03:00:00 7.875 C 7.71 g/m*3 7.88 C 0 km/h
1683 27-04-2019 04:00:00 7.18333 C 7.39 g/m*3 7.18 C 0 km/h
1684 27-04-2019 05:00:00 6.64167 C 7.18 g/m*3 6.64 C 0 km/h
1685 27-04-2019 06:00:00 6.425 C 7.12 g/m*3 6.43 C 0 km/h
1686 27-04-2019 07:00:00 7.15 C 7.51 g/m*3 7.15 C 0 km/h
1687 27-04-2019 08:00:00 8.66667 C 8.36 g/m*3 8.67 C 0 km/h
1688 27-04-2019 09:00:00 10.16667 C 9.01 g/m*3 10.17 C 1.33333 km/h
1689 27-04-2019 10:00:00 11.30833 C 8.95 g/m*3 11.31 C 3.075 km/h
1690 27-04-2019 11:00:00 12.64167 C 8.49 g/m*3 12.64 C 11.14167 km/h
1691 27-04-2019 12:00:00 12.69167 C 9.08 g/m*3 12.69 C 9.29167 km/h
1692 27-04-2019 13:00:00 13.025 C 8.85 g/m*3 13.03 C 14.90833 km/h
1693 27-04-2019 14:00:00 9.525 C 8.21 g/m*3 8.62 C 7.24167 km/h
1694 27-04-2019 15:00:00 10.46667 C 8.71 g/m*3 10.47 C 3.475 km/h
1695 27-04-2019 16:00:00 11.75 C 8.58 g/m*3 11.75 C 6.85 km/h
1696 27-04-2019 17:00:00 12.35 C 8.56 g/m*3 12.35 C 6.84167 km/h
1697 27-04-2019 18:00:00 11.34167 C 8.22 g/m*3 11.34 C 5.89167 km/h
1698 27-04-2019 19:00:00 9.55833 C 8.23 g/m*3 8.92 C 6.16667 km/h
1699 27-04-2019 20:00:00 7.725 C 7.49 g/m*3 7.73 C 3.33333 km/h
1700 27-04-2019 21:00:00 7.3 C 7.41 g/m*3 7.3 C 0.8 km/h
Sensor: Nr:Datum:Temp:Abs-Feuchte:Windchill:Wind:
Aussen-T/F 1701 27-04-2019 22:00:00 6.76667 C 7.22 g/m*3 6.77 C 1.33333 km/h
1702 27-04-2019 23:00:00 6.84167 C 7.28 g/m*3 6.84 C 4.55833 km/h
1703 28-04-2019 00:00:00 6.86667 C 7.2 g/m*3 6.87 C 4.15 km/h
1704 28-04-2019 01:00:00 6.875 C 7.09 g/m*3 5.87 C 6.025 km/h
1705 28-04-2019 02:00:00 6.43333 C 6.8 g/m*3 5.45 C 5.76667 km/h
1706 28-04-2019 03:00:00 6.19167 C 6.63 g/m*3 5 C 6.30833 km/h
1707 28-04-2019 04:00:00 6.41667 C 6.58 g/m*3 4.26 C 10.475 km/h
1708 28-04-2019 05:00:00 6.26667 C 6.55 g/m*3 4.13 C 10.20833 km/h
1709 28-04-2019 06:00:00 6.2 C 6.53 g/m*3 4.7 C 7.39167 km/h
1710 28-04-2019 07:00:00 6.80833 C 6.75 g/m*3 5.45 C 7.25833 km/h
1711 28-04-2019 08:00:00 7.575 C 6.92 g/m*3 6.24 C 7.65833 km/h
1712 28-04-2019 09:00:00 7.93333 C 7.13 g/m*3 7.93 C 4.28333 km/h
1713 28-04-2019 10:00:00 8.90833 C 7.27 g/m*3 8.18 C 6.15 km/h
1714 28-04-2019 11:00:00 10 C 6.98 g/m*3 8.42 C 11.3 km/h
1715 28-04-2019 12:00:00 10.325 C 6.77 g/m*3 9.12 C 9.39167 km/h
1716 28-04-2019 13:00:00 11.3 C 6.83 g/m*3 11.3 C 8.61667 km/h
1717 28-04-2019 14:00:00 12.35 C 7.24 g/m*3 12.35 C 7.125 km/h
1718 28-04-2019 15:00:00 11.50833 C 7.58 g/m*3 11.51 C 6.56667 km/h
1719 28-04-2019 16:00:00 10.375 C 8.07 g/m*3 10.11 C 5.23333 km/h
1720 28-04-2019 17:00:00 11.44167 C 8.14 g/m*3 11.44 C 2.54167 km/h
1721 28-04-2019 18:00:00 11.48333 C 7.7 g/m*3 11.48 C 6.73333 km/h
1722 28-04-2019 19:00:00 10.86667 C 7.54 g/m*3 10.24 C 6.975 km/h
1723 28-04-2019 20:00:00 9.65 C 7.37 g/m*3 9.65 C 1.475 km/h
1724 28-04-2019 21:00:00 7.30833 C 6.87 g/m*3 7.31 C 0 km/h
1725 28-04-2019 22:00:00 5.96667 C 6.55 g/m*3 5.97 C 0 km/h
Sensor: Nr:Datum:Temp:Abs-Feuchte:Windchill:Wind:
Aussen-T/F 1726 28-04-2019 23:00:00 5 C 6.27 g/m*3 5 C 0 km/h
1727 29-04-2019 00:00:00 4.41667 C 6.12 g/m*3 4.42 C 0 km/h
1728 29-04-2019 01:00:00 4.03333 C 5.99 g/m*3 4.03 C 0 km/h
1729 29-04-2019 02:00:00 3.425 C 5.8 g/m*3 3.43 C 0 km/h
1730 29-04-2019 03:00:00 3.675 C 5.91 g/m*3 3.68 C 0 km/h
1731 29-04-2019 04:00:00 3.54167 C 5.89 g/m*3 3.54 C 0 km/h
1732 29-04-2019 05:00:00 3.35833 C 5.85 g/m*3 3.36 C 4.26667 km/h
1733 29-04-2019 06:00:00 3.15 C 5.77 g/m*3 3.15 C 1.46667 km/h
1734 29-04-2019 07:00:00 3.225 C 5.79 g/m*3 3.23 C 1.73333 km/h
1735 29-04-2019 08:00:00 3.85833 C 6.07 g/m*3 3.86 C 4.26667 km/h
1736 29-04-2019 09:00:00 4.99167 C 6.59 g/m*3 4.99 C 4.13333 km/h
1737 29-04-2019 10:00:00 6.51667 C 7.15 g/m*3 6.52 C 2.4 km/h
1738 29-04-2019 11:00:00 8.7 C 7.85 g/m*3 8.7 C 2.4 km/h
1739 29-04-2019 12:00:00 11.925 C 8.18 g/m*3 11.93 C 5.48333 km/h
1740 29-04-2019 13:00:00 13.975 C 7.63 g/m*3 13.98 C 9.025 km/h
1741 29-04-2019 14:00:00 14.83333 C 7.25 g/m*3 14.83 C 9.69167 km/h
1742 29-04-2019 15:00:00 15.29167 C 7.35 g/m*3 15.29 C 9.68333 km/h
1743 29-04-2019 16:00:00 15.31667 C 7.23 g/m*3 15.32 C 11.43333 km/h
1744 29-04-2019 17:00:00 15.31667 C 7.29 g/m*3 15.32 C 11.7 km/h
1745 29-04-2019 18:00:00 13.69167 C 8.13 g/m*3 13.69 C 7.26667 km/h
1746 29-04-2019 19:00:00 11.075 C 8.86 g/m*3 11.08 C 1.2 km/h
1747 29-04-2019 20:00:00 10.25 C 8.74 g/m*3 10.25 C 0 km/h
1748 29-04-2019 21:00:00 10.13333 C 8.75 g/m*3 10.13 C 0.4 km/h
1749 29-04-2019 22:00:00 10.25833 C 8.76 g/m*3 10.26 C 2.675 km/h
1750 29-04-2019 23:00:00 10.65833 C 8.78 g/m*3 10.66 C 1.73333 km/h
Sensor: Nr:Datum:Temp:Abs-Feuchte:Windchill:Wind:
Aussen-T/F 1751 30-04-2019 00:00:00 10.98333 C 8.73 g/m*3 10.98 C 3.48333 km/h
1752 30-04-2019 01:00:00 11.16667 C 8.72 g/m*3 11.17 C 5.09167 km/h
1753 30-04-2019 02:00:00 10.85 C 8.73 g/m*3 10.85 C 4.01667 km/h
1754 30-04-2019 03:00:00 10.59167 C 8.68 g/m*3 10.59 C 2.94167 km/h
1755 30-04-2019 04:00:00 10.30833 C 8.52 g/m*3 10.31 C 2.275 km/h
1756 30-04-2019 05:00:00 10.18333 C 8.37 g/m*3 9.9 C 5.225 km/h
1757 30-04-2019 06:00:00 10.05833 C 8.38 g/m*3 10.06 C 3.89167 km/h
1758 30-04-2019 07:00:00 10.075 C 8.38 g/m*3 9.62 C 5.775 km/h
1759 30-04-2019 08:00:00 10.725 C 8.26 g/m*3 9.87 C 7.925 km/h
1760 30-04-2019 09:00:00 11.51667 C 7.94 g/m*3 11.52 C 10.225 km/h
1761 30-04-2019 10:00:00 12.61667 C 7.76 g/m*3 12.62 C 10.76667 km/h
1762 30-04-2019 11:00:00 13.60833 C 7.39 g/m*3 13.61 C 10.34167 km/h
1763 30-04-2019 12:00:00 14.5 C 7.26 g/m*3 14.5 C 12.225 km/h
1764 30-04-2019 13:00:00 15.65833 C 7.11 g/m*3 15.66 C 11.29167 km/h
1765 30-04-2019 14:00:00 16.86667 C 6.96 g/m*3 16.87 C 10.35 km/h
1766 30-04-2019 15:00:00 18.59167 C 7.21 g/m*3 18.59 C 12.9 km/h
1767 30-04-2019 16:00:00 20.025 C 7.07 g/m*3 20.02 C 12.23333 km/h
1768 30-04-2019 17:00:00 20.46667 C 7.37 g/m*3 20.47 C 11.425 km/h
1769 30-04-2019 18:00:00 20.24167 C 7.51 g/m*3 20.24 C 10.075 km/h
1770 30-04-2019 19:00:00 18.90833 C 7.92 g/m*3 18.91 C 10.09167 km/h
1771 30-04-2019 20:00:00 16.95833 C 8.22 g/m*3 16.96 C 6.96667 km/h
1772 30-04-2019 21:00:00 15.48333 C 8.56 g/m*3 15.48 C 5.625 km/h
1773 30-04-2019 22:00:00 14.225 C 8.66 g/m*3 14.23 C 7.925 km/h
1774 30-04-2019 23:00:00 12.65833 C 8.65 g/m*3 12.66 C 2.81667 km/h
1775 01-05-2019 00:00:00 11.25833 C 8.45 g/m*3 11.26 C 0.8 km/h
Sensor: Nr:Datum:Temp:Abs-Feuchte:Windchill:Wind:
Aussen-T/F 1776 01-05-2019 01:00:00 10.36667 C 8.22 g/m*3 10.37 C 0.66667 km/h
1777 01-05-2019 02:00:00 9.26667 C 7.91 g/m*3 9.27 C 0 km/h
1778 01-05-2019 03:00:00 8.45833 C 7.73 g/m*3 8.46 C 0.13333 km/h
1779 01-05-2019 04:00:00 8.075 C 7.62 g/m*3 8.07 C 0.4 km/h
1780 01-05-2019 05:00:00 6.95833 C 7.13 g/m*3 6.96 C 0 km/h
1781 01-05-2019 06:00:00 6.275 C 6.92 g/m*3 6.28 C 0.13333 km/h
1782 01-05-2019 07:00:00 6.79167 C 7.26 g/m*3 6.79 C 0.53333 km/h
1783 01-05-2019 08:00:00 7.9 C 7.79 g/m*3 7.9 C 0.8 km/h
1784 01-05-2019 09:00:00 8.89167 C 8.14 g/m*3 8.89 C 1.46667 km/h
1785 01-05-2019 10:00:00 10.11667 C 8.5 g/m*3 10.12 C 3.06667 km/h
1786 01-05-2019 11:00:00 11.40833 C 8.86 g/m*3 11.41 C 3.06667 km/h
1787 01-05-2019 12:00:00 13.80833 C 9.43 g/m*3 13.81 C 4.40833 km/h
1788 01-05-2019 13:00:00 16.03333 C 9.07 g/m*3 16.03 C 7.54167 km/h
1789 01-05-2019 14:00:00 17.69167 C 8.31 g/m*3 17.69 C 9.15833 km/h
1790 01-05-2019 15:00:00 19.35 C 8.11 g/m*3 19.35 C 9.40833 km/h
1791 01-05-2019 16:00:00 21.31667 C 8.18 g/m*3 21.32 C 7.40833 km/h
1792 01-05-2019 17:00:00 21.48333 C 8.34 g/m*3 21.48 C 8.05833 km/h
1793 01-05-2019 18:00:00 20.325 C 9.25 g/m*3 20.33 C 10.225 km/h
1794 01-05-2019 19:00:00 18.21667 C 9.06 g/m*3 18.22 C 7.65833 km/h
1795 01-05-2019 20:00:00 15.65833 C 8.45 g/m*3 15.66 C 3.475 km/h
1796 01-05-2019 21:00:00 13.53333 C 8.59 g/m*3 13.53 C 5.90833 km/h
1797 01-05-2019 22:00:00 12.76667 C 8.71 g/m*3 12.77 C 2.81667 km/h
1798 01-05-2019 23:00:00 10.80833 C 8.45 g/m*3 10.81 C 0 km/h
1799 02-05-2019 00:00:00 9.98333 C 8.29 g/m*3 9.98 C 0 km/h
1800 02-05-2019 01:00:00 8.96667 C 7.95 g/m*3 8.97 C 0 km/h
Sensor: Nr:Datum:Temp:Abs-Feuchte:Windchill:Wind:
Aussen-T/F 1801 02-05-2019 02:00:00 8.23333 C 7.78 g/m*3 8.23 C 0 km/h
1802 02-05-2019 03:00:00 7.73333 C 7.6 g/m*3 7.73 C 0 km/h
1803 02-05-2019 04:00:00 7.025 C 7.3 g/m*3 7.03 C 0 km/h
1804 02-05-2019 05:00:00 6.325 C 6.99 g/m*3 6.33 C 0 km/h
1805 02-05-2019 06:00:00 5.89167 C 6.85 g/m*3 5.89 C 0 km/h
1806 02-05-2019 07:00:00 6.84167 C 7.36 g/m*3 6.84 C 0.8 km/h
1807 02-05-2019 08:00:00 8.325 C 8.08 g/m*3 8.32 C 2.13333 km/h
1808 02-05-2019 09:00:00 9.075 C 8.18 g/m*3 9.07 C 1.73333 km/h
1809 02-05-2019 10:00:00 10.725 C 8.12 g/m*3 10.73 C 3.2 km/h
1810 02-05-2019 11:00:00 12.15833 C 8.24 g/m*3 12.16 C 5.21667 km/h
1811 02-05-2019 12:00:00 12.925 C 8.35 g/m*3 12.93 C 6.98333 km/h
1812 02-05-2019 13:00:00 14.15 C 8.46 g/m*3 14.15 C 7.25833 km/h
1813 02-05-2019 14:00:00 15.85 C 8.81 g/m*3 15.85 C 6.96667 km/h
1814 02-05-2019 15:00:00 16.58333 C 8.62 g/m*3 16.58 C 9.69167 km/h
1815 02-05-2019 16:00:00 17.225 C 8.51 g/m*3 17.23 C 8.86667 km/h
1816 02-05-2019 17:00:00 17.75 C 7.79 g/m*3 17.75 C 9.28333 km/h
1817 02-05-2019 18:00:00 17.96667 C 7.18 g/m*3 17.97 C 9.425 km/h
1818 02-05-2019 19:00:00 15.54167 C 7.98 g/m*3 15.54 C 12.9 km/h
1819 02-05-2019 20:00:00 12.78333 C 8.61 g/m*3 12.78 C 8.175 km/h
1820 02-05-2019 21:00:00 11.44167 C 9.11 g/m*3 11.44 C 0.4 km/h
1821 02-05-2019 22:00:00 10.75833 C 8.96 g/m*3 10.76 C 2.93333 km/h
1822 02-05-2019 23:00:00 10.7 C 9.01 g/m*3 10.7 C 0.53333 km/h
1823 03-05-2019 00:00:00 10.6 C 9.01 g/m*3 10.6 C 2.93333 km/h
1824 03-05-2019 01:00:00 10.51667 C 8.41 g/m*3 9.44 C 8.88333 km/h
1825 03-05-2019 02:00:00 9.85 C 7.83 g/m*3 9.32 C 5.91667 km/h
Sensor: Nr:Datum:Temp:Abs-Feuchte:Windchill:Wind:
Aussen-T/F 1826 03-05-2019 03:00:00 9.375 C 7.74 g/m*3 9.38 C 2.675 km/h
1827 03-05-2019 04:00:00 9.16667 C 7.81 g/m*3 9.17 C 0.53333 km/h
1828 03-05-2019 05:00:00 9.28333 C 7.9 g/m*3 9.28 C 3.46667 km/h
1829 03-05-2019 06:00:00 9.25 C 7.86 g/m*3 9.25 C 3.475 km/h
1830 03-05-2019 07:00:00 9.25 C 7.67 g/m*3 8.71 C 5.63333 km/h
1831 03-05-2019 08:00:00 9.65833 C 7.68 g/m*3 9.14 C 5.76667 km/h
1832 03-05-2019 09:00:00 10.10833 C 7.52 g/m*3 8.86 C 9.425 km/h
1833 03-05-2019 10:00:00 10.78333 C 7.28 g/m*3 9.39 C 11.15833 km/h
1834 03-05-2019 11:00:00 11.16667 C 6.99 g/m*3 11.17 C 10.625 km/h
1835 03-05-2019 12:00:00 11.34167 C 7.05 g/m*3 11.34 C 8.61667 km/h
1836 03-05-2019 13:00:00 12.075 C 7.02 g/m*3 12.08 C 9.95 km/h
1837 03-05-2019 14:00:00 12.98333 C 6.74 g/m*3 12.98 C 14.9 km/h
1838 03-05-2019 15:00:00 14.38333 C 6.53 g/m*3 14.38 C 15.03333 km/h
1839 03-05-2019 16:00:00 15 C 6.54 g/m*3 15 C 13.16667 km/h
1840 03-05-2019 17:00:00 14.125 C 6.55 g/m*3 14.13 C 13.56667 km/h
1841 03-05-2019 18:00:00 13.64167 C 6.65 g/m*3 13.64 C 10.225 km/h
1842 03-05-2019 19:00:00 12.4 C 6.56 g/m*3 12.4 C 8.06667 km/h
1843 03-05-2019 20:00:00 11.18333 C 6.51 g/m*3 11.18 C 7.25 km/h
1844 03-05-2019 21:00:00 9.875 C 6.54 g/m*3 9.88 C 4.81667 km/h
1845 03-05-2019 22:00:00 9.375 C 6.71 g/m*3 9.38 C 3.075 km/h
1846 03-05-2019 23:00:00 8.65833 C 6.78 g/m*3 8.66 C 0.8 km/h
1847 04-05-2019 00:00:00 8.05833 C 6.78 g/m*3 8.06 C 0 km/h
1848 04-05-2019 01:00:00 7.625 C 6.71 g/m*3 7.63 C 0 km/h
1849 04-05-2019 02:00:00 7.575 C 6.82 g/m*3 7.58 C 0 km/h
1850 04-05-2019 03:00:00 7.43333 C 6.91 g/m*3 7.43 C 0 km/h
Sensor: Nr:Datum:Temp:Abs-Feuchte:Windchill:Wind:
Aussen-T/F 1851 04-05-2019 04:00:00 7.4 C 7.16 g/m*3 6.28 C 6.7 km/h
1852 04-05-2019 05:00:00 5.025 C 6.22 g/m*3 2.08 C 13.16667 km/h
1853 04-05-2019 06:00:00 3.74167 C 5.77 g/m*3 1.07 C 10.36667 km/h
1854 04-05-2019 07:00:00 3.23333 C 5.62 g/m*3 1.54 C 6.425 km/h
1855 04-05-2019 08:00:00 3.26667 C 5.68 g/m*3 2.08 C 5.08333 km/h
1856 04-05-2019 09:00:00 3.99167 C 5.97 g/m*3 3.99 C 3.74167 km/h
1857 04-05-2019 10:00:00 4.64167 C 6.04 g/m*3 2.92 C 7.25 km/h
1858 04-05-2019 11:00:00 5.00833 C 6.06 g/m*3 3.16 C 7.93333 km/h
1859 04-05-2019 12:00:00 5.93333 C 6.19 g/m*3 4.05 C 8.75 km/h
1860 04-05-2019 13:00:00 7.25833 C 6.17 g/m*3 5.59 C 8.88333 km/h
1861 04-05-2019 14:00:00 7.44167 C 6.19 g/m*3 4.75 C 15.04167 km/h
1862 04-05-2019 15:00:00 4.74167 C 5.96 g/m*3 3.2 C 6.70833 km/h
1863 04-05-2019 16:00:00 7.80833 C 6.95 g/m*3 6.87 C 6.3 km/h
1864 04-05-2019 17:00:00 10.13333 C 7.32 g/m*3 9.42 C 6.85 km/h
1865 04-05-2019 18:00:00 10.36667 C 5.83 g/m*3 8.33 C 15.3 km/h
1866 04-05-2019 19:00:00 9.3 C 6.04 g/m*3 7.26 C 13.43333 km/h
1867 04-05-2019 20:00:00 7.475 C 5.99 g/m*3 6.81 C 5.23333 km/h
1868 04-05-2019 21:00:00 6.49167 C 5.93 g/m*3 5.52 C 5.75833 km/h
1869 04-05-2019 22:00:00 5.00833 C 5.78 g/m*3 5.01 C 3.48333 km/h
1870 04-05-2019 23:00:00 3.8 C 5.63 g/m*3 3.8 C 2.94167 km/h
1871 05-05-2019 00:00:00 3.71667 C 5.72 g/m*3 3.72 C 2.14167 km/h
1872 05-05-2019 01:00:00 3.80833 C 5.82 g/m*3 3.81 C 0.53333 km/h
1873 05-05-2019 02:00:00 3.45833 C 5.68 g/m*3 3.46 C 0.8 km/h
1874 05-05-2019 03:00:00 3.68333 C 5.84 g/m*3 3.68 C 1.06667 km/h
1875 05-05-2019 04:00:00 3.69167 C 5.78 g/m*3 3.69 C 2.8 km/h
Sensor: Nr:Datum:Temp:Abs-Feuchte:Windchill:Wind:
Aussen-T/F 1876 05-05-2019 05:00:00 3.33333 C 5.59 g/m*3 3.33 C 3.625 km/h
1877 05-05-2019 06:00:00 2.73333 C 5.38 g/m*3 2.73 C 0.4 km/h
1878 05-05-2019 07:00:00 2.46667 C 5.35 g/m*3 2.47 C 0.26667 km/h
1879 05-05-2019 08:00:00 3.35833 C 5.73 g/m*3 2.03 C 5.475 km/h
1880 05-05-2019 09:00:00 4.73333 C 6.07 g/m*3 4.73 C 4.28333 km/h
1881 05-05-2019 10:00:00 5.84167 C 6.21 g/m*3 4.64 C 6.175 km/h
1882 05-05-2019 11:00:00 6.98333 C 6.46 g/m*3 5.66 C 7.23333 km/h
1883 05-05-2019 12:00:00 7.63333 C 6.51 g/m*3 6.25 C 7.90833 km/h
1884 05-05-2019 13:00:00 8.91667 C 6.42 g/m*3 7.45 C 9.4 km/h
1885 05-05-2019 14:00:00 9.29167 C 6.35 g/m*3 7.42 C 12.23333 km/h
1886 05-05-2019 15:00:00 9.86667 C 6.42 g/m*3 9.2 C 6.44167 km/h
1887 05-05-2019 16:00:00 12.39167 C 6.29 g/m*3 12.39 C 12.5 km/h
1888 05-05-2019 17:00:00 12.55833 C 6.48 g/m*3 12.56 C 11.83333 km/h
1889 05-05-2019 18:00:00 11.3 C 6.59 g/m*3 11.3 C 10.75 km/h
1890 05-05-2019 19:00:00 9.66667 C 6.45 g/m*3 8.75 C 7.39167 km/h
1891 05-05-2019 20:00:00 9.19167 C 6.42 g/m*3 8.08 C 7.90833 km/h
1892 05-05-2019 21:00:00 8.26667 C 6.4 g/m*3 7.76 C 5.075 km/h
1893 05-05-2019 22:00:00 7.15 C 6.27 g/m*3 7.15 C 2.54167 km/h
1894 05-05-2019 23:00:00 6.25 C 6.3 g/m*3 6.25 C 0.4 km/h
1895 06-05-2019 00:00:00 6.11667 C 6.33 g/m*3 6.12 C 0.26667 km/h
1896 06-05-2019 01:00:00 5.90833 C 6.32 g/m*3 5.91 C 2 km/h
1897 06-05-2019 02:00:00 5.1 C 6.01 g/m*3 5.1 C 1.6 km/h
1898 06-05-2019 03:00:00 4.25833 C 5.85 g/m*3 4.26 C 0.26667 km/h
1899 06-05-2019 04:00:00 3.59167 C 5.65 g/m*3 3.59 C 0 km/h
1900 06-05-2019 05:00:00 3.01667 C 5.5 g/m*3 3.02 C 0.4 km/h
Sensor: Nr:Datum:Temp:Abs-Feuchte:Windchill:Wind:
Aussen-T/F 1901 06-05-2019 06:00:00 3.14167 C 5.63 g/m*3 3.14 C 2 km/h
1902 06-05-2019 07:00:00 3.70833 C 5.86 g/m*3 3.71 C 4.81667 km/h
1903 06-05-2019 08:00:00 4.56667 C 6.1 g/m*3 4.57 C 4 km/h
1904 06-05-2019 09:00:00 6.31667 C 6.24 g/m*3 6.32 C 4.275 km/h
1905 06-05-2019 10:00:00 8.01667 C 6.11 g/m*3 7.18 C 6.04167 km/h
1906 06-05-2019 11:00:00 9.33333 C 6.01 g/m*3 9.33 C 4.275 km/h
1907 06-05-2019 12:00:00 10.05 C 5.61 g/m*3 9.29 C 6.975 km/h
1908 06-05-2019 13:00:00 10.95 C 5.6 g/m*3 9.96 C 8.86667 km/h
1909 06-05-2019 14:00:00 11.24167 C 5.59 g/m*3 11.24 C 9.26667 km/h
1910 06-05-2019 15:00:00 11.29167 C 5.83 g/m*3 11.29 C 9.15833 km/h
1911 06-05-2019 16:00:00 11.01667 C 6.05 g/m*3 11.02 C 9.14167 km/h
1912 06-05-2019 17:00:00 10.675 C 6 g/m*3 10.35 C 5.61667 km/h
1913 06-05-2019 18:00:00 11.425 C 6.3 g/m*3 11.43 C 4.275 km/h
1914 06-05-2019 19:00:00 10.75833 C 6.73 g/m*3 10.76 C 1.60833 km/h
1915 06-05-2019 20:00:00 9.18333 C 6.73 g/m*3 9.18 C 3.48333 km/h
1916 06-05-2019 21:00:00 8.26667 C 6.9 g/m*3 8.27 C 0.13333 km/h
1917 06-05-2019 22:00:00 7.75 C 6.96 g/m*3 7.75 C 0.26667 km/h
1918 06-05-2019 23:00:00 7.30833 C 6.86 g/m*3 7.31 C 0 km/h
1919 07-05-2019 00:00:00 7.29167 C 6.99 g/m*3 7.29 C 0.26667 km/h
1920 07-05-2019 01:00:00 7.04167 C 6.93 g/m*3 7.04 C 0 km/h
1921 07-05-2019 02:00:00 6.7 C 6.84 g/m*3 6.7 C 0 km/h
1922 07-05-2019 03:00:00 6.64167 C 6.81 g/m*3 6.64 C 0 km/h
1923 07-05-2019 04:00:00 6.35 C 6.7 g/m*3 6.35 C 0 km/h
1924 07-05-2019 05:00:00 6.16667 C 6.68 g/m*3 6.17 C 0 km/h
1925 07-05-2019 06:00:00 5.85833 C 6.57 g/m*3 5.86 C 0 km/h
Sensor: Nr:Datum:Temp:Abs-Feuchte:Windchill:Wind:
Aussen-T/F 1926 07-05-2019 07:00:00 6.38333 C 6.85 g/m*3 6.38 C 0 km/h
1927 07-05-2019 08:00:00 7.30833 C 7.06 g/m*3 7.31 C 0.26667 km/h
1928 07-05-2019 09:00:00 8.475 C 7.31 g/m*3 8.48 C 1.6 km/h
1929 07-05-2019 10:00:00 9.60833 C 7.32 g/m*3 9.13 C 5.6 km/h
1930 07-05-2019 11:00:00 10.575 C 6.99 g/m*3 10.58 C 4.53333 km/h
1931 07-05-2019 12:00:00 11.88333 C 6.4 g/m*3 11.88 C 7.11667 km/h
1932 07-05-2019 13:00:00 11.86667 C 6.2 g/m*3 11.87 C 6.14167 km/h
1933 07-05-2019 14:00:00 12.76667 C 6.17 g/m*3 12.77 C 6.83333 km/h
1934 07-05-2019 15:00:00 13.05833 C 5.99 g/m*3 13.06 C 9.81667 km/h
1935 07-05-2019 16:00:00 14.13333 C 6.16 g/m*3 14.13 C 6.71667 km/h
1936 07-05-2019 17:00:00 14.9 C 6.04 g/m*3 14.9 C 5.49167 km/h
1937 07-05-2019 18:00:00 14.94167 C 5.88 g/m*3 14.94 C 5.75 km/h
1938 07-05-2019 19:00:00 13.4 C 7.19 g/m*3 13.4 C 0.13333 km/h
1939 07-05-2019 20:00:00 11.275 C 6.41 g/m*3 11.28 C 0.8 km/h
1940 07-05-2019 21:00:00 9.01667 C 6.03 g/m*3 9.02 C 0 km/h
1941 07-05-2019 22:00:00 7.98333 C 6.27 g/m*3 7.98 C 0 km/h
1942 07-05-2019 23:00:00 6.93333 C 6.23 g/m*3 6.93 C 0 km/h
1943 08-05-2019 00:00:00 6.325 C 6.15 g/m*3 6.33 C 0 km/h
1944 08-05-2019 01:00:00 5.75 C 6.03 g/m*3 5.75 C 0 km/h
1945 08-05-2019 02:00:00 5.15 C 5.97 g/m*3 5.15 C 0 km/h
1946 08-05-2019 03:00:00 4.7 C 5.96 g/m*3 4.7 C 0 km/h
1947 08-05-2019 04:00:00 4.95 C 6.16 g/m*3 4.95 C 0 km/h
1948 08-05-2019 05:00:00 5.25 C 6.29 g/m*3 5.25 C 0 km/h
1949 08-05-2019 06:00:00 5.49167 C 6.41 g/m*3 5.49 C 0 km/h
1950 08-05-2019 07:00:00 6.21667 C 6.66 g/m*3 6.22 C 0.53333 km/h
Sensor: Nr:Datum:Temp:Abs-Feuchte:Windchill:Wind:
Aussen-T/F 1951 08-05-2019 08:00:00 7.49167 C 7.03 g/m*3 7.49 C 2 km/h
1952 08-05-2019 09:00:00 8.85 C 7.21 g/m*3 8.85 C 3.48333 km/h
1953 08-05-2019 10:00:00 9.025 C 7.7 g/m*3 9.03 C 1.46667 km/h
1954 08-05-2019 11:00:00 9.69167 C 8.24 g/m*3 9.69 C 0.8 km/h
1955 08-05-2019 12:00:00 11.325 C 9.05 g/m*3 11.33 C 4.41667 km/h
1956 08-05-2019 13:00:00 13.61667 C 9.77 g/m*3 13.62 C 5.89167 km/h
1957 08-05-2019 14:00:00 14.7 C 9.91 g/m*3 14.7 C 5.875 km/h
1958 08-05-2019 15:00:00 14.56667 C 9.86 g/m*3 14.57 C 5.35 km/h
1959 08-05-2019 16:00:00 13.39167 C 10.08 g/m*3 13.39 C 5.35 km/h
1960 08-05-2019 17:00:00 12.51667 C 10.05 g/m*3 12.52 C 3.06667 km/h
1961 08-05-2019 18:00:00 12.5 C 10.22 g/m*3 12.5 C 2 km/h
1962 08-05-2019 19:00:00 12.25833 C 10.13 g/m*3 12.26 C 0.13333 km/h
1963 08-05-2019 20:00:00 11.71667 C 9.84 g/m*3 11.72 C 0.4 km/h
1964 08-05-2019 21:00:00 10.95833 C 9.43 g/m*3 10.96 C 0.13333 km/h
1965 08-05-2019 22:00:00 10.14167 C 9 g/m*3 10.14 C 1.6 km/h
1966 08-05-2019 23:00:00 9.41667 C 8.56 g/m*3 9.42 C 2.53333 km/h
1967 09-05-2019 00:00:00 8.78333 C 8.22 g/m*3 8.78 C 3.48333 km/h
1968 09-05-2019 01:00:00 8.31667 C 7.99 g/m*3 8.32 C 1.6 km/h
1969 09-05-2019 02:00:00 7.425 C 7.55 g/m*3 7.43 C 0.13333 km/h
1970 09-05-2019 03:00:00 7.31667 C 7.57 g/m*3 7.32 C 0.26667 km/h
1971 09-05-2019 04:00:00 7.75833 C 7.81 g/m*3 7.76 C 1.475 km/h
1972 09-05-2019 05:00:00 7.80833 C 7.84 g/m*3 7.81 C 0 km/h
1973 09-05-2019 06:00:00 7.46667 C 7.63 g/m*3 7.47 C 0 km/h
1974 09-05-2019 07:00:00 8.7 C 8.33 g/m*3 8.7 C 0.13333 km/h
1975 09-05-2019 08:00:00 9.9 C 8.72 g/m*3 9.9 C 2.4 km/h
Sensor: Nr:Datum:Temp:Abs-Feuchte:Windchill:Wind:
Aussen-T/F 1976 09-05-2019 09:00:00 11.4 C 8.97 g/m*3 11.4 C 2.8 km/h
1977 09-05-2019 10:00:00 11.6 C 9.17 g/m*3 11.6 C 5.475 km/h
1978 09-05-2019 11:00:00 12.78333 C 9.4 g/m*3 12.78 C 6.56667 km/h
1979 09-05-2019 12:00:00 13.21667 C 9.7 g/m*3 13.22 C 6.43333 km/h
1980 09-05-2019 13:00:00 13.26667 C 9.67 g/m*3 13.27 C 8.60833 km/h
1981 09-05-2019 14:00:00 13.60833 C 9.43 g/m*3 13.61 C 5.35 km/h
1982 09-05-2019 15:00:00 13.43333 C 9.64 g/m*3 13.43 C 4.80833 km/h
1983 09-05-2019 16:00:00 13.80833 C 9.68 g/m*3 13.81 C 4.4 km/h
1984 09-05-2019 17:00:00 14.375 C 10.05 g/m*3 14.38 C 2.66667 km/h
1985 09-05-2019 18:00:00 15.625 C 10.57 g/m*3 15.63 C 5.76667 km/h
1986 09-05-2019 19:00:00 15.4 C 10.41 g/m*3 15.4 C 3.89167 km/h
1987 09-05-2019 20:00:00 13.70833 C 10.14 g/m*3 13.71 C 0.93333 km/h
1988 09-05-2019 21:00:00 11.66667 C 9.47 g/m*3 11.67 C 7.09167 km/h
1989 09-05-2019 22:00:00 10.89167 C 9.36 g/m*3 10.89 C 1.86667 km/h
1990 09-05-2019 23:00:00 10.76667 C 9.37 g/m*3 10.77 C 3.88333 km/h
1991 10-05-2019 00:00:00 10.525 C 9.23 g/m*3 10.53 C 1.2 km/h
1992 10-05-2019 01:00:00 9.51667 C 8.66 g/m*3 9.52 C 0.26667 km/h
1993 10-05-2019 02:00:00 8.85833 C 8.34 g/m*3 8.86 C 0.13333 km/h
1994 10-05-2019 03:00:00 8.16667 C 7.97 g/m*3 8.17 C 0 km/h
1995 10-05-2019 04:00:00 8.56667 C 8.25 g/m*3 8.57 C 0 km/h
1996 10-05-2019 05:00:00 8.28333 C 8.08 g/m*3 7.49 C 6.03333 km/h
1997 10-05-2019 06:00:00 8.40833 C 8.15 g/m*3 7.63 C 6.03333 km/h
1998 10-05-2019 07:00:00 8.75 C 8.29 g/m*3 8.75 C 2.675 km/h
1999 10-05-2019 08:00:00 9.175 C 8.39 g/m*3 8.71 C 5.36667 km/h
2000 10-05-2019 09:00:00 10.7 C 8.59 g/m*3 9.13 C 12.225 km/h
Sensor: Nr:Datum:Temp:Abs-Feuchte:Windchill:Wind:
Aussen-T/F 2001 10-05-2019 10:00:00 12.1 C 8.73 g/m*3 12.1 C 11.03333 km/h
2002 10-05-2019 11:00:00 13.23333 C 8.72 g/m*3 13.23 C 11.025 km/h
2003 10-05-2019 12:00:00 14.35 C 8.31 g/m*3 14.35 C 12.9 km/h
2004 10-05-2019 13:00:00 15.44167 C 7.9 g/m*3 15.44 C 12.23333 km/h
2005 10-05-2019 14:00:00 16.75 C 7.76 g/m*3 16.75 C 13.83333 km/h
2006 10-05-2019 15:00:00 17.21667 C 7.7 g/m*3 17.22 C 10.9 km/h
2007 10-05-2019 16:00:00 17.93333 C 7.55 g/m*3 17.93 C 8.05 km/h
2008 10-05-2019 17:00:00 17.6 C 7.32 g/m*3 17.6 C 9.80833 km/h
2009 10-05-2019 18:00:00 17.25 C 7.43 g/m*3 17.25 C 5.36667 km/h
2010 10-05-2019 19:00:00 17.18333 C 9.07 g/m*3 17.18 C 0.66667 km/h
2011 10-05-2019 20:00:00 14.175 C 8.72 g/m*3 14.18 C 0 km/h
2012 10-05-2019 21:00:00 12.35 C 8.43 g/m*3 12.35 C 0 km/h
2013 10-05-2019 22:00:00 11.76667 C 8.54 g/m*3 11.77 C 0 km/h
2014 10-05-2019 23:00:00 11.53333 C 8.62 g/m*3 11.53 C 0 km/h
2015 11-05-2019 00:00:00 11.04167 C 8.69 g/m*3 11.04 C 0.4 km/h
2016 11-05-2019 01:00:00 10.36667 C 8.77 g/m*3 10.37 C 0.13333 km/h
2017 11-05-2019 02:00:00 10.1 C 8.83 g/m*3 10.1 C 0 km/h
2018 11-05-2019 03:00:00 9.925 C 8.81 g/m*3 9.93 C 0.13333 km/h
2019 11-05-2019 04:00:00 9.7 C 8.76 g/m*3 9.7 C 0 km/h
2020 11-05-2019 05:00:00 9.775 C 8.87 g/m*3 9.78 C 0.26667 km/h
2021 11-05-2019 06:00:00 9.7 C 8.85 g/m*3 9.7 C 0.26667 km/h
2022 11-05-2019 07:00:00 9.7 C 8.85 g/m*3 9.7 C 0.4 km/h
2023 11-05-2019 08:00:00 9.65833 C 8.83 g/m*3 9.66 C 2.80833 km/h
2024 11-05-2019 09:00:00 9.70833 C 8.85 g/m*3 9.71 C 4.95 km/h
2025 11-05-2019 10:00:00 9.85833 C 8.94 g/m*3 9.49 C 5.35 km/h
Sensor: Nr:Datum:Temp:Abs-Feuchte:Windchill:Wind:
Aussen-T/F 2026 11-05-2019 11:00:00 10.13333 C 9.1 g/m*3 10.13 C 4.95 km/h
2027 11-05-2019 12:00:00 10.36667 C 9.1 g/m*3 9.27 C 8.875 km/h
2028 11-05-2019 13:00:00 9.79167 C 8.72 g/m*3 8.61 C 8.73333 km/h
2029 11-05-2019 14:00:00 9.76667 C 8.79 g/m*3 9.77 C 1.86667 km/h
2030 11-05-2019 15:00:00 9.91667 C 8.88 g/m*3 9.92 C 3.475 km/h
2031 11-05-2019 16:00:00 10.31667 C 9.2 g/m*3 10.32 C 1.6 km/h
2032 11-05-2019 17:00:00 10.95833 C 9.53 g/m*3 10.96 C 2.94167 km/h
2033 11-05-2019 18:00:00 11.79167 C 9.33 g/m*3 11.79 C 11.96667 km/h
2034 11-05-2019 19:00:00 12.1 C 8.75 g/m*3 12.1 C 14.36667 km/h
2035 11-05-2019 20:00:00 11.3 C 8.59 g/m*3 11.3 C 3.89167 km/h
2036 11-05-2019 21:00:00 9.44167 C 8.27 g/m*3 9.44 C 0 km/h
2037 11-05-2019 22:00:00 8.33333 C 7.84 g/m*3 8.33 C 0 km/h
2038 11-05-2019 23:00:00 7.65 C 7.62 g/m*3 7.65 C 0 km/h
2039 12-05-2019 00:00:00 7.41667 C 7.56 g/m*3 7.42 C 0.4 km/h
2040 12-05-2019 01:00:00 6.75 C 7.24 g/m*3 6.75 C 1.46667 km/h
2041 12-05-2019 02:00:00 6.43333 C 7 g/m*3 6.43 C 3.86667 km/h
2042 12-05-2019 03:00:00 5.66667 C 6.6 g/m*3 5.67 C 1.46667 km/h
2043 12-05-2019 04:00:00 4.70833 C 6.25 g/m*3 4.71 C 0.13333 km/h
2044 12-05-2019 05:00:00 4.225 C 6.11 g/m*3 4.22 C 0 km/h
2045 12-05-2019 06:00:00 4.45833 C 6.23 g/m*3 4.46 C 0.93333 km/h
2046 12-05-2019 07:00:00 5.68333 C 6.53 g/m*3 4.77 C 5.225 km/h
2047 12-05-2019 08:00:00 6.98333 C 6.62 g/m*3 5.69 C 7.1 km/h
2048 12-05-2019 09:00:00 8.125 C 6.56 g/m*3 6.03 C 12.09167 km/h
2049 12-05-2019 10:00:00 8.83333 C 6.48 g/m*3 6.89 C 12.1 km/h
2050 12-05-2019 11:00:00 9.58333 C 6.35 g/m*3 7.68 C 12.89167 km/h
Sensor: Nr:Datum:Temp:Abs-Feuchte:Windchill:Wind:
Aussen-T/F 2051 12-05-2019 12:00:00 10.54167 C 6.3 g/m*3 9.07 C 11.3 km/h
2052 12-05-2019 13:00:00 11.66667 C 6.28 g/m*3 11.67 C 12.76667 km/h
2053 12-05-2019 14:00:00 12.83333 C 6.15 g/m*3 12.83 C 12.1 km/h
2054 12-05-2019 15:00:00 14.13333 C 6.19 g/m*3 14.13 C 12.76667 km/h
2055 12-05-2019 16:00:00 15.25833 C 5.99 g/m*3 15.26 C 12.23333 km/h
2056 12-05-2019 17:00:00 14.83333 C 5.78 g/m*3 14.83 C 11.43333 km/h
2057 12-05-2019 18:00:00 15.19167 C 5.65 g/m*3 15.19 C 14.1 km/h
2058 12-05-2019 19:00:00 13.96667 C 5.43 g/m*3 13.97 C 12.35833 km/h
2059 12-05-2019 20:00:00 13.09167 C 5.62 g/m*3 13.09 C 5.775 km/h
2060 12-05-2019 21:00:00 9.68333 C 6.57 g/m*3 9.68 C 0.66667 km/h
2061 12-05-2019 22:00:00 8.375 C 6.5 g/m*3 8.38 C 0.26667 km/h
2062 12-05-2019 23:00:00 7.30833 C 6.21 g/m*3 7.31 C 0.53333 km/h
2063 13-05-2019 00:00:00 6.45 C 6.14 g/m*3 6.45 C 0 km/h
2064 13-05-2019 01:00:00 5.11667 C 6 g/m*3 5.12 C 0 km/h
2065 13-05-2019 02:00:00 4.15 C 5.82 g/m*3 4.15 C 0 km/h
2066 13-05-2019 03:00:00 3.60833 C 5.71 g/m*3 3.61 C 0 km/h
2067 13-05-2019 04:00:00 3.075 C 5.57 g/m*3 3.08 C 0.13333 km/h
2068 13-05-2019 05:00:00 2.64167 C 5.46 g/m*3 2.64 C 0.13333 km/h
2069 13-05-2019 06:00:00 2.30833 C 5.36 g/m*3 2.31 C 0 km/h
2070 13-05-2019 07:00:00 2.63333 C 5.52 g/m*3 2.63 C 0 km/h
2071 13-05-2019 08:00:00 4.26667 C 6.21 g/m*3 4.27 C 0 km/h
2072 13-05-2019 09:00:00 6.13333 C 6.62 g/m*3 6.13 C 0.53333 km/h
2073 13-05-2019 10:00:00 9.69167 C 5.33 g/m*3 9.11 C 6.04167 km/h
2074 13-05-2019 11:00:00 11.4 C 5 g/m*3 11.4 C 4.54167 km/h
2075 13-05-2019 12:00:00 13.43333 C 3.8 g/m*3 13.43 C 15.7 km/h
Sensor: Nr:Datum:Temp:Abs-Feuchte:Windchill:Wind:
Aussen-T/F 2076 13-05-2019 13:00:00 14.6 C 3.74 g/m*3 14.6 C 12.36667 km/h
2077 13-05-2019 14:00:00 15.575 C 4.12 g/m*3 15.58 C 11.025 km/h
2078 13-05-2019 15:00:00 17.19167 C 4.33 g/m*3 17.19 C 11.025 km/h
2079 13-05-2019 16:00:00 18.43333 C 4.56 g/m*3 18.43 C 15.56667 km/h
2080 13-05-2019 17:00:00 18.6 C 4.52 g/m*3 18.6 C 16.1 km/h
2081 13-05-2019 18:00:00 18.08333 C 4.45 g/m*3 18.08 C 16.36667 km/h
2082 13-05-2019 19:00:00 16.95833 C 4.74 g/m*3 16.96 C 17.03333 km/h
2083 13-05-2019 20:00:00 15.41667 C 4.57 g/m*3 15.42 C 12.76667 km/h
2084 13-05-2019 21:00:00 12.25 C 5.46 g/m*3 12.25 C 1.74167 km/h
2085 13-05-2019 22:00:00 9.325 C 5.48 g/m*3 9.32 C 0.13333 km/h
2086 13-05-2019 23:00:00 7.875 C 5.69 g/m*3 7.88 C 0 km/h
2087 14-05-2019 00:00:00 6.7 C 5.69 g/m*3 6.7 C 0 km/h
2088 14-05-2019 01:00:00 5.76667 C 5.54 g/m*3 5.77 C 0 km/h
2089 14-05-2019 02:00:00 4.74167 C 5.43 g/m*3 4.74 C 0 km/h
2090 14-05-2019 03:00:00 3.83333 C 5.32 g/m*3 3.83 C 0 km/h
2091 14-05-2019 04:00:00 3.18333 C 5.24 g/m*3 3.18 C 0 km/h
2092 14-05-2019 05:00:00 2.66667 C 5.17 g/m*3 2.67 C 0 km/h
2093 14-05-2019 06:00:00 2.41667 C 5.19 g/m*3 2.42 C 0 km/h
2094 14-05-2019 07:00:00 2.825 C 5.44 g/m*3 2.83 C 0 km/h
2095 14-05-2019 08:00:00 4.2 C 5.97 g/m*3 4.2 C 0 km/h
2096 14-05-2019 09:00:00 6.50833 C 6.44 g/m*3 6.51 C 1.46667 km/h
2097 14-05-2019 10:00:00 9.575 C 6.34 g/m*3 8.9 C 6.30833 km/h
2098 14-05-2019 11:00:00 12.65 C 5.64 g/m*3 12.65 C 15.7 km/h
2099 14-05-2019 12:00:00 13.45833 C 5.35 g/m*3 13.46 C 13.83333 km/h
2100 14-05-2019 13:00:00 14.21667 C 5.35 g/m*3 14.22 C 15.7 km/h
Sensor: Nr:Datum:Temp:Abs-Feuchte:Windchill:Wind:
Aussen-T/F 2101 14-05-2019 14:00:00 14.79167 C 5.44 g/m*3 14.79 C 15.83333 km/h
2102 14-05-2019 15:00:00 16.00833 C 5.43 g/m*3 16.01 C 13.96667 km/h
2103 14-05-2019 16:00:00 16.59167 C 5.24 g/m*3 16.59 C 15.69167 km/h
2104 14-05-2019 17:00:00 16.8 C 5.21 g/m*3 16.8 C 14.75833 km/h
2105 14-05-2019 18:00:00 16.475 C 5.22 g/m*3 16.48 C 9.53333 km/h
2106 14-05-2019 19:00:00 16.075 C 5.22 g/m*3 16.08 C 7.50833 km/h
2107 14-05-2019 20:00:00 13.73333 C 5.8 g/m*3 13.73 C 4.15833 km/h
2108 14-05-2019 21:00:00 10.35 C 5.82 g/m*3 10.35 C 0.53333 km/h
2109 14-05-2019 22:00:00 8.73333 C 5.89 g/m*3 8.73 C 0 km/h
2110 14-05-2019 23:00:00 7.69167 C 5.83 g/m*3 7.69 C 0 km/h
2111 15-05-2019 00:00:00 6.88333 C 5.65 g/m*3 6.88 C 0 km/h
2112 15-05-2019 01:00:00 5.89167 C 5.57 g/m*3 5.89 C 0 km/h
2113 15-05-2019 02:00:00 4.74167 C 5.44 g/m*3 4.74 C 0 km/h
2114 15-05-2019 03:00:00 3.98333 C 5.37 g/m*3 3.98 C 0 km/h
2115 15-05-2019 04:00:00 3.15 C 5.25 g/m*3 3.15 C 0 km/h
2116 15-05-2019 05:00:00 2.60833 C 5.15 g/m*3 2.61 C 0 km/h
2117 15-05-2019 06:00:00 2.325 C 5.17 g/m*3 2.33 C 0 km/h
2118 15-05-2019 07:00:00 2.75833 C 5.41 g/m*3 2.76 C 0 km/h
2119 15-05-2019 08:00:00 3.775 C 5.81 g/m*3 3.78 C 0 km/h
2120 15-05-2019 09:00:00 5.99167 C 6.19 g/m*3 5.99 C 2.81667 km/h
2121 15-05-2019 10:00:00 10.15833 C 5.19 g/m*3 9.15 C 8.19167 km/h
2122 15-05-2019 11:00:00 12.05 C 4.88 g/m*3 12.05 C 10.225 km/h
2123 15-05-2019 12:00:00 12.95 C 4.63 g/m*3 12.95 C 8.85833 km/h
2124 15-05-2019 13:00:00 14.08333 C 4.35 g/m*3 14.08 C 13.56667 km/h
2125 15-05-2019 14:00:00 14.95 C 4.75 g/m*3 14.95 C 15.96667 km/h
Sensor: Nr:Datum:Temp:Abs-Feuchte:Windchill:Wind:
Aussen-T/F 2126 15-05-2019 15:00:00 15.975 C 4.64 g/m*3 15.98 C 17.83333 km/h
2127 15-05-2019 16:00:00 17.19167 C 5.03 g/m*3 17.19 C 12.1 km/h
2128 15-05-2019 17:00:00 17.58333 C 4.96 g/m*3 17.58 C 14.1 km/h
2129 15-05-2019 18:00:00 17.38333 C 5.02 g/m*3 17.38 C 13.55833 km/h
2130 15-05-2019 19:00:00 16.55833 C 4.97 g/m*3 16.56 C 11.55 km/h
2131 15-05-2019 20:00:00 15.10833 C 5.45 g/m*3 15.11 C 4.69167 km/h
2132 15-05-2019 21:00:00 11.45833 C 5.85 g/m*3 11.46 C 1.74167 km/h
2133 15-05-2019 22:00:00 9.525 C 5.5 g/m*3 9.53 C 0.53333 km/h
2134 15-05-2019 23:00:00 8.09167 C 5.32 g/m*3 8.09 C 0.93333 km/h

Maximal/Minimal-Werte vom 16.02.2019 - 15.05.2019

Sensor Min Max Avg
Temp
(Aussen-T/F)
-2.4 °C
24-02-2019  07:20:00
26.6 °C
24-04-2019  17:05:00
8.9 °C
Abs-Feuchte
(Aussen-T/F)
3.64 g/m*3
12-04-2019  17:00:00
11.08 g/m*3
25-04-2019  17:00:00
6.78 g/m*3
Windchill
(Aussen-T/F)
-2.36 C
24-02-2019  07:00:00
26.13 C
21-04-2019  18:00:00
8.47 C

Die Daten stammen von einer Davis Vantage Pro 2 Wetter-Station und werden unter Linux mit der Software wview2wettercgi und aufbereitet. Alle Angaben erfolgen ohne Gewähr für ihre Vollständigkeit oder Richtigkeit.
Kontakt: Rainer Krienke krienke@uni-koblenz.de . Meine Webseiten an der Uni Koblenz oder privat.
Version: $Revision: 0.78 $